Ship Status Report: callsign 000000

sailwx.info

Track history (hours):
 
Tides and Currents Weather Stations Pressure Air Temp Water Temp Dewpoint Dewpoint Depression Visibility Wind Speed Wind Dir Waves Ship Positions

Callsign 000000 (name unknown)

Last reported at 2014-Aug-28 12:33 UTC. Time now 2014-Aug-28 13:23 UTC.
Position N 34°49' E 119°28'.

Type: Fishing. MMSI: 200007452.

Date/timePositionNaut miles runAvg speedWind from/ knotsBaromVisibWave heightAir tempDewpointWater temp
2014-Aug-28 12:33N 34°49' E 119°28'772555758.6
2014-Aug-28 12:33N 23°04' E 113°29'665798008.1
2014-Aug-28 12:33N 30°36' E 122°36'66518001.0
2014-Aug-28 12:31N 23°04' E 113°29'65445253.0
2014-Aug-28 12:30N 31°21' E 121°27'6228.5
2014-Aug-28 12:29N 31°25' E 121°32'7783.1
2014-Aug-28 11:33N 30°31' E 122°35'66140345.8
2014-Aug-28 11:32N 23°04' E 113°29'65410142.6
2014-Aug-28 11:28N 31°21' E 121°27'2337416.7
2014-Aug-28 11:26N 34°50' E 119°24'2318664.9
2014-Aug-28 11:25N 31°25' E 121°32'73274.6
2014-Aug-28 11:09N 31°57' E 120°15'6431059.1
2014-Aug-28 10:32N 23°04' E 113°29'368331532.8
2014-Aug-28 10:32N 25°58' E 119°26'31830903.8
2014-Aug-28 10:32N 30°28' E 122°35'856955.1
2014-Aug-28 10:31N 31°28' E 121°25'849.6
2014-Aug-28 10:22N 31°21' E 121°27'6236.1
2014-Aug-28 10:20N 31°25' E 121°32'711479.7
2014-Aug-28 10:17N 31°58' E 120°18'6463715.4
2014-Aug-28 10:07N 23°04' E 113°29'6491157.6
2014-Aug-28 09:33N 31°60' E 120°23'6491168541.6
2014-Aug-28 09:33N 23°04' E 113°29'659296728.6
2014-Aug-28 09:33N 30°28' E 122°35'31820792.3
2014-Aug-28 09:32N 25°58' E 119°26'340136070.6
2014-Aug-28 09:32N 31°21' E 121°27'8241.2
2014-Aug-28 09:30N 31°28' E 121°25'658689.6
2014-Aug-28 08:33N 23°04' E 113°29'6589669.0
2014-Aug-28 08:29N 31°28' E 121°25'6446161.0
2014-Aug-28 08:29N 31°58' E 120°18'3632540.1
2014-Aug-28 08:20N 25°58' E 119°26'3407117.5
2014-Aug-28 08:17N 31°21' E 121°27'62386.0
2014-Aug-28 08:08N 32°02' E 120°31'5798.8
2014-Aug-28 07:33N 31°28' E 121°25'658131608.5
2014-Aug-28 07:33N 23°04' E 113°29'131131.6
2014-Aug-28 07:32N 22°52' E 113°33'65949456.9
2014-Aug-28 07:32N 32°01' E 120°24'44439951.2
2014-Aug-28 07:31N 39°05' E 117°44'79215251.5
2014-Aug-28 07:28N 25°58' E 119°26'369406.8
2014-Aug-28 06:33N 32°02' E 120°31'655112348.2
2014-Aug-28 06:33N 23°04' E 113°29'65490502.1
2014-Aug-28 06:33N 31°21' E 121°27'49813911.4
2014-Aug-28 06:30N 39°05' E 117°44'4917720.0
2014-Aug-28 06:27N 31°28' E 121°25'65811786.0
2014-Aug-28 06:23N 23°04' E 113°29'9851187.1
2014-Aug-28 05:33N 39°05' E 117°46'4971790410.7
2014-Aug-28 05:33N 31°21' E 121°27'72998.8
2014-Aug-28 05:33N 31°28' E 121°25'5212477.5
2014-Aug-28 05:33N 32°01' E 120°37'6572365011.5
2014-Aug-28 05:33N 23°04' E 113°29'2811225.9
2014-Aug-28 05:33N 22°38' E 113°41'251389.7
2014-Aug-28 05:32N 22°13' E 113°36'51195.7
2014-Aug-28 05:16N 23°04' E 113°29'36863160.6
2014-Aug-28 05:16N 25°58' E 119°26'368521.5
2014-Aug-28 04:33N 23°04' E 113°29'986709599.3
2014-Aug-28 04:33N 39°04' E 117°51'44545756.4
2014-Aug-28 04:33N 32°00' E 120°39'67371300.5
2014-Aug-28 04:32N 22°38' E 113°41'66817186.5
2014-Aug-28 04:30N 31°22' E 121°28'3419980.5
2014-Aug-28 04:28N 25°58' E 119°26'3904634.2
2014-Aug-28 04:23N 22°14' E 113°36'51499.8
2014-Aug-28 04:17N 23°04' E 113°29'0 0.1
2014-Aug-28 03:33N 23°04' E 113°29'9851773693.8
2014-Aug-28 03:33N 39°05' E 117°45'985295617.6
2014-Aug-28 03:33N 23°04' E 113°29'65584174.9
2014-Aug-28 03:33N 31°22' E 121°28'7767.8
2014-Aug-28 03:32N 31°28' E 121°25'69827628.4
2014-Aug-28 03:30N 22°21' E 113°18'4008670.0
2014-Aug-28 03:28N 25°58' E 119°26'36869743.5
2014-Aug-28 03:27N 32°00' E 120°39'69716179.9
2014-Aug-28 03:25N 22°14' E 113°36'531821.4
2014-Aug-28 03:23N 23°03' E 113°16'34312.9
2014-Aug-28 03:17N 22°38' E 113°41'668932.2
2014-Aug-28 02:34N 31°22' E 121°28'655214261.9
2014-Aug-28 02:33N 23°04' E 113°29'507141.0
2014-Aug-28 02:33N 22°15' E 113°36'371180.7
2014-Aug-28 02:31N 22°52' E 113°33'666114086.9
2014-Aug-28 02:31N 31°28' E 121°25'65891117.0
2014-Aug-28 02:30N 23°04' E 113°29'512496.7
2014-Aug-28 02:29N 22°14' E 113°23'40017989.3
2014-Aug-28 02:28N 25°58' E 119°26'37395795.8
2014-Aug-28 02:27N 22°53' E 113°31'6676078.1
2014-Aug-28 02:21N 31°26' E 121°30'3 3.2
2014-Aug-28 01:33N 31°24' E 121°31'44666.5
2014-Aug-28 01:33N 31°22' E 121°28'655181312.0
2014-Aug-28 01:33N 23°04' E 113°29'0 6.1
2014-Aug-28 01:33N 23°04' E 113°29'11681.2
2014-Aug-28 01:32N 22°53' E 113°30'66619814.5
2014-Aug-28 01:30N 31°28' E 121°25'70312220.6
2014-Aug-28 01:26N 22°10' E 113°27'3995226.7
2014-Aug-28 01:22N 25°58' E 119°26'373463.4
2014-Aug-28 00:33N 22°53' E 113°30'6661198779.7
2014-Aug-28 00:33N 31°28' E 121°25'6582368999.3
2014-Aug-28 00:33N 23°04' E 113°29'040.7
2014-Aug-28 00:33N 23°04' E 113°29'655107135.6
2014-Aug-28 00:33N 31°22' E 121°28'3411818.7
2014-Aug-28 00:22N 25°58' E 119°26'341425.1
2014-Aug-27 23:33N 31°22' E 121°28'663298148.0
2014-Aug-27 23:33N 22°53' E 113°30'11939.2
2014-Aug-27 23:33N 23°04' E 113°29'0 1.4
2014-Aug-27 23:30N 23°04' E 113°29'65825202.9
2014-Aug-27 23:29N 31°28' E 121°25'3472943.5
2014-Aug-27 23:22N 25°58' E 119°26'373463.7
2014-Aug-27 22:33N 22°53' E 113°30'111792.1
2014-Aug-27 22:33N 23°04' E 113°29'65526482.1
2014-Aug-27 22:31N 31°22' E 121°28'790.3
2014-Aug-27 22:27N 31°28' E 121°25'3474065.2
2014-Aug-27 22:22N 25°58' E 119°26'3682526.3
2014-Aug-27 22:13N 23°04' E 113°29'5 8.4
2014-Aug-27 21:33N 23°02' E 113°24'111377.4
2014-Aug-27 21:33N 22°53' E 113°30'663183470.1
2014-Aug-27 21:33N 31°22' E 121°28'784.8
2014-Aug-27 21:28N 31°28' E 121°25'65814019.1
2014-Aug-27 21:25N 23°04' E 113°29'54334.3
2014-Aug-27 21:15N 22°11' E 113°32'5476.9
2014-Aug-27 20:33N 23°04' E 113°29'114923.0
2014-Aug-27 20:33N 22°53' E 113°30'666114166.1
2014-Aug-27 20:33N 31°28' E 121°25'7352.8
2014-Aug-27 20:32N 31°22' E 121°28'6559945.7
2014-Aug-27 20:28N 23°04' E 113°29'77017443.1
2014-Aug-27 20:25N 34°50' E 119°22'226261.8
2014-Aug-27 19:33N 31°28' E 121°25'66661474.1
2014-Aug-27 19:33N 22°53' E 113°30'66376938.6
2014-Aug-27 19:32N 31°22' E 121°28'23220408.1
2014-Aug-27 19:31N 34°50' E 119°25'7729614.4
2014-Aug-27 19:27N 23°04' E 113°29'0 3.9
2014-Aug-27 19:22N 23°04' E 113°29'656810.6
2014-Aug-27 18:33N 31°22' E 121°30'76561.8
2014-Aug-27 18:33N 31°28' E 121°25'22340068.0
2014-Aug-27 18:33N 34°49' E 119°29'7827071.7
2014-Aug-27 18:26N 22°53' E 113°30'9700.3
2014-Aug-27 18:26N 22°44' E 113°29'201815.6
2014-Aug-27 18:25N 23°04' E 113°29'0 1.8
2014-Aug-27 18:15N 23°04' E 113°29'7721119.1
2014-Aug-27 17:33N 34°49' E 119°30'78278184.0
2014-Aug-27 17:33N 22°53' E 113°30'666342685.7
2014-Aug-27 17:33N 31°24' E 121°31'6593721.9
2014-Aug-27 17:22N 23°04' E 113°29'191640.7
2014-Aug-27 17:21N 22°46' E 113°22'19314.9
2014-Aug-27 17:18N 23°04' E 113°29'7721049.3
2014-Aug-27 16:34N 34°49' E 119°28'229103075.1
2014-Aug-27 16:33N 31°24' E 121°31'536964683.2
2014-Aug-27 16:33N 22°33' E 120°16'53992440.8
2014-Aug-27 16:33N 31°28' E 121°25'666399581.5
2014-Aug-27 16:33N 22°53' E 113°30'12734.9
2014-Aug-27 16:32N 23°02' E 113°22'778.9
2014-Aug-27 16:27N 23°04' E 113°29'17700.4
2014-Aug-27 16:25N 22°50' E 113°18'173575.9
2014-Aug-27 16:25N 23°04' E 113°29'53951.9
2014-Aug-27 16:22N 22°11' E 113°33'4252.2
2014-Aug-27 15:33N 22°53' E 113°30'121076.4
2014-Aug-27 15:32N 23°05' E 113°27'168238.7
2014-Aug-27 15:32N 22°54' E 113°14'515231.1
2014-Aug-27 15:32N 22°07' E 113°36'70022920.8
2014-Aug-27 15:30N 31°24' E 121°31'6999.8
2014-Aug-27 15:29N 31°28' E 121°25'53928957.7
2014-Aug-27 15:28N 22°34' E 120°06'3675436.5
2014-Aug-27 15:24N 23°04' E 113°29'66053959.6
2014-Aug-27 15:23N 31°28' E 121°27'6602931.3
2014-Aug-27 15:10N 23°04' E 113°29'1117.7
2014-Aug-27 14:33N 22°53' E 113°30'6671200455.9
2014-Aug-27 14:33N 31°25' E 121°31'61228.0
2014-Aug-27 14:33N 31°28' E 121°25'6794.8
2014-Aug-27 14:33N 31°24' E 121°31'65931208.5
2014-Aug-27 14:31N 23°02' E 113°31'554906.7
2014-Aug-27 14:31N 22°07' E 113°33'3966484.9
2014-Aug-27 14:27N 25°58' E 119°26'3691881.7
2014-Aug-27 14:15N 23°04' E 113°29'183552.9
2014-Aug-27 14:15N 22°54' E 113°13'18599.7
2014-Aug-27 14:13N 23°04' E 113°29'77222060.5
2014-Aug-27 14:11N 34°48' E 119°31'530846.4
2014-Aug-27 13:33N 25°58' E 119°27'3881395100.1
2014-Aug-27 13:33N 22°54' E 113°13'78785871.9
2014-Aug-27 13:33N 34°49' E 119°28'78239083.0
2014-Aug-27 13:32N 22°53' E 113°30'11147.8
2014-Aug-27 13:27N 23°04' E 113°29'65846452.7
2014-Aug-27 13:26N 31°28' E 121°25'65828203.5
2014-Aug-27 13:25N 23°04' E 113°29'3091405.2
2014-Aug-27 13:12N 24°46' E 118°48'3303833.2
2014-Aug-27 13:07N 22°06' E 113°34'561690.1
2014-Aug-27 13:05N 23°02' E 113°31'7731493.2
2014-Aug-27 12:34N 34°50' E 119°27'782234482.7
2014-Aug-27 12:33N 22°53' E 113°30'66661473.7
2014-Aug-27 12:33N 31°28' E 121°25'6587135.8
2014-Aug-27 12:27N 23°04' E 113°29'3206.9
2014-Aug-27 12:26N 23°02' E 113°31'37712338.0
2014-Aug-27 12:24N 26°07' E 119°33'3775499.9
2014-Aug-27 12:20N 23°04' E 113°30'658789460.0
2014-Aug-27 12:20N 31°31' E 121°22'7023113.7
2014-Aug-27 12:07N 22°06' E 113°34'4784.8
2014-Aug-27 11:33N 22°53' E 113°30'11633.7
2014-Aug-27 11:32N 23°04' E 113°30'3217.5
2014-Aug-27 11:32N 23°02' E 113°32'56621.4
2014-Aug-27 11:26N 22°06' E 113°35'70226869.0
2014-Aug-27 11:25N 31°28' E 121°25'658772.1
2014-Aug-27 10:34N 23°04' E 113°29'114399.7
2014-Aug-27 10:33N 22°53' E 113°30'161351.8
2014-Aug-27 10:33N 22°54' E 113°13'481471.9
2014-Aug-27 10:31N 22°10' E 113°35'54436.4
2014-Aug-27 10:23N 23°04' E 113°30'315.0
2014-Aug-27 10:13N 23°02' E 113°31'3 4.6
2014-Aug-27 09:33N 23°04' E 113°29'658263320.0
2014-Aug-27 09:33N 31°24' E 121°31'65855090.1
2014-Aug-27 09:32N 23°04' E 113°30'32398.2
2014-Aug-27 09:32N 23°02' E 113°31'92114.5
2014-Aug-27 09:32N 22°53' E 113°30'1628288.0
2014-Aug-27 09:32N 22°54' E 113°13'2724366.4
2014-Aug-27 09:28N 23°45' E 118°04'4966976.0
2014-Aug-27 09:24N 31°28' E 121°25'659780.0
2014-Aug-27 08:33N 23°02' E 113°31'81909.5
2014-Aug-27 08:33N 22°53' E 113°30'111413.4
2014-Aug-27 08:33N 23°04' E 113°29'0132.9
2014-Aug-27 08:32N 23°04' E 113°30'25227530.2
2014-Aug-27 08:32N 23°45' E 118°01'50527117.1
2014-Aug-27 08:31N 31°58' E 120°03'75737.9
2014-Aug-27 08:25N 31°28' E 121°25'7016452.2
2014-Aug-27 08:18N 22°16' E 113°21'3850.7
2014-Aug-27 07:33N 22°53' E 113°30'1140533.2
2014-Aug-27 07:33N 23°04' E 113°29'64157697.9
2014-Aug-27 07:32N 31°57' E 120°11'6584891.1
2014-Aug-27 07:24N 22°54' E 113°13'99912977.8
2014-Aug-27 07:20N 39°05' E 117°44'446577.1
2014-Aug-27 06:33N 31°58' E 120°18'65032043.7
2014-Aug-27 06:32N 23°02' E 113°23'7553.6
2014-Aug-27 06:31N 23°02' E 113°31'65987880.8
2014-Aug-27 06:31N 31°28' E 121°25'666140964.6
2014-Aug-27 06:31N 22°51' E 113°33'99731213.9
2014-Aug-27 06:29N 39°05' E 117°44'98510849.1
2014-Aug-27 06:23N 23°04' E 113°30'9858738.1
2014-Aug-27 06:17N 39°05' E 117°44'603840.7
2014-Aug-27 05:33N 29°46' E 122°18'622186612.4
2014-Aug-27 05:33N 23°02' E 113°31'988222211.2
2014-Aug-27 05:33N 39°05' E 117°44'98582504.0
2014-Aug-27 05:32N 23°04' E 113°30'658338297.3
2014-Aug-27 05:32N 31°28' E 121°25'49165476.8
2014-Aug-27 05:32N 39°05' E 117°44'997239299.6
2014-Aug-27 05:31N 22°51' E 113°33'2023712.8
2014-Aug-27 05:31N 23°02' E 113°15'9902220.3
2014-Aug-27 05:05N 39°05' E 117°46'3 4.9
2014-Aug-27 04:33N 39°04' E 117°49'989444830.9
2014-Aug-27 04:33N 23°03' E 113°20'9569.0
2014-Aug-27 04:32N 23°04' E 113°30'376.6
2014-Aug-27 04:30N 23°02' E 113°31'6594485.3
2014-Aug-27 04:21N 31°28' E 121°25'49116522.4
2014-Aug-27 04:20N 39°05' E 117°44'60260158.2
2014-Aug-27 04:19N 29°47' E 122°16'6029799.4
2014-Aug-27 04:15N 39°05' E 117°44'5 7.2
2014-Aug-27 03:33N 39°03' E 117°50'11225.9
2014-Aug-27 03:33N 39°04' E 117°51'986591445.6
2014-Aug-27 03:33N 23°05' E 113°28'47221.3
2014-Aug-27 03:33N 23°02' E 113°31'659395454.9
2014-Aug-27 03:33N 31°28' E 121°25'48992651.5
2014-Aug-27 03:33N 39°04' E 117°48'6015694.3
2014-Aug-27 03:26N 29°46' E 122°18'62826278.8
2014-Aug-27 03:25N 23°02' E 113°22'8258.0
2014-Aug-27 03:23N 23°04' E 113°30'9851187.7
2014-Aug-27 02:34N 39°05' E 117°44'81859.4
2014-Aug-27 02:33N 38°60' E 117°52'981196208.4
2014-Aug-27 02:33N 23°05' E 113°29'1154.6
2014-Aug-27 02:33N 23°04' E 113°29'3605.1
2014-Aug-27 02:32N 23°02' E 113°31'9873554541.4
2014-Aug-27 02:32N 39°03' E 117°52'98910752.4
2014-Aug-27 02:27N 23°03' E 113°16'6636438.3
2014-Aug-27 02:21N 31°60' E 120°37'656181628.0
2014-Aug-27 02:20N 23°04' E 113°30'3071881.4
2014-Aug-27 02:11N 24°47' E 118°46'444718.8
2014-Aug-27 01:33N 32°01' E 120°31'65416014.4
2014-Aug-27 01:31N 23°05' E 113°29'62242274.6
2014-Aug-27 01:30N 29°45' E 122°22'60580644.2
2014-Aug-27 01:30N 39°05' E 117°45'9871184994.4
2014-Aug-27 01:30N 23°02' E 113°31'314.9
2014-Aug-27 01:19N 23°04' E 113°29'984221333.9
2014-Aug-27 01:18N 39°02' E 117°52'4937920.2
2014-Aug-27 01:15N 31°21' E 121°27'497723.0
2014-Aug-27 00:33N 39°05' E 117°46'98480531.4
2014-Aug-27 00:33N 23°05' E 113°29'655131042.4
2014-Aug-27 00:32N 31°22' E 121°29'6714220.8
2014-Aug-27 00:32N 32°01' E 120°24'1698452.3
2014-Aug-27 00:31N 29°45' E 122°22'1304810.5
2014-Aug-27 00:29N 31°40' E 121°13'2223.5
2014-Aug-26 23:33N 31°24' E 121°31'7028063.2
2014-Aug-26 23:32N 31°57' E 120°19'6441159959.8
2014-Aug-26 23:32N 23°05' E 113°29'1191.7
2014-Aug-26 23:32N 23°04' E 113°29'6585396.2
2014-Aug-26 23:25N 31°28' E 121°25'6582637.8
2014-Aug-26 23:10N 23°04' E 113°29'1 2.2
2014-Aug-26 22:32N 23°05' E 113°29'64016683.9
2014-Aug-26 22:30N 31°56' E 120°12'6491720.6
2014-Aug-26 22:07N 22°51' E 113°33'1425.5
2014-Aug-26 21:33N 23°05' E 113°29'1 7.3
2014-Aug-26 21:23N 23°04' E 113°29'6246239.4
2014-Aug-26 21:17N 29°44' E 122°23'623832.7
2014-Aug-26 20:32N 23°05' E 113°29'63784893.9
2014-Aug-26 20:32N 31°58' E 120°03'76390.4
2014-Aug-26 20:20N 31°28' E 121°25'0 0.0
2014-Aug-26 19:32N 31°28' E 121°25'6578103.6
2014-Aug-26 19:27N 23°05' E 113°29'124.3
2014-Aug-26 19:23N 23°04' E 113°30'13236.3
2014-Aug-26 19:20N 22°51' E 113°33'78223074.9
2014-Aug-26 19:18N 34°50' E 119°24'7726826.1
2014-Aug-26 19:11N 23°04' E 113°29'1 1.9
2014-Aug-26 18:33N 23°05' E 113°29'77119683.7
2014-Aug-26 18:31N 34°50' E 119°27'77418818.8
2014-Aug-26 18:29N 23°02' E 113°31'3 9.7
2014-Aug-26 18:11N 23°04' E 113°29'65819417.8
2014-Aug-26 18:09N 31°28' E 121°25'6571089.9
2014-Aug-26 17:33N 23°05' E 113°29'7719773.7
2014-Aug-26 17:28N 34°49' E 119°30'7725754.1
2014-Aug-26 17:20N 23°04' E 113°29'334.1
2014-Aug-26 17:15N 23°02' E 113°31'552065.0
2014-Aug-26 17:13N 22°18' E 114°07'8021192.2
2014-Aug-26 16:33N 34°49' E 119°29'77121024.8
2014-Aug-26 16:31N 23°05' E 113°29'41315.2
2014-Aug-26 16:31N 23°02' E 113°31'6597345.9
2014-Aug-26 16:25N 31°28' E 121°25'657747.2
2014-Aug-26 15:32N 23°05' E 113°29'77259111.1
2014-Aug-26 15:32N 34°49' E 119°31'77411520.1
2014-Aug-26 15:28N 23°02' E 113°31'3133897.0
2014-Aug-26 15:23N 19°43' E 109°11'9675067.6
2014-Aug-26 15:11N 31°28' E 121°25'657981.1
2014-Aug-26 14:31N 23°05' E 113°29'77189536.8
2014-Aug-26 14:31N 34°49' E 119°29'77434385.8
2014-Aug-26 14:29N 23°02' E 113°31'6591954.5
2014-Aug-26 14:09N 31°28' E 121°25'223376.7
2014-Aug-26 13:34N 34°49' E 119°28'771925102.3
2014-Aug-26 13:33N 23°05' E 113°29'62311626.9
2014-Aug-26 13:30N 29°45' E 122°23'62437467.8
2014-Aug-26 13:29N 23°02' E 113°31'3147.7
2014-Aug-26 13:28N 23°04' E 113°30'0 5.1
2014-Aug-26 13:23N 23°04' E 113°29'63817536.9
2014-Aug-26 13:21N 31°58' E 120°03'637803.0
2014-Aug-26 12:33N 23°05' E 113°29'62313199.3
2014-Aug-26 12:30N 29°45' E 122°23'3369768.9
2014-Aug-26 12:28N 34°48' E 119°31'77217258.2
2014-Aug-26 12:26N 23°04' E 113°29'0 4.9
2014-Aug-26 12:23N 23°04' E 113°29'2701539.2
2014-Aug-26 12:12N 24°14' E 118°14'639977.3
2014-Aug-26 11:33N 34°49' E 119°28'26846014.8
2014-Aug-26 11:33N 39°05' E 117°45'98486423.7
2014-Aug-26 11:32N 23°05' E 113°29'265317501.6
2014-Aug-26 11:32N 24°11' E 118°09'265190500.2
2014-Aug-26 11:32N 23°04' E 113°29'396.4
2014-Aug-26 11:30N 23°02' E 113°31'64257822.7
2014-Aug-26 11:30N 31°56' E 120°13'6415456.3
2014-Aug-26 11:23N 23°04' E 113°29'9851205.9
2014-Aug-26 10:34N 39°04' E 117°52'443159354.5
2014-Aug-26 10:33N 31°56' E 120°13'64085377.1
2014-Aug-26 10:33N 23°05' E 113°29'175.5
2014-Aug-26 10:32N 23°04' E 113°29'330.3
2014-Aug-26 10:26N 23°02' E 113°31'25651161.7
2014-Aug-26 10:26N 24°05' E 118°01'4791925.1
2014-Aug-26 10:11N 31°28' E 121°25'65881686.0
2014-Aug-26 10:11N 23°04' E 113°29'9861569.1
2014-Aug-26 09:33N 39°04' E 117°50'98663360.7
2014-Aug-26 09:32N 23°04' E 113°29'11493.8
2014-Aug-26 09:32N 23°05' E 113°29'62419188.7
2014-Aug-26 09:30N 29°45' E 122°23'6248544.5
2014-Aug-26 09:26N 23°04' E 113°29'2506760.9
2014-Aug-26 09:23N 23°60' E 117°55'249990.2
2014-Aug-26 09:08N 23°02' E 113°31'9881706.1
2014-Aug-26 08:34N 39°05' E 117°44'984208460.2
2014-Aug-26 08:33N 23°05' E 113°29'161.4
2014-Aug-26 08:32N 23°04' E 113°29'24413128.9
2014-Aug-26 08:31N 23°56' E 117°50'2462033.0
2014-Aug-26 08:24N 23°05' E 113°27'2115.4
2014-Aug-26 08:23N 23°04' E 113°29'43142.6
2014-Aug-26 08:04N 22°25' E 113°10'10281999.6
2014-Aug-26 07:34N 39°04' E 117°51'985208503.8
2014-Aug-26 07:33N 23°05' E 113°29'158.7
2014-Aug-26 07:32N 23°04' E 113°29'23813810.4
2014-Aug-26 07:31N 23°52' E 117°43'5014833.5
2014-Aug-26 07:25N 31°56' E 120°07'721019.0
2014-Aug-26 07:20N 31°28' E 121°25'66611921.7
2014-Aug-26 07:17N 22°51' E 113°33'13123.0
2014-Aug-26 07:11N 23°04' E 113°29'12176.9
2014-Aug-26 07:07N 23°03' E 113°16'9891795.7
2014-Aug-26 06:34N 39°05' E 117°46'98446016.9
2014-Aug-26 06:32N 23°05' E 113°29'65734797.7
2014-Aug-26 06:31N 31°28' E 121°25'502164438.7
2014-Aug-26 06:31N 23°47' E 117°39'50812979.2
2014-Aug-26 06:29N 32°01' E 119°58'63813117.2
2014-Aug-26 06:26N 23°04' E 113°29'012.7
2014-Aug-26 06:25N 23°04' E 113°29'44287.2
2014-Aug-26 06:16N 22°22' E 113°18'10291470.7
2014-Aug-26 05:34N 39°05' E 117°46'987222165.5
2014-Aug-26 05:33N 23°02' E 113°31'987710951.0
2014-Aug-26 05:33N 39°05' E 117°45'49173586.5
2014-Aug-26 05:33N 31°28' E 121°25'657262954.0
2014-Aug-26 05:33N 23°05' E 113°29'2307450.8
2014-Aug-26 05:31N 23°43' E 117°36'23016207.3
2014-Aug-26 05:30N 23°04' E 113°29'488233.3
2014-Aug-26 05:30N 22°17' E 113°20'48817.5
2014-Aug-26 05:26N 23°04' E 113°29'1339.1
2014-Aug-26 05:05N 22°51' E 113°33'1425.8
2014-Aug-26 04:33N 23°05' E 113°29'9861182645.4
2014-Aug-26 04:33N 39°04' E 117°51'12181.6
2014-Aug-26 04:33N 39°04' E 117°52'98821426.3
2014-Aug-26 04:31N 23°02' E 113°31'3264.6
2014-Aug-26 04:30N 23°04' E 113°29'47650.7
2014-Aug-26 04:26N 22°17' E 113°35'48171049.3
2014-Aug-26 04:26N 23°04' E 113°29'230632.2
2014-Aug-26 04:04N 23°46' E 117°35'9181821.5
2014-Aug-26 03:34N 39°04' E 117°49'14201.9
2014-Aug-26 03:34N 39°04' E 117°50'988222244.0
2014-Aug-26 03:33N 23°02' E 113°31'4376.7
2014-Aug-26 03:33N 23°05' E 113°29'3150.5
2014-Aug-26 03:31N 23°04' E 113°25'51391.5
2014-Aug-26 03:23N 22°14' E 113°35'69520343.5
2014-Aug-26 03:21N 31°28' E 121°25'6582368898.1
2014-Aug-26 03:21N 23°04' E 113°29'2302423.0
2014-Aug-26 03:16N 23°46' E 117°35'228320.1
2014-Aug-26 02:33N 23°02' E 113°31'4714.7
2014-Aug-26 02:33N 23°05' E 113°29'65784521.5
2014-Aug-26 02:32N 31°28' E 121°25'66438567.4
2014-Aug-26 02:31N 23°03' E 113°20'66516277.1
2014-Aug-26 02:29N 31°24' E 121°31'6589443.2
2014-Aug-26 02:24N 23°04' E 113°29'2304977.4
2014-Aug-26 02:22N 23°46' E 117°35'4363040.6
2014-Aug-26 02:13N 29°38' E 122°23'4 5.9
2014-Aug-26 01:34N 29°42' E 122°23'622149217.2
2014-Aug-26 01:33N 23°05' E 113°29'414332.6
2014-Aug-26 01:33N 23°02' E 113°31'6597107.5
2014-Aug-26 01:28N 31°24' E 121°31'503453040.5
2014-Aug-26 01:28N 23°46' E 117°35'2414215.6
2014-Aug-26 01:24N 23°04' E 113°16'41515905.8
2014-Aug-26 01:23N 26°45' E 119°43'40519980.9
2014-Aug-26 01:21N 23°04' E 113°29'64926852.4
2014-Aug-26 01:20N 31°60' E 120°22'6962484.2
2014-Aug-26 01:03N 22°10' E 113°27'52104.8
2014-Aug-26 00:33N 23°02' E 113°31'4247.1
2014-Aug-26 00:32N 23°05' E 113°29'6589666.1
2014-Aug-26 00:28N 31°24' E 121°31'65810396.9
2014-Aug-26 00:24N 23°04' E 113°29'65832002.6
2014-Aug-26 00:23N 32°07' E 120°29'584.8
2014-Aug-26 00:19N 32°02' E 120°26'70023995.6
2014-Aug-26 00:18N 22°10' E 113°27'6574295.5
2014-Aug-26 00:08N 29°37' E 122°23'6191055.9
2014-Aug-25 23:33N 23°05' E 113°29'1 6.3
2014-Aug-25 23:24N 23°04' E 113°29'54762.3
2014-Aug-25 23:20N 22°11' E 113°32'70232809.8
2014-Aug-25 23:19N 32°06' E 120°29'74454.6
2014-Aug-25 23:09N 31°15' E 121°32'6531100.3
2014-Aug-25 22:34N 23°04' E 113°29'1354.8
2014-Aug-25 22:33N 23°03' E 113°30'65622694.0
2014-Aug-25 22:32N 32°04' E 120°28'1804243.5
2014-Aug-25 22:29N 29°34' E 122°25'125481.1
2014-Aug-25 22:13N 31°28' E 121°25'666998.0
2014-Aug-25 21:33N 22°51' E 113°33'1214892.1
2014-Aug-25 21:33N 23°03' E 113°30'65865829.0
2014-Aug-25 21:33N 31°28' E 121°25'7006311.9
2014-Aug-25 21:26N 22°11' E 113°32'69365687.2
2014-Aug-25 21:25N 31°60' E 120°22'649747.5
2014-Aug-25 20:33N 23°04' E 113°29'13902.3
2014-Aug-25 20:33N 23°03' E 113°30'6587669.4
2014-Aug-25 20:28N 31°28' E 121°25'7005313.2
2014-Aug-25 20:20N 22°11' E 113°32'4110534.5
2014-Aug-25 20:20N 22°51' E 113°33'1317.2
2014-Aug-25 19:33N 23°04' E 113°29'1195.1
2014-Aug-25 19:33N 23°03' E 113°30'534231.5
2014-Aug-25 19:32N 22°11' E 113°32'700839473.3
2014-Aug-25 19:32N 31°28' E 121°25'22658044.6
2014-Aug-25 19:32N 34°50' E 119°24'78178144.1
2014-Aug-25 19:31N 22°51' E 113°33'782810.1
2014-Aug-25 18:33N 34°49' E 119°28'772555754.2
2014-Aug-25 18:33N 23°04' E 113°29'1108.2
2014-Aug-25 18:33N 23°03' E 113°30'536566.1
2014-Aug-25 18:32N 22°11' E 113°32'700109498.0
2014-Aug-25 18:32N 31°28' E 121°25'658674.7
2014-Aug-25 17:33N 23°04' E 113°29'1114.2
2014-Aug-25 17:33N 23°03' E 113°30'2299477.6
2014-Aug-25 17:31N 23°46' E 117°35'2441320.2
2014-Aug-25 17:20N 22°11' E 113°32'82168725.4
2014-Aug-25 17:20N 34°49' E 119°29'2233367.4
2014-Aug-25 17:16N 31°28' E 121°25'6662396140.9
2014-Aug-25 17:16N 22°51' E 113°33'1217.6
2014-Aug-25 16:33N 23°03' E 113°30'1822.1
2014-Aug-25 16:33N 23°04' E 113°29'772252561.7
2014-Aug-25 16:33N 34°50' E 119°27'78178143.9
2014-Aug-25 16:33N 22°55' E 113°27'449413.7
2014-Aug-25 16:32N 22°11' E 113°34'2412078.5
2014-Aug-25 16:25N 23°46' E 117°35'5053942.8
2014-Aug-25 16:18N 31°28' E 121°25'124635.7
2014-Aug-25 16:06N 29°36' E 122°24'6191142.8
2014-Aug-25 15:34N 23°03' E 113°30'5729389.0
2014-Aug-25 15:33N 22°06' E 113°33'46572.5
2014-Aug-25 15:29N 22°53' E 113°32'12173.6
2014-Aug-25 15:24N 23°04' E 113°29'2301248.4
2014-Aug-25 15:13N 23°46' E 117°35'229345.0
2014-Aug-25 14:34N 23°03' E 113°30'1513.8
2014-Aug-25 14:33N 23°04' E 113°29'230978.0
2014-Aug-25 14:19N 23°46' E 117°35'230300.0
2014-Aug-25 13:33N 23°04' E 113°29'5312.6
2014-Aug-25 13:32N 22°60' E 113°31'546218.9
2014-Aug-25 13:32N 22°06' E 113°34'5657.1
2014-Aug-25 12:33N 23°02' E 113°24'101166.2
2014-Aug-25 12:32N 22°53' E 113°30'7822643.4
2014-Aug-25 12:14N 34°51' E 119°24'82520478.6
2014-Aug-25 12:12N 22°06' E 113°34'4974.6
2014-Aug-25 11:32N 22°54' E 113°21'4947.2
2014-Aug-25 10:30N 22°06' E 113°34'68621853.2
2014-Aug-25 10:28N 31°60' E 120°00'51013694.3
2014-Aug-25 10:26N 23°46' E 117°35'2481498.5
2014-Aug-25 10:16N 22°54' E 113°11'657914.0
2014-Aug-25 09:33N 31°58' E 120°05'51032187.9
2014-Aug-25 09:32N 23°45' E 117°38'2467759.3
2014-Aug-25 09:30N 22°06' E 113°34'4381486.7
2014-Aug-25 09:12N 26°47' E 119°43'317476.0
2014-Aug-25 08:32N 32°01' E 120°33'2010253.2
2014-Aug-25 08:32N 31°56' E 120°10'221078.5
2014-Aug-25 08:31N 31°60' E 120°36'66428139.4
2014-Aug-25 08:29N 22°51' E 113°33'2375145.5
2014-Aug-25 08:27N 23°52' E 117°43'4968197.0
2014-Aug-25 08:23N 31°28' E 121°25'81356.9
2014-Aug-25 08:23N 31°20' E 121°25'66221.5
2014-Aug-25 08:05N 31°59' E 120°22'815.8
2014-Aug-25 07:33N 31°57' E 120°12'49674459.4
2014-Aug-25 07:33N 23°56' E 117°50'4857698.0
2014-Aug-25 07:29N 31°22' E 121°28'66311866.7
2014-Aug-25 07:26N 22°51' E 113°33'99711654.4
2014-Aug-25 07:20N 39°05' E 117°44'0 0.0
2014-Aug-25 07:08N 39°05' E 117°44'3 6.0
2014-Aug-25 06:33N 39°04' E 117°48'32481.8
2014-Aug-25 06:33N 39°05' E 117°44'44569674.7
2014-Aug-25 06:33N 31°57' E 120°12'563184280.1
2014-Aug-25 06:33N 22°34' E 120°04'147265426.2
2014-Aug-25 06:33N 24°03' E 117°56'901104615.3
2014-Aug-25 06:32N 39°04' E 117°47'99732329.8
2014-Aug-25 06:30N 22°51' E 113°33'62511840.2
2014-Aug-25 06:27N 29°41' E 122°20'118419.1
2014-Aug-25 06:10N 31°28' E 121°25'6647836.5
2014-Aug-25 06:05N 23°02' E 113°21'9891864.0
2014-Aug-25 05:33N 39°04' E 117°52'1460.3
2014-Aug-25 05:33N 39°03' E 117°52'987111051.1
2014-Aug-25 05:33N 23°03' E 113°25'376135414.9
2014-Aug-25 05:33N 22°36' E 120°12'996224034.1
2014-Aug-25 05:32N 39°04' E 117°48'4896852.3
2014-Aug-25 05:28N 31°28' E 121°25'683346.2
2014-Aug-25 05:27N 31°57' E 120°12'17557251.1
2014-Aug-25 05:27N 29°43' E 122°24'62919860.4
2014-Aug-25 05:25N 22°52' E 113°33'26114674.8
2014-Aug-25 05:24N 24°12' E 118°04'8931066.9
2014-Aug-25 04:33N 39°05' E 117°51'11257.6
2014-Aug-25 04:33N 39°04' E 117°50'14976.0
2014-Aug-25 04:33N 39°03' E 117°51'22152.8
2014-Aug-25 04:33N 39°05' E 117°51'987177586.2
2014-Aug-25 04:33N 23°04' E 113°29'6586616.7
2014-Aug-25 04:27N 31°28' E 121°25'683489.6
2014-Aug-25 04:26N 31°57' E 120°12'6614028.7
2014-Aug-25 04:16N 22°28' E 113°52'10171432.4
2014-Aug-25 03:33N 39°05' E 117°44'1767.9
2014-Aug-25 03:33N 39°05' E 117°45'43549.1
2014-Aug-25 03:33N 39°04' E 117°50'1017203437.3
2014-Aug-25 03:33N 22°28' E 113°54'10173661649.2
2014-Aug-25 03:33N 39°04' E 117°51'44211061.8
2014-Aug-25 03:31N 31°57' E 120°12'6414016.1
2014-Aug-25 03:21N 23°04' E 113°29'9851244.7
2014-Aug-25 02:33N 39°05' E 117°46'3946.1
2014-Aug-25 02:33N 39°04' E 117°50'416111.6
2014-Aug-25 02:33N 39°05' E 117°44'985221722.0
2014-Aug-25 02:33N 23°04' E 113°29'6414510.2
2014-Aug-25 02:24N 31°57' E 120°12'6489932.4
2014-Aug-25 02:21N 23°04' E 113°16'2675436.4
2014-Aug-25 02:18N 24°24' E 117°54'8801195.5
2014-Aug-25 01:33N 39°04' E 117°51'187.2
2014-Aug-25 01:33N 39°04' E 117°50'44313292.3
2014-Aug-25 01:31N 31°57' E 120°12'6413018.6
2014-Aug-25 01:18N 23°04' E 113°29'1093.7
2014-Aug-25 01:12N 23°03' E 113°19'5 7.1
2014-Aug-25 00:33N 23°02' E 113°23'9891779490.0
2014-Aug-25 00:33N 39°03' E 117°52'44110885.2
2014-Aug-25 00:31N 31°57' E 120°12'64110084.0
2014-Aug-25 00:27N 23°04' E 113°29'0 0.3
2014-Aug-24 23:33N 23°04' E 113°29'9851182127.8
2014-Aug-24 23:33N 39°04' E 117°47'102060182.0
2014-Aug-24 23:32N 22°24' E 113°54'66439842.0
2014-Aug-24 23:31N 31°57' E 120°12'6415564.4
2014-Aug-24 23:24N 23°04' E 113°29'6313779.9
2014-Aug-24 23:14N 29°47' E 122°32'631922.8
2014-Aug-24 22:33N 23°04' E 113°29'64141235.9
2014-Aug-24 22:32N 31°57' E 120°12'6417671.8
2014-Aug-24 22:27N 23°04' E 113°29'6226863.7
2014-Aug-24 22:22N 29°39' E 122°25'6616113.6
2014-Aug-24 22:15N 22°11' E 113°25'44283.2
2014-Aug-24 22:06N 22°54' E 113°13'1833.1
2014-Aug-24 21:33N 23°04' E 113°29'616722200123.6
2014-Aug-24 21:33N 49°20' W 123°23'5414140223.6
2014-Aug-24 21:31N 29°45' E 122°24'64212569.4
2014-Aug-24 21:28N 22°54' E 113°13'443255.5
2014-Aug-24 21:27N 22°11' E 113°25'69214084.3
2014-Aug-24 21:24N 31°58' E 120°18'645290366.1
2014-Aug-24 21:24N 23°04' E 113°29'1821.6
2014-Aug-24 20:33N 22°54' E 113°13'185028.1
2014-Aug-24 20:33N 23°04' E 113°29'64961443.2
2014-Aug-24 20:32N 31°60' E 120°22'1717984.8
2014-Aug-24 20:31N 29°45' E 122°24'6259291.2
2014-Aug-24 20:27N 23°04' E 113°29'615746083.7
2014-Aug-24 20:19N 49°20' W 123°34'61798156.7
2014-Aug-24 19:33N 22°54' E 113°13'181895.3
2014-Aug-24 19:33N 23°04' E 113°29'654784243.1
2014-Aug-24 19:33N 32°02' E 120°27'591288.5
2014-Aug-24 19:30N 31°28' E 121°25'6586419.3
2014-Aug-24 19:24N 23°04' E 113°29'531081.5
2014-Aug-24 19:21N 22°11' E 113°25'66419274.9
2014-Aug-24 19:19N 29°45' E 122°24'115152.0
2014-Aug-24 18:33N 31°28' E 121°25'658338404.7
2014-Aug-24 18:33N 23°04' E 113°29'65676151.7
2014-Aug-24 18:33N 32°01' E 120°34'672142406.2
2014-Aug-24 18:32N 22°54' E 113°13'64328207.9
2014-Aug-24 18:31N 29°45' E 122°24'6259030.8
2014-Aug-24 18:27N 23°04' E 113°29'1036.3
2014-Aug-24 18:11N 22°55' E 113°26'1219.1
2014-Aug-24 17:33N 22°54' E 113°13'181368.6
2014-Aug-24 17:33N 23°04' E 113°29'11423.3
2014-Aug-24 17:31N 22°54' E 113°30'10207.8
2014-Aug-24 17:28N 23°04' E 113°30'65819734.1
2014-Aug-24 17:26N 31°28' E 121°25'7034209.1
2014-Aug-24 17:16N 22°11' E 113°25'5374.1
2014-Aug-24 16:33N 23°04' E 113°29'65878961.8
2014-Aug-24 16:32N 31°28' E 121°25'1155004.6
2014-Aug-24 16:31N 29°45' E 122°24'64211609.6
2014-Aug-24 16:28N 22°54' E 113°14'1718.7
2014-Aug-24 15:33N 23°04' E 113°29'13868.8
2014-Aug-24 15:32N 22°54' E 113°20'67189507.7
2014-Aug-24 15:32N 31°28' E 121°25'6586103.3
2014-Aug-24 15:25N 23°04' E 113°30'624562022.4
2014-Aug-24 15:25N 29°45' E 122°24'625723.7
2014-Aug-24 14:33N 23°04' E 113°29'102710.5
2014-Aug-24 14:33N 22°55' E 113°28'63217922.4
2014-Aug-24 14:31N 29°45' E 122°24'1742604.7
2014-Aug-24 14:27N 31°57' E 120°12'64121180.5
2014-Aug-24 14:25N 23°04' E 113°30'53212.1
2014-Aug-24 14:10N 22°11' E 113°25'4573.7
2014-Aug-24 13:33N 22°56' E 113°30'648145835.6
2014-Aug-24 13:33N 31°57' E 120°12'64139139.1
2014-Aug-24 13:32N 23°04' E 113°29'6252262.6
2014-Aug-24 13:16N 29°45' E 122°24'1621418.4
2014-Aug-24 13:09N 31°60' E 120°40'6588645.3
2014-Aug-24 13:04N 23°04' E 113°30'6561263.0
2014-Aug-24 12:33N 32°00' E 120°37'657236375.8
2014-Aug-24 12:33N 23°04' E 113°29'624249798.1
2014-Aug-24 12:33N 29°45' E 122°24'11325405.9
2014-Aug-24 12:32N 31°27' E 121°29'660118837.6
2014-Aug-24 12:32N 23°02' E 113°31'235.0
2014-Aug-24 12:28N 23°04' E 113°30'64137236.6
2014-Aug-24 12:27N 31°57' E 120°12'444496.3
2014-Aug-24 11:33N 39°04' E 117°47'986236735.2
2014-Aug-24 11:33N 23°03' E 113°31'657262959.1
2014-Aug-24 11:33N 32°04' E 120°32'657394234.8
2014-Aug-24 11:33N 23°04' E 113°29'641577347.5
2014-Aug-24 11:33N 31°57' E 120°12'7512847.8
2014-Aug-24 11:32N 31°25' E 121°32'6595357.5
2014-Aug-24 11:25N 23°04' E 113°30'2 2.1
2014-Aug-24 10:33N 23°03' E 113°31'986887817.9
2014-Aug-24 10:33N 39°04' E 117°47'9893558634.1
2014-Aug-24 10:33N 23°03' E 113°21'82823.0
2014-Aug-24 10:33N 23°04' E 113°29'654138445.5
2014-Aug-24 10:33N 32°02' E 120°28'698885.8
2014-Aug-24 10:32N 31°20' E 121°33'782575.8
2014-Aug-24 10:31N 31°57' E 120°12'6411448.4
2014-Aug-24 10:04N 23°04' E 113°30'2 3.6
2014-Aug-24 09:33N 23°03' E 113°31'986710252.8
2014-Aug-24 09:33N 39°03' E 117°52'919367560.8
2014-Aug-24 09:33N 23°45' E 117°31'22937544.6
2014-Aug-24 09:33N 23°04' E 113°25'651781586.6
2014-Aug-24 09:33N 32°00' E 120°22'64929971.6
2014-Aug-24 09:32N 23°04' E 113°29'65260229.0
2014-Aug-24 09:31N 32°02' E 120°26'652156552.0
2014-Aug-24 09:31N 23°04' E 113°30'65137180.6
2014-Aug-24 09:30N 31°15' E 121°30'78330.6
2014-Aug-24 09:15N 31°57' E 120°12'25140.5
2014-Aug-24 09:05N 31°60' E 120°41'446853.3
2014-Aug-24 08:33N 39°04' E 117°51'9873552641.3
2014-Aug-24 08:33N 23°03' E 113°30'9863551056.2
2014-Aug-24 08:33N 39°04' E 117°49'444228120.7
2014-Aug-24 08:33N 31°57' E 120°18'6451160889.9
2014-Aug-24 08:33N 23°04' E 113°30'2285.7
2014-Aug-24 08:33N 23°03' E 113°31'648101411.4
2014-Aug-24 08:32N 31°59' E 120°21'142674.9
2014-Aug-24 08:32N 31°60' E 120°38'22759.2
2014-Aug-24 08:30N 31°57' E 120°12'64117104.9
2014-Aug-24 08:28N 23°04' E 113°29'531745.1
2014-Aug-24 08:26N 22°11' E 113°25'66811624.9
2014-Aug-24 08:23N 29°49' E 122°27'277032.4
2014-Aug-24 08:23N 30°16' E 122°32'58012137.8
2014-Aug-24 08:20N 39°05' E 117°44'57714314.7
2014-Aug-24 08:17N 30°18' E 122°29'143194.7
2014-Aug-24 07:33N 32°01' E 120°33'446803117.1
2014-Aug-24 07:33N 39°05' E 117°44'610356.6
2014-Aug-24 07:33N 39°05' E 117°51'574295072.4
2014-Aug-24 07:33N 30°18' E 122°30'575258648.7
2014-Aug-24 07:33N 39°04' E 117°48'9921190593.5
2014-Aug-24 07:33N 22°57' E 113°30'66698.2
2014-Aug-24 07:33N 23°03' E 113°31'643289530.7
2014-Aug-24 07:33N 31°56' E 120°16'446100395.5
2014-Aug-24 07:33N 39°05' E 117°44'44650146.0
2014-Aug-24 07:32N 31°56' E 120°12'64182462.4
2014-Aug-24 07:32N 23°03' E 113°31'247.4
2014-Aug-24 07:29N 23°04' E 113°29'65077949.6
2014-Aug-24 07:29N 30°19' E 122°29'1512497.5
2014-Aug-24 07:25N 31°57' E 120°14'110.7
2014-Aug-24 07:20N 31°56' E 120°13'642822.8
2014-Aug-24 06:33N 23°03' E 113°31'9863550680.5
2014-Aug-24 06:33N 39°04' E 117°47'1462.1
2014-Aug-24 06:33N 39°04' E 117°48'15049.7
2014-Aug-24 06:33N 39°05' E 117°46'44338934.4
2014-Aug-24 06:33N 31°59' E 120°20'6501169630.2
2014-Aug-24 06:33N 23°03' E 113°25'4340.6
2014-Aug-24 06:32N 23°04' E 113°30'13570.4
2014-Aug-24 06:31N 22°52' E 113°33'65644545.4
2014-Aug-24 06:30N 30°21' E 122°28'1508465.1
2014-Aug-24 06:29N 31°54' E 120°10'31309.0
2014-Aug-24 06:28N 31°57' E 120°08'21337.1
2014-Aug-24 06:28N 31°56' E 120°10'1535233.9
2014-Aug-24 06:27N 30°19' E 122°28'1494784.7
2014-Aug-24 06:25N 31°59' E 120°19'6131.7
2014-Aug-24 06:22N 31°56' E 120°12'444550.1
2014-Aug-24 05:33N 39°04' E 117°50'1922.9
2014-Aug-24 05:33N 39°04' E 117°51'14018.0
2014-Aug-24 05:33N 39°03' E 117°51'986136545.2
2014-Aug-24 05:33N 23°03' E 113°31'652335201.4
2014-Aug-24 05:33N 32°01' E 120°25'1282.0
2014-Aug-24 05:33N 32°02' E 120°26'111118.0
2014-Aug-24 05:32N 31°57' E 120°14'1486902.6
2014-Aug-24 05:31N 30°21' E 122°26'1542934.1
2014-Aug-24 05:28N 31°57' E 120°05'644128723.1
2014-Aug-24 05:27N 23°03' E 113°20'394.6
2014-Aug-24 05:25N 23°03' E 113°16'66624969.5
2014-Aug-24 05:24N 31°28' E 121°25'682317.6
2014-Aug-24 05:22N 31°56' E 120°12'149714.3
2014-Aug-24 05:09N 30°20' E 122°26'147245.4
2014-Aug-24 04:34N 31°59' E 120°19'443265731.2
2014-Aug-24 04:33N 39°04' E 117°48'31556.5
2014-Aug-24 04:33N 39°05' E 117°44'445534112.2
2014-Aug-24 04:33N 32°02' E 120°33'655786583.2
2014-Aug-24 04:33N 23°04' E 113°30'21612.1
2014-Aug-24 04:33N 23°03' E 113°31'638208712.2
2014-Aug-24 04:33N 31°59' E 119°60'43892807.8
2014-Aug-24 04:33N 39°04' E 117°49'569120540.7
2014-Aug-24 04:32N 30°22' E 122°26'847765.4
2014-Aug-24 04:32N 31°28' E 121°25'8375033.2
2014-Aug-24 04:32N 30°27' E 122°30'1488327.2
2014-Aug-24 04:31N 31°56' E 120°12'28427.9
2014-Aug-24 04:27N 32°02' E 120°45'447504.9
2014-Aug-24 03:34N 39°05' E 117°46'43219.6
2014-Aug-24 03:33N 39°04' E 117°50'4881758384.1
2014-Aug-24 03:33N 31°28' E 121°25'489880971.2
2014-Aug-24 03:33N 39°04' E 117°47'9851182257.5
2014-Aug-24 03:33N 23°04' E 113°30'657591323.4
2014-Aug-24 03:33N 32°00' E 120°38'52216.2
2014-Aug-24 03:33N 32°02' E 120°43'1712109.2
2014-Aug-24 03:33N 32°00' E 120°23'10115.5
2014-Aug-24 03:28N 31°56' E 120°12'1481044.3
2014-Aug-24 03:19N 30°22' E 122°25'994.0
2014-Aug-24 03:13N 30°30' E 122°29'6975072.2
2014-Aug-24 03:05N 22°12' E 113°24'10381970.9
2014-Aug-24 02:33N 39°05' E 117°52'9861183754.3
2014-Aug-24 02:33N 23°04' E 113°30'9863549899.9
2014-Aug-24 02:33N 39°04' E 117°51'441396957.3
2014-Aug-24 02:33N 32°02' E 120°27'441198287.8
2014-Aug-24 02:33N 39°04' E 117°50'9873552293.7
2014-Aug-24 02:33N 23°03' E 113°31'649122925.4
2014-Aug-24 02:33N 31°60' E 120°21'14421543.3
2014-Aug-24 02:32N 30°29' E 122°31'8273703.3
2014-Aug-24 02:32N 31°28' E 121°25'8530456.7
2014-Aug-24 02:32N 30°22' E 122°26'148133205.7
2014-Aug-24 02:32N 31°56' E 120°12'68637977.0
2014-Aug-24 02:31N 22°16' E 113°21'10347170.6
2014-Aug-24 02:22N 39°04' E 117°51'5693872.0
2014-Aug-24 02:14N 30°22' E 122°28'572854.0
2014-Aug-24 01:33N 39°05' E 117°46'573171992.7
2014-Aug-24 01:33N 30°21' E 122°28'6512343944.6
2014-Aug-24 01:33N 23°01' E 113°31'988508103.8
2014-Aug-24 01:33N 39°04' E 117°49'985506772.1
2014-Aug-24 01:33N 23°04' E 113°29'656262246.8
2014-Aug-24 01:33N 32°02' E 120°32'14023955.1
2014-Aug-24 01:33N 30°25' E 122°30'852437.8
2014-Aug-24 01:30N 31°28' E 121°25'6734163.4
2014-Aug-24 01:21N 22°28' E 113°54'67567452.1
2014-Aug-24 01:20N 31°28' E 121°28'70628.8
2014-Aug-24 01:13N 31°56' E 120°12'27377.3
2014-Aug-24 01:09N 32°02' E 120°43'137230.8
2014-Aug-24 00:34N 30°22' E 122°32'14083786.9
2014-Aug-24 00:33N 32°01' E 120°37'657788382.1
2014-Aug-24 00:33N 23°04' E 113°29'1113266.8
2014-Aug-24 00:33N 22°53' E 113°31'64916943.1
2014-Aug-24 00:31N 31°56' E 120°12'66114007.3
2014-Aug-24 00:28N 22°27' E 113°53'6767414.3
2014-Aug-24 00:23N 31°26' E 121°30'210.2
2014-Aug-24 00:09N 31°24' E 121°32'6581096.9
2014-Aug-23 23:33N 23°04' E 113°29'62480.2
2014-Aug-23 23:33N 22°59' E 113°30'64522321.6
2014-Aug-23 23:31N 31°56' E 120°12'6539438.8
2014-Aug-23 23:27N 22°54' E 113°22'6708801.3
2014-Aug-23 23:22N 32°00' E 120°39'658804.6
2014-Aug-23 22:33N 23°04' E 113°29'662198451.2
2014-Aug-23 22:33N 32°02' E 120°43'67846034.5
2014-Aug-23 22:32N 22°54' E 113°14'173867.6
2014-Aug-23 22:32N 23°04' E 113°29'63210532.6
2014-Aug-23 22:28N 29°51' E 122°30'1723578.2
2014-Aug-23 22:26N 31°56' E 120°12'5612588.1
2014-Aug-23 22:13N 23°08' E 116°40'176269.4
2014-Aug-23 21:33N 23°04' E 113°29'174125490.5
2014-Aug-23 21:33N 23°09' E 116°39'1749230.0
2014-Aug-23 21:32N 23°04' E 113°29'66120352.9
2014-Aug-23 21:30N 32°02' E 120°43'16116130.7
2014-Aug-23 21:30N 29°47' E 122°26'1622335.5
2014-Aug-23 21:25N 32°00' E 120°39'658758.0
2014-Aug-23 20:33N 23°04' E 113°29'662264601.6
2014-Aug-23 20:33N 32°02' E 120°43'66133539.3
2014-Aug-23 20:32N 23°04' E 113°29'18595.1
2014-Aug-23 20:30N 22°54' E 113°13'64566393.3
2014-Aug-23 20:30N 29°47' E 122°26'1628078.5
2014-Aug-23 20:28N 32°00' E 120°39'8155.2
2014-Aug-23 20:26N 32°01' E 120°48'4 4.9
2014-Aug-23 19:33N 32°01' E 120°43'6601188784.9
2014-Aug-23 19:33N 23°04' E 113°29'6623545.1
2014-Aug-23 19:22N 31°57' E 120°52'67959581.9
2014-Aug-23 19:22N 22°54' E 113°13'18691.1
2014-Aug-23 19:20N 23°04' E 113°29'6698168.6
2014-Aug-23 19:15N 30°05' E 123°11'60338.4
2014-Aug-23 03:33N 39°05' E 117°45'52850.6
2014-Aug-23 03:33N 39°05' E 117°51'11097.0
2014-Aug-23 03:33N 39°05' E 117°51'49655788.1
2014-Aug-23 03:33N 31°21' E 121°27'7224.5
2014-Aug-23 03:31N 31°28' E 121°25'968205018.7
2014-Aug-23 03:31N 19°42' E 109°10'94517631.1
2014-Aug-23 03:27N 31°56' E 120°12'881.7
2014-Aug-23 03:21N 31°60' E 120°21'721761.7
2014-Aug-23 03:19N 31°21' E 121°32'59491.2
2014-Aug-23 03:12N 32°02' E 120°43'445696.3
2014-Aug-23 02:33N 39°05' E 117°51'1627.7
2014-Aug-23 02:33N 39°04' E 117°49'49674386.0
2014-Aug-23 02:33N 31°21' E 121°27'98176538.2
2014-Aug-23 02:33N 29°59' E 122°30'16473643.0
2014-Aug-23 02:33N 32°00' E 120°21'17425025.8
2014-Aug-23 02:32N 29°47' E 122°31'63676271.8
2014-Aug-23 02:32N 22°51' E 113°34'6505400.2
2014-Aug-23 02:25N 31°56' E 120°12'173775.4
2014-Aug-23 02:11N 29°46' E 122°25'1623933.1
2014-Aug-23 02:09N 32°02' E 120°43'445752.7
2014-Aug-23 01:33N 39°04' E 117°48'2677.7
2014-Aug-23 01:33N 39°03' E 117°51'602216760.3
2014-Aug-23 01:33N 29°47' E 122°31'10939262.9
2014-Aug-23 01:33N 31°21' E 121°27'49889709.3
2014-Aug-23 01:32N 39°05' E 117°44'444228253.9
2014-Aug-23 01:32N 32°00' E 120°21'65724147.8
2014-Aug-23 01:31N 22°55' E 113°28'6338731.9
2014-Aug-23 01:26N 29°42' E 122°28'31007.2
2014-Aug-23 01:26N 29°42' E 122°24'6271128967.3
2014-Aug-23 01:26N 23°03' E 113°25'6604491.1
2014-Aug-23 01:17N 31°21' E 121°31'494676.1
2014-Aug-23 00:33N 39°02' E 117°52'49332899.7
2014-Aug-23 00:33N 31°22' E 121°28'73774.4
2014-Aug-23 00:27N 31°56' E 120°12'2719320.5
2014-Aug-23 00:27N 32°02' E 120°43'6658002.3
2014-Aug-23 00:22N 23°03' E 113°25'96851.2
2014-Aug-23 00:15N 24°38' E 113°39'578138619.1
2014-Aug-23 00:15N 31°21' E 121°27'6889042.1
2014-Aug-23 00:10N 22°17' E 113°35'10301679.9
2014-Aug-22 23:33N 39°04' E 117°47'44439008.3
2014-Aug-22 23:33N 31°56' E 120°12'64134966.2
2014-Aug-22 23:32N 23°05' E 113°28'62026591.7
2014-Aug-22 23:30N 29°39' E 122°23'1131949.0
2014-Aug-22 23:27N 31°21' E 121°27'69111839.6
2014-Aug-22 23:23N 22°14' E 113°36'511467.0
2014-Aug-22 23:21N 23°04' E 113°29'65814714.6
2014-Aug-22 23:19N 31°28' E 121°25'63596.1
2014-Aug-22 23:12N 32°00' E 120°21'17311143.7
2014-Aug-22 23:11N 29°47' E 122°30'109169.7
2014-Aug-22 22:33N 31°21' E 121°27'10911542.4
2014-Aug-22 22:32N 29°44' E 122°25'1742296.2
2014-Aug-22 22:28N 31°56' E 120°12'64122188.2
2014-Aug-22 22:26N 23°04' E 113°29'6497861.0
2014-Aug-22 22:21N 32°00' E 120°21'175220.2
2014-Aug-22 21:33N 29°48' E 122°34'11010974.6
2014-Aug-22 21:33N 31°21' E 121°27'1109629.7
2014-Aug-22 21:32N 29°47' E 122°31'6157.0
2014-Aug-22 21:30N 29°42' E 122°26'1685096.4
2014-Aug-22 21:28N 32°00' E 120°33'19122.9
2014-Aug-22 21:19N 31°56' E 120°12'17711818.0
2014-Aug-22 21:18N 29°40' E 122°25'1762002.5
2014-Aug-22 21:13N 32°00' E 120°21'6599765.5
2014-Aug-22 21:08N 22°46' E 113°39'6641131.4
2014-Aug-22 20:33N 32°02' E 120°28'648005.4
2014-Aug-22 20:33N 31°21' E 121°27'732046.5
2014-Aug-22 20:31N 31°56' E 120°12'83327.2
2014-Aug-22 20:30N 32°00' E 120°21'707632.2
2014-Aug-22 20:30N 31°24' E 121°31'6872.1
2014-Aug-22 19:33N 31°60' E 120°23'676864.1
2014-Aug-22 19:33N 31°21' E 121°27'693685.9
2014-Aug-22 19:32N 32°00' E 120°21'17614723.0
2014-Aug-22 19:31N 29°47' E 122°35'1786098.0
2014-Aug-22 19:29N 31°56' E 120°12'5649180.8
2014-Aug-22 19:25N 22°40' E 118°26'2751426.3
2014-Aug-22 19:14N 23°04' E 113°29'14436.0
2014-Aug-22 19:12N 22°51' E 113°34'6541008.9
2014-Aug-22 18:33N 31°58' E 120°19'35228.5
2014-Aug-22 18:33N 32°00' E 120°21'69655.0
2014-Aug-22 18:27N 31°21' E 121°27'73447.8
2014-Aug-22 18:17N 31°56' E 120°12'0 0.0
2014-Aug-22 17:32N 31°56' E 120°12'8282.4
2014-Aug-22 17:30N 32°00' E 120°21'64814771.2
2014-Aug-22 17:28N 23°04' E 113°30'65450107.6
2014-Aug-22 17:27N 31°21' E 121°27'109785.5
2014-Aug-22 17:18N 29°45' E 122°28'6335876.1
2014-Aug-22 17:12N 22°51' E 113°34'6621013.8
2014-Aug-22 16:33N 31°21' E 121°27'692147.4
2014-Aug-22 16:31N 32°00' E 120°21'8245.5
2014-Aug-22 16:29N 31°56' E 120°12'6419010.7
2014-Aug-22 16:25N 23°04' E 113°30'6272258586.1
2014-Aug-22 16:25N 29°45' E 122°28'1731962.0
2014-Aug-22 16:19N 31°60' E 120°22'4 4.9
2014-Aug-22 15:33N 32°02' E 120°26'666104.9
2014-Aug-22 15:33N 31°21' E 121°27'1115455.7
2014-Aug-22 15:32N 29°47' E 122°35'1761444.1
2014-Aug-22 15:24N 32°00' E 120°21'858.0
2014-Aug-22 15:16N 31°56' E 120°12'65010537.0
2014-Aug-22 15:12N 22°51' E 113°34'6336887.8
2014-Aug-22 15:06N 29°45' E 122°28'109194.8
2014-Aug-22 14:33N 31°21' E 121°27'1092913.9
2014-Aug-22 14:30N 29°45' E 122°28'17339002.0
2014-Aug-22 14:30N 32°00' E 120°21'8193.2
2014-Aug-22 14:28N 31°56' E 120°12'271857.7
2014-Aug-22 14:27N 32°02' E 120°43'6994458.7
2014-Aug-22 14:17N 22°17' E 113°35'5 7.1
2014-Aug-22 13:33N 22°15' E 113°40'814172304.5
2014-Aug-22 13:33N 34°50' E 119°24'23333572.3
2014-Aug-22 13:33N 31°21' E 121°27'66119626.3
2014-Aug-22 13:33N 32°01' E 120°25'1679.7
2014-Aug-22 13:21N 32°02' E 120°43'27754.7
2014-Aug-22 13:19N 31°56' E 120°12'677897.8
2014-Aug-22 12:33N 22°11' E 113°49'5729433.6
2014-Aug-22 12:33N 23°02' E 113°22'66034916.1
2014-Aug-22 12:32N 32°02' E 120°28'658654.6
2014-Aug-22 12:32N 31°21' E 121°27'23393045.8
2014-Aug-22 12:32N 34°50' E 119°24'17811888.8
2014-Aug-22 12:31N 31°56' E 120°12'271894.3
2014-Aug-22 12:30N 32°02' E 120°43'6702707.3
2014-Aug-22 12:15N 22°51' E 113°34'9971443.0
2014-Aug-22 11:33N 39°04' E 117°46'985295509.4
2014-Aug-22 11:33N 23°05' E 113°28'63995890.3
2014-Aug-22 11:33N 32°03' E 119°57'312527.9
2014-Aug-22 11:32N 32°01' E 120°34'17837695.8
2014-Aug-22 11:32N 34°50' E 119°24'23283686.6
2014-Aug-22 11:32N 31°21' E 121°27'734157.8
2014-Aug-22 11:31N 31°56' E 120°12'271894.3
2014-Aug-22 11:30N 32°02' E 120°43'1644793.9
2014-Aug-22 11:28N 29°45' E 122°28'604667.8
2014-Aug-22 10:33N 39°05' E 117°51'26617428.9
2014-Aug-22 10:33N 34°50' E 119°27'772277817.4
2014-Aug-22 10:32N 23°04' E 113°29'64122400.1
2014-Aug-22 10:31N 31°56' E 120°12'46550736.4
2014-Aug-22 10:30N 24°25' E 118°04'4788610.3
2014-Aug-22 10:27N 32°02' E 120°43'56470.0
2014-Aug-22 10:20N 31°21' E 121°27'495643.3
2014-Aug-22 09:33N 39°04' E 117°51'88425659.7
2014-Aug-22 09:31N 24°20' E 118°10'47871743.7
2014-Aug-22 09:31N 32°02' E 120°33'65660519.7
2014-Aug-22 09:30N 23°04' E 113°30'77024984.2
2014-Aug-22 09:29N 34°50' E 119°23'17812833.0
2014-Aug-22 09:28N 31°56' E 120°12'27411.1
2014-Aug-22 09:24N 32°02' E 120°43'562988.4
2014-Aug-22 09:23N 31°21' E 121°27'6542271.8
2014-Aug-22 09:05N 23°04' E 113°29'6541078.7
2014-Aug-22 08:29N 31°21' E 121°27'65432271.9
2014-Aug-22 08:28N 23°04' E 113°29'641288398.9
2014-Aug-22 08:28N 31°56' E 120°12'27235.1
2014-Aug-22 08:21N 32°02' E 120°43'49110904.3
2014-Aug-22 08:18N 24°12' E 118°04'6 8.1
2014-Aug-22 07:33N 24°07' E 118°00'4716843.6
2014-Aug-22 07:29N 31°21' E 121°27'654130842.1
2014-Aug-22 07:29N 23°04' E 113°30'14118.8
2014-Aug-22 07:22N 22°51' E 113°34'6638380.3
2014-Aug-22 07:17N 32°01' E 120°31'17132.2
2014-Aug-22 07:09N 31°56' E 120°12'641177440.7
2014-Aug-22 07:09N 23°04' E 113°30'251417.4
2014-Aug-22 06:33N 24°00' E 117°57'4797157.9
2014-Aug-22 06:29N 31°21' E 121°27'654130842.1
2014-Aug-22 06:29N 23°04' E 113°30'65135531.4
2014-Aug-22 06:28N 32°01' E 120°25'4446742.2
2014-Aug-22 06:24N 39°05' E 117°44'44767095.3
2014-Aug-22 06:23N 32°02' E 120°43'67086155.2
2014-Aug-22 06:23N 22°51' E 113°34'9981215.0
2014-Aug-22 05:34N 39°04' E 117°50'4447715.6
2014-Aug-22 05:30N 31°56' E 120°12'734092.9
2014-Aug-22 05:29N 31°21' E 121°27'65412266.4
2014-Aug-22 05:26N 23°04' E 113°30'645331946.9
2014-Aug-22 05:26N 31°58' E 120°19'5026502.0
2014-Aug-22 05:21N 23°53' E 117°51'24522042.7
2014-Aug-22 05:20N 23°04' E 113°30'661340095.3
2014-Aug-22 05:20N 32°02' E 120°43'445568.8
2014-Aug-22 04:33N 39°05' E 117°51'98669621.1
2014-Aug-22 04:32N 23°04' E 113°30'65411268.4
2014-Aug-22 04:29N 31°21' E 121°27'654123955.6
2014-Aug-22 04:29N 23°04' E 113°30'9859190.9
2014-Aug-22 04:22N 39°04' E 117°49'91747826.9
2014-Aug-22 04:21N 23°48' E 117°46'4262293.7
2014-Aug-22 04:10N 29°36' E 122°21'6121001.7
2014-Aug-22 03:33N 39°05' E 117°45'92147385.9
2014-Aug-22 03:32N 23°43' E 117°42'2365437.4
2014-Aug-22 03:30N 23°04' E 113°29'65475999.5
2014-Aug-22 03:29N 31°21' E 121°27'73821.1
2014-Aug-22 03:24N 31°56' E 120°12'69342.7
2014-Aug-22 03:12N 31°28' E 121°27'5111391.7
2014-Aug-22 03:11N 32°02' E 120°43'10156.4
2014-Aug-22 03:08N 32°01' E 120°32'525915.5
2014-Aug-22 02:33N 23°39' E 117°36'51666316.6
2014-Aug-22 02:33N 31°56' E 120°12'010.8
2014-Aug-22 02:32N 31°56' E 120°12'171923.2
2014-Aug-22 02:32N 32°01' E 120°32'65519314.3
2014-Aug-22 02:30N 23°04' E 113°29'65478537.5
2014-Aug-22 02:29N 31°21' E 121°27'0 0.6
2014-Aug-22 02:24N 31°21' E 121°27'5222.0
2014-Aug-22 02:23N 31°25' E 121°31'6594344.1
2014-Aug-22 02:14N 23°04' E 113°30'657979.1
2014-Aug-22 01:33N 31°23' E 121°30'2135.7
2014-Aug-22 01:32N 31°21' E 121°27'0 0.8
2014-Aug-22 01:29N 31°21' E 121°27'65416592.4
2014-Aug-22 01:27N 23°04' E 113°29'63922553.5
2014-Aug-22 01:25N 31°56' E 120°08'301096.4
2014-Aug-22 01:23N 32°02' E 120°43'6612210.8
2014-Aug-22 01:05N 23°04' E 113°30'6611200.7
2014-Aug-22 00:32N 32°02' E 120°43'10810.9
2014-Aug-22 00:32N 32°01' E 120°32'625678.1
2014-Aug-22 00:31N 31°21' E 121°27'6628792.5
2014-Aug-22 00:26N 22°51' E 113°34'64618910.0
2014-Aug-22 00:24N 31°59' E 119°60'152.8
2014-Aug-22 00:23N 31°59' E 120°01'63810436.7
2014-Aug-22 00:19N 23°04' E 113°29'010.1
2014-Aug-22 00:18N 23°04' E 113°29'641121449.4
2014-Aug-22 00:17N 31°56' E 120°12'7323814.0
2014-Aug-22 00:17N 31°21' E 121°27'0 0.1
2014-Aug-21 23:32N 31°21' E 121°27'5615390.6
2014-Aug-21 23:32N 32°02' E 120°43'27503.1
2014-Aug-21 23:29N 31°56' E 120°12'64139785.7
2014-Aug-21 23:28N 23°04' E 113°29'65515301.0
2014-Aug-21 23:26N 32°01' E 120°32'621467.4
2014-Aug-21 23:23N 31°21' E 121°27'0 0.1
2014-Aug-21 22:33N 31°21' E 121°27'734364.3
2014-Aug-21 22:32N 31°56' E 120°12'64146151.4
2014-Aug-21 22:31N 23°04' E 113°29'65418848.1
2014-Aug-21 22:29N 31°21' E 121°27'627385.2
2014-Aug-21 22:29N 32°01' E 120°32'10258.3
2014-Aug-21 22:26N 32°02' E 120°43'6623378.1
2014-Aug-21 22:15N 23°04' E 113°29'640115280.1
2014-Aug-21 22:14N 31°57' E 120°10'2 3.2
2014-Aug-21 21:33N 31°56' E 120°12'733967.6
2014-Aug-21 21:32N 31°21' E 121°27'7216312.4
2014-Aug-21 21:31N 31°57' E 120°13'642231031.3
2014-Aug-21 21:31N 23°04' E 113°29'65418847.9
2014-Aug-21 21:29N 31°21' E 121°27'627147.8
2014-Aug-21 21:28N 32°01' E 120°32'10110.7
2014-Aug-21 21:23N 32°02' E 120°43'2226.8
2014-Aug-21 20:33N 31°58' E 120°17'708974.7
2014-Aug-21 20:33N 31°21' E 121°27'65422020.0
2014-Aug-21 20:31N 23°04' E 113°29'66221455.2
2014-Aug-21 20:29N 32°02' E 120°43'5615401.6
2014-Aug-21 20:29N 31°21' E 121°27'54911758.5
2014-Aug-21 20:26N 23°11' E 116°51'56544206.3
2014-Aug-21 20:25N 32°01' E 120°32'17212.7
2014-Aug-21 20:21N 31°56' E 120°12'1418.4
2014-Aug-21 19:33N 32°02' E 120°28'6513749.7
2014-Aug-21 19:33N 31°21' E 121°27'685182.7
2014-Aug-21 19:32N 31°60' E 120°22'186528.1
2014-Aug-21 19:32N 32°02' E 120°43'27623.2
2014-Aug-21 19:30N 31°56' E 120°12'64124548.6
2014-Aug-21 19:28N 23°04' E 113°29'0 9.9
2014-Aug-21 19:26N 23°04' E 113°29'141422.4
2014-Aug-21 19:26N 22°51' E 113°34'6624480.5
2014-Aug-21 19:17N 31°21' E 121°27'4642064.5
2014-Aug-21 19:04N 24°11' E 118°13'486969.6
2014-Aug-21 18:33N 32°02' E 120°27'665493.8
2014-Aug-21 18:33N 31°21' E 121°27'672868.4
2014-Aug-21 18:31N 31°60' E 120°23'671734.2
2014-Aug-21 18:29N 31°21' E 121°27'65440620.2
2014-Aug-21 18:28N 23°04' E 113°29'66221455.1
2014-Aug-21 18:26N 32°02' E 120°43'670120628.2
2014-Aug-21 18:26N 22°51' E 113°34'1472.6
2014-Aug-21 18:14N 23°04' E 113°29'6414337.6
2014-Aug-21 18:06N 31°56' E 120°12'510.1
2014-Aug-21 17:33N 31°57' E 120°18'132525.1
2014-Aug-21 17:33N 32°02' E 120°33'6227689.3
2014-Aug-21 17:33N 31°21' E 121°27'7314548.4
2014-Aug-21 17:33N 31°56' E 120°12'27473.5
2014-Aug-21 17:29N 32°02' E 120°43'5618201.8
2014-Aug-21 17:29N 31°21' E 121°27'65439931.5
2014-Aug-21 17:28N 23°04' E 113°29'14377.3
2014-Aug-21 17:26N 22°51' E 113°34'1498.5
2014-Aug-21 17:17N 23°04' E 113°29'2702936.6
2014-Aug-21 17:12N 24°12' E 118°14'46214996.0
2014-Aug-21 17:10N 31°19' E 121°34'235383.6
2014-Aug-21 16:33N 34°50' E 119°27'23148952.8
2014-Aug-21 16:33N 31°21' E 121°27'505302920.1
2014-Aug-21 16:33N 23°41' E 117°33'514462829.3
2014-Aug-21 16:33N 31°56' E 120°14'226096.6
2014-Aug-21 16:33N 32°00' E 120°39'624361.7
2014-Aug-21 16:32N 31°19' E 121°34'65654955.5
2014-Aug-21 16:31N 23°04' E 113°29'65419469.9
2014-Aug-21 16:29N 31°21' E 121°27'6543394.7
2014-Aug-21 16:17N 23°04' E 113°29'3131736.9
2014-Aug-21 16:07N 19°44' E 109°11'5721018.9
2014-Aug-21 15:33N 24°21' E 118°11'6321137615.7
2014-Aug-21 15:33N 34°50' E 119°25'18014712.6
2014-Aug-21 15:32N 32°02' E 120°43'6131239.6
2014-Aug-21 15:32N 31°19' E 121°34'65094.3
2014-Aug-21 15:32N 31°21' E 121°27'65454794.4
2014-Aug-21 15:31N 23°04' E 113°29'64153664.4
2014-Aug-21 15:31N 31°56' E 120°12'946109871.5
2014-Aug-21 15:30N 19°43' E 109°08'943178766.3
2014-Aug-21 15:30N 31°56' E 120°07'776410.9
2014-Aug-21 15:29N 31°21' E 121°27'65415199.7
2014-Aug-21 15:26N 23°04' E 113°29'6424350.5
2014-Aug-21 15:18N 31°57' E 120°13'6509959.8
2014-Aug-21 15:14N 22°53' E 113°31'7811154.6
2014-Aug-21 14:33N 34°50' E 119°24'237284064.8
2014-Aug-21 14:33N 31°19' E 121°34'6251.5
2014-Aug-21 14:32N 31°21' E 121°27'65417324.2
2014-Aug-21 14:29N 23°04' E 113°29'661158756.8
2014-Aug-21 14:29N 32°02' E 120°43'5620017.3
2014-Aug-21 14:29N 31°21' E 121°27'701705.3
2014-Aug-21 14:27N 31°57' E 120°17'4128.0
2014-Aug-21 14:25N 31°56' E 120°12'6416806.9
2014-Aug-21 14:19N 23°04' E 113°29'63746818.9
2014-Aug-21 14:18N 31°59' E 119°59'311.7
2014-Aug-21 14:05N 31°58' E 120°02'173326.6
2014-Aug-21 13:33N 34°49' E 119°28'235845408.4
2014-Aug-21 13:33N 31°19' E 121°34'63392.1
2014-Aug-21 13:33N 31°21' E 121°27'65417198.1
2014-Aug-21 13:31N 23°04' E 113°29'010.3
2014-Aug-21 13:30N 23°04' E 113°29'65484146.2
2014-Aug-21 13:29N 31°21' E 121°27'73984.9
2014-Aug-21 13:25N 31°56' E 120°12'6143.6
2014-Aug-21 13:22N 31°58' E 120°05'32139.1
2014-Aug-21 13:08N 32°02' E 120°43'5695.4
2014-Aug-21 12:33N 31°21' E 121°27'56819.9
2014-Aug-21 12:29N 32°02' E 120°43'271006.1
2014-Aug-21 12:28N 31°56' E 120°12'240.7
2014-Aug-21 12:24N 31°56' E 120°09'64561133.0
2014-Aug-21 12:23N 23°03' E 113°20'661108097.8
2014-Aug-21 12:23N 31°21' E 121°27'6547033.1
2014-Aug-21 12:17N 23°04' E 113°29'0 1.2
2014-Aug-21 12:04N 23°04' E 113°29'4 7.1
2014-Aug-21 11:33N 23°04' E 113°25'643178070.6
2014-Aug-21 11:33N 31°56' E 120°12'56753733.0
2014-Aug-21 11:33N 22°29' E 120°07'537107483.8
2014-Aug-21 11:32N 31°21' E 121°27'0 1.1
2014-Aug-21 11:29N 31°21' E 121°27'65439267.2
2014-Aug-21 11:28N 23°04' E 113°29'66221455.4
2014-Aug-21 11:26N 32°02' E 120°43'6623382.7
2014-Aug-21 11:14N 23°04' E 113°29'0 0.2
2014-Aug-21 10:33N 23°04' E 113°29'641104888.0
2014-Aug-21 10:33N 31°56' E 120°12'565203293.2
2014-Aug-21 10:33N 22°31' E 120°14'57150179.5
2014-Aug-21 10:32N 32°02' E 120°43'5666692.4
2014-Aug-21 10:32N 31°21' E 121°27'65435698.2
2014-Aug-21 10:31N 23°04' E 113°29'65419633.0
2014-Aug-21 10:29N 31°21' E 121°27'65415200.5
2014-Aug-21 10:26N 23°04' E 113°29'0 0.1
2014-Aug-21 09:33N 23°04' E 113°29'65573633.1
2014-Aug-21 09:33N 31°21' E 121°27'65422875.1
2014-Aug-21 09:31N 23°04' E 113°29'64192302.8
2014-Aug-21 09:31N 31°56' E 120°12'732786.6
2014-Aug-21 09:29N 31°21' E 121°27'65415103.3
2014-Aug-21 09:26N 23°04' E 113°29'662140092.0
2014-Aug-21 09:26N 32°02' E 120°43'2098.6
2014-Aug-21 09:14N 31°59' E 120°20'647952.3
2014-Aug-21 08:33N 23°04' E 113°30'65530229.6
2014-Aug-21 08:32N 31°22' E 121°28'65540667.7
2014-Aug-21 08:31N 23°04' E 113°29'64188753.4
2014-Aug-21 08:31N 31°56' E 120°12'73578.2
2014-Aug-21 08:23N 31°21' E 121°27'561157.2
2014-Aug-21 08:20N 32°02' E 120°43'612804.3
2014-Aug-21 08:19N 31°19' E 121°34'6565457.7
2014-Aug-21 08:12N 23°04' E 113°29'63920549.4
2014-Aug-21 08:10N 31°55' E 120°10'6391041.1
2014-Aug-21 07:33N 23°04' E 113°30'65729213.7
2014-Aug-21 07:32N 31°23' E 121°30'65869621.3
2014-Aug-21 07:31N 23°04' E 113°29'64185466.2
2014-Aug-21 07:31N 31°56' E 120°12'732878.4
2014-Aug-21 07:29N 31°21' E 121°27'49810807.9
2014-Aug-21 07:26N 39°05' E 117°44'10086926.4
2014-Aug-21 07:18N 22°39' E 113°41'100833297.4
2014-Aug-21 07:16N 39°05' E 117°44'5023667.2
2014-Aug-21 07:08N 31°19' E 121°34'499879.2
2014-Aug-21 06:33N 39°04' E 117°51'59422.9
2014-Aug-21 06:33N 39°05' E 117°44'985272902.7
2014-Aug-21 06:33N 23°04' E 113°30'65843097.7
2014-Aug-21 06:32N 31°27' E 121°28'95153.9
2014-Aug-21 06:32N 31°19' E 121°34'502150660.3
2014-Aug-21 06:32N 39°05' E 117°44'49810251.9
2014-Aug-21 06:29N 31°21' E 121°27'65438000.6
2014-Aug-21 06:28N 23°04' E 113°29'27238.3
2014-Aug-21 06:21N 22°39' E 113°41'29761.9
2014-Aug-21 06:19N 23°02' E 113°22'10530.5
2014-Aug-21 06:18N 22°54' E 113°28'1926.3
2014-Aug-21 05:33N 22°39' E 113°41'1008362963.9
2014-Aug-21 05:33N 39°05' E 117°47'1722.2
2014-Aug-21 05:33N 39°04' E 117°49'98695890.7
2014-Aug-21 05:33N 23°04' E 113°30'985110866.1
2014-Aug-21 05:32N 39°05' E 117°44'50262341.5
2014-Aug-21 05:32N 31°19' E 121°34'66218912.1
2014-Aug-21 05:29N 23°02' E 113°22'660118792.7
2014-Aug-21 05:29N 31°21' E 121°28'6553907.5
2014-Aug-21 05:19N 23°04' E 113°29'9861294.0
2014-Aug-21 04:33N 39°04' E 117°50'986131448.3
2014-Aug-21 04:33N 23°04' E 113°30'986394214.6
2014-Aug-21 04:33N 39°04' E 117°50'1432.0
2014-Aug-21 04:33N 39°04' E 117°51'445800107.0
2014-Aug-21 04:33N 32°01' E 120°36'66528520.6
2014-Aug-21 04:31N 22°54' E 113°28'513523.1
2014-Aug-21 04:30N 22°09' E 113°53'68633354.3
2014-Aug-21 04:29N 31°22' E 121°28'7337487.8
2014-Aug-21 04:29N 31°56' E 120°12'9583.9
2014-Aug-21 04:28N 31°59' E 120°02'6383202.8
2014-Aug-21 04:16N 23°04' E 113°29'9871391.2
2014-Aug-21 03:34N 39°05' E 117°52'23161.7
2014-Aug-21 03:33N 39°04' E 117°50'986154301.6
2014-Aug-21 03:33N 23°04' E 113°30'6561181190.4
2014-Aug-21 03:33N 31°19' E 121°34'7810851.1
2014-Aug-21 03:33N 31°56' E 120°12'44466551.5
2014-Aug-21 03:32N 39°04' E 117°50'103421266.0
2014-Aug-21 03:29N 22°12' E 113°46'6876886.3
2014-Aug-21 03:23N 31°22' E 121°28'6559698.7
2014-Aug-21 03:19N 23°04' E 113°29'9861288.2
2014-Aug-21 02:33N 39°04' E 117°51'986710026.2
2014-Aug-21 02:33N 23°04' E 113°29'64120066.9
2014-Aug-21 02:31N 31°56' E 120°12'7811755.8
2014-Aug-21 02:31N 31°19' E 121°34'7823491.8
2014-Aug-21 02:31N 31°57' E 120°13'445160317.1
2014-Aug-21 02:31N 39°05' E 117°44'103145270.1
2014-Aug-21 02:29N 22°16' E 113°39'688412673.9
2014-Aug-21 02:29N 31°22' E 121°28'65514639.6
2014-Aug-21 02:26N 23°04' E 113°29'9861117.5
2014-Aug-21 01:34N 39°05' E 117°44'986295654.1
2014-Aug-21 01:33N 23°04' E 113°29'986253517.9
2014-Aug-21 01:33N 39°04' E 117°51'987394993.8
2014-Aug-21 01:33N 23°02' E 113°31'65740093.3
2014-Aug-21 01:32N 31°19' E 121°34'611367.0
2014-Aug-21 01:29N 32°02' E 120°43'5622267.0
2014-Aug-21 01:29N 31°22' E 121°28'73597.7
2014-Aug-21 01:22N 31°56' E 120°12'911.2
2014-Aug-21 00:33N 31°60' E 120°22'649212328.3
2014-Aug-21 00:33N 23°04' E 113°29'986354824.8
2014-Aug-21 00:33N 39°05' E 117°48'995210782.4
2014-Aug-21 00:33N 22°54' E 113°31'66210780.2
2014-Aug-21 00:29N 31°22' E 121°28'73328.4
2014-Aug-21 00:16N 31°56' E 120°12'79398.6
2014-Aug-21 00:04N 31°15' E 121°31'73142.4
2014-Aug-20 23:33N 32°02' E 120°26'652587134.0
2014-Aug-20 23:33N 23°04' E 113°29'64115698.1
2014-Aug-20 23:31N 31°56' E 120°12'786269.8
2014-Aug-20 23:30N 31°19' E 121°34'668171841.8
2014-Aug-20 23:30N 22°54' E 113°22'66758522.9
2014-Aug-20 23:29N 31°22' E 121°28'722.7
2014-Aug-20 23:12N 31°17' E 121°34'6551016.2
2014-Aug-20 22:33N 23°04' E 113°29'655471821.1
2014-Aug-20 22:33N 32°02' E 120°31'691943.7
2014-Aug-20 22:31N 31°19' E 121°34'7818807.2
2014-Aug-20 22:31N 31°56' E 120°12'732650.4
2014-Aug-20 22:29N 31°22' E 121°28'6722916.8
2014-Aug-20 22:15N 22°48' E 113°20'674968.6
2014-Aug-20 21:34N 32°01' E 120°35'656147712.2
2014-Aug-20 21:33N 23°04' E 113°29'65669510.2
2014-Aug-20 21:33N 31°19' E 121°34'782474.7
2014-Aug-20 21:31N 31°56' E 120°12'753962.1
2014-Aug-20 21:30N 31°21' E 121°30'2250.2
2014-Aug-20 21:29N 31°22' E 121°28'74289.9
2014-Aug-20 21:14N 31°55' E 120°10'639943.3
2014-Aug-20 20:33N 23°04' E 113°29'65651377.9
2014-Aug-20 20:32N 31°19' E 121°34'782969.8
2014-Aug-20 20:31N 31°56' E 120°12'2271.8
2014-Aug-20 20:30N 31°55' E 120°10'743704.7
2014-Aug-20 20:29N 31°22' E 121°28'564485.1
2014-Aug-20 20:28N 32°00' E 120°40'658719.6
2014-Aug-20 19:34N 23°04' E 113°29'656295422.8
2014-Aug-20 19:33N 31°19' E 121°34'577.9
2014-Aug-20 19:29N 31°22' E 121°28'562432.2
2014-Aug-20 19:28N 31°60' E 120°39'23472.6
2014-Aug-20 19:25N 31°56' E 120°12'6543258.5
2014-Aug-20 19:13N 22°42' E 113°41'6671016.7
2014-Aug-20 18:33N 31°19' E 121°34'656181798.6
2014-Aug-20 18:33N 23°04' E 113°29'64128490.0
2014-Aug-20 18:32N 31°56' E 120°12'2108.7
2014-Aug-20 18:31N 31°55' E 120°10'201081.7
2014-Aug-20 18:30N 32°01' E 120°33'617811.2
2014-Aug-20 18:29N 31°22' E 121°28'49394.9
2014-Aug-20 18:22N 31°59' E 120°51'6774778.1
2014-Aug-20 18:13N 22°44' E 113°34'2030.3
2014-Aug-20 17:34N 23°04' E 113°29'65398002.5
2014-Aug-20 17:33N 32°02' E 120°27'65987.8
2014-Aug-20 17:29N 31°22' E 121°28'671109875.8
2014-Aug-20 17:29N 22°44' E 113°27'65715069.1
2014-Aug-20 17:26N 31°55' E 120°10'801077.1
2014-Aug-20 17:22N 31°19' E 121°34'781259.5
2014-Aug-20 17:18N 31°56' E 120°12'6506877.6
2014-Aug-20 17:12N 22°54' E 113°30'2112221.2
2014-Aug-20 17:07N 22°57' E 117°19'211382.8
2014-Aug-20 16:33N 23°04' E 113°29'64925111.1
2014-Aug-20 16:32N 31°59' E 120°22'9481.3
2014-Aug-20 16:31N 31°56' E 120°12'56024569.4
2014-Aug-20 16:29N 22°58' E 117°18'55812641.7
2014-Aug-20 16:27N 31°55' E 120°10'741218.0
2014-Aug-20 16:23N 31°22' E 121°28'68913482.1
2014-Aug-20 16:20N 22°17' E 113°35'37256.7
2014-Aug-20 16:12N 22°50' E 113°18'1726.8
2014-Aug-20 15:34N 23°04' E 113°29'64442932.3
2014-Aug-20 15:33N 31°57' E 120°17'64233.3
2014-Aug-20 15:33N 31°55' E 120°10'67627356.7
2014-Aug-20 15:31N 22°16' E 113°37'68821921.4
2014-Aug-20 15:29N 31°22' E 121°28'671104987.0
2014-Aug-20 15:29N 22°54' E 113°15'6576440.2
2014-Aug-20 15:23N 31°56' E 120°12'179614.6
2014-Aug-20 15:05N 34°50' E 119°23'8141509.8
2014-Aug-20 14:33N 22°13' E 113°45'4615070.6
2014-Aug-20 14:33N 22°57' E 113°30'77854917.9
2014-Aug-20 14:32N 34°50' E 119°26'232166796.9
2014-Aug-20 14:32N 31°22' E 121°29'121.9
2014-Aug-20 14:29N 31°22' E 121°28'739048.4
2014-Aug-20 14:29N 31°56' E 120°12'782411.3
2014-Aug-20 14:27N 31°19' E 121°34'82767.3
2014-Aug-20 14:20N 31°57' E 120°09'112.5
2014-Aug-20 14:15N 31°56' E 120°09'2 2.3
2014-Aug-20 13:32N 31°55' E 120°10'8017906.2
2014-Aug-20 13:32N 31°19' E 121°34'6368.5
2014-Aug-20 13:31N 31°24' E 121°31'4145.9
2014-Aug-20 13:29N 31°22' E 121°28'73986.4
2014-Aug-20 13:25N 31°57' E 120°12'111.3
2014-Aug-20 13:22N 31°56' E 120°12'7897.3
2014-Aug-20 12:33N 31°19' E 121°34'768600.4
2014-Aug-20 12:33N 31°57' E 120°15'711935.9
2014-Aug-20 12:31N 31°22' E 121°28'731465.9
2014-Aug-20 12:28N 31°56' E 120°12'69310.4
2014-Aug-20 12:14N 31°28' E 121°26'6593.8
2014-Aug-20 11:33N 31°59' E 120°19'7514953.4
2014-Aug-20 11:33N 31°19' E 121°34'782432.1
2014-Aug-20 11:31N 31°56' E 120°12'27351.2
2014-Aug-20 11:26N 32°02' E 120°43'562178.0
2014-Aug-20 11:25N 31°22' E 121°28'5 6.4
2014-Aug-20 10:33N 31°19' E 121°34'735471.6
2014-Aug-20 10:32N 31°60' E 120°22'682481.4
2014-Aug-20 10:31N 31°22' E 121°28'746.2
2014-Aug-20 10:21N 31°15' E 121°33'802016.0
2014-Aug-20 10:19N 31°56' E 120°12'1331876.1
2014-Aug-20 10:14N 30°44' E 122°24'1351884.1
2014-Aug-20 10:10N 31°55' E 120°10'1423.8
2014-Aug-20 09:34N 32°01' E 120°26'669964.6
2014-Aug-20 09:33N 31°22' E 121°28'53741.4
2014-Aug-20 09:33N 31°19' E 121°34'2416.0
2014-Aug-20 09:33N 31°17' E 121°34'62819.9
2014-Aug-20 09:28N 32°02' E 120°43'2791.6
2014-Aug-20 09:11N 31°56' E 120°12'1625.3
2014-Aug-20 08:33N 32°02' E 120°29'698874.4
2014-Aug-20 08:33N 31°20' E 121°33'1146.5
2014-Aug-20 08:32N 31°19' E 121°34'51614.9
2014-Aug-20 08:32N 31°24' E 121°31'65838212.2
2014-Aug-20 08:31N 23°03' E 113°30'64112612.0
2014-Aug-20 08:28N 31°56' E 120°12'65616874.7
2014-Aug-20 08:26N 22°54' E 113°15'67711338.7
2014-Aug-20 08:22N 32°02' E 120°43'446548.7
2014-Aug-20 07:33N 39°04' E 117°47'5011802785.6
2014-Aug-20 07:33N 31°19' E 121°34'103873.1
2014-Aug-20 07:33N 31°27' E 121°27'5720538.3
2014-Aug-20 07:33N 32°01' E 120°33'638405.7
2014-Aug-20 07:33N 31°21' E 121°31'808951.8
2014-Aug-20 07:32N 31°56' E 120°07'63917959.6
2014-Aug-20 07:30N 23°04' E 113°29'1235.9
2014-Aug-20 07:09N 23°03' E 113°15'9891645.6
2014-Aug-20 06:33N 39°04' E 117°50'445400637.6
2014-Aug-20 06:33N 32°00' E 120°37'632291.1
2014-Aug-20 06:32N 31°19' E 121°34'8852800.9
2014-Aug-20 06:32N 31°58' E 120°01'841772.5
2014-Aug-20 06:29N 31°23' E 121°30'66712001.8
2014-Aug-20 06:25N 23°02' E 113°15'4266.9
2014-Aug-20 06:24N 23°03' E 113°20'3304084.1
2014-Aug-20 06:20N 24°43' E 119°04'8641122.8
2014-Aug-20 05:33N 39°05' E 117°46'501601488.9
2014-Aug-20 05:33N 31°19' E 121°34'6031037.9
2014-Aug-20 05:33N 32°01' E 120°42'271147.3
2014-Aug-20 05:32N 31°55' E 120°10'52018174.6
2014-Aug-20 05:30N 23°38' E 117°17'51817428.5
2014-Aug-20 05:28N 31°25' E 121°31'4255129.5
2014-Aug-20 05:23N 24°41' E 119°01'4473837.8
2014-Aug-20 05:16N 31°60' E 120°39'449626.8
2014-Aug-20 04:33N 39°05' E 117°44'449404452.8
2014-Aug-20 04:33N 32°01' E 120°46'581226.2
2014-Aug-20 04:31N 31°19' E 121°34'652095.3
2014-Aug-20 04:29N 32°00' E 120°34'6909978.7
2014-Aug-20 04:24N 22°09' E 113°55'6899926.1
2014-Aug-20 04:20N 31°29' E 121°25'691103.2
2014-Aug-20 04:17N 31°55' E 120°10'6484138.9
2014-Aug-20 04:07N 22°55' E 113°27'9951758.9
2014-Aug-20 03:33N 39°05' E 117°44'44436319.8
2014-Aug-20 03:33N 32°02' E 120°29'199672.0
2014-Aug-20 03:32N 31°59' E 120°51'67137752.3
2014-Aug-20 03:31N 22°53' E 113°30'453473.6
2014-Aug-20 03:31N 22°11' E 113°48'688225152.6
2014-Aug-20 03:30N 31°19' E 121°34'50814987.5
2014-Aug-20 03:28N 23°39' E 117°31'23816475.7
2014-Aug-20 03:27N 23°03' E 113°15'9827929.0
2014-Aug-20 03:20N 37°26' E 122°16'3577941.6
2014-Aug-20 03:17N 31°32' E 121°20'486662.0
2014-Aug-20 02:33N 39°05' E 117°44'44626326.9
2014-Aug-20 02:32N 31°55' E 120°10'67757987.5
2014-Aug-20 02:32N 22°14' E 113°41'54799.0
2014-Aug-20 02:27N 23°03' E 113°15'6665387.0
2014-Aug-20 02:20N 31°19' E 121°34'6583551.8
2014-Aug-20 02:09N 23°01' E 113°31'6471096.4
2014-Aug-20 01:34N 31°57' E 120°18'44393903.7
2014-Aug-20 01:33N 39°04' E 117°50'49956173.3
2014-Aug-20 01:33N 31°19' E 121°34'631964.3
2014-Aug-20 01:31N 31°60' E 120°37'23158.2
2014-Aug-20 01:22N 31°55' E 120°10'6392140.6
2014-Aug-20 01:04N 23°04' E 113°29'9871928.7
2014-Aug-20 00:33N 39°05' E 117°52'44363827.6
2014-Aug-20 00:33N 32°01' E 120°31'66311314.6
2014-Aug-20 00:29N 23°03' E 113°15'6669744.8
2014-Aug-20 00:25N 31°19' E 121°34'656147693.6
2014-Aug-20 00:25N 23°04' E 113°29'6398017.6
2014-Aug-20 00:20N 31°56' E 120°09'323.9
2014-Aug-20 00:14N 31°56' E 120°12'1217.6
2014-Aug-19 23:33N 32°01' E 120°25'44372507.9
2014-Aug-19 23:33N 39°05' E 117°46'44121187.0
2014-Aug-19 23:32N 31°58' E 120°03'8611.1
2014-Aug-19 23:31N 31°56' E 120°12'64113819.3
2014-Aug-19 23:28N 23°04' E 113°29'65636923.7
2014-Aug-19 23:27N 31°19' E 121°34'7481.2
2014-Aug-19 22:32N 31°58' E 120°19'742635.4
2014-Aug-19 22:31N 31°19' E 121°34'601186.0
2014-Aug-19 22:28N 32°00' E 120°42'65915308.2
2014-Aug-19 22:25N 23°04' E 113°29'6418775.0
2014-Aug-19 22:21N 31°56' E 120°12'6 7.1
2014-Aug-19 21:33N 31°57' E 120°19'14997.0
2014-Aug-19 21:32N 32°00' E 120°35'1481.0
2014-Aug-19 21:32N 31°60' E 120°36'213411.1
2014-Aug-19 21:32N 31°56' E 120°12'64110490.2
2014-Aug-19 21:28N 23°04' E 113°29'111088.4
2014-Aug-19 21:28N 23°03' E 113°18'6644704.4
2014-Aug-19 21:19N 31°19' E 121°34'660870.1
2014-Aug-19 20:34N 23°03' E 113°25'657215117.4
2014-Aug-19 20:33N 32°02' E 120°29'6545511.5
2014-Aug-19 20:26N 23°04' E 113°30'64123305.2
2014-Aug-19 20:25N 31°56' E 120°12'79250.0
2014-Aug-19 20:06N 31°19' E 121°34'72134.6
2014-Aug-19 19:33N 31°60' E 120°23'10903.2
2014-Aug-19 19:33N 31°56' E 120°12'642330204.5
2014-Aug-19 19:33N 23°02' E 113°31'215.3
2014-Aug-19 19:23N 23°04' E 113°30'6452155.0
2014-Aug-19 19:05N 31°57' E 120°19'65161655.9
2014-Aug-19 19:05N 23°03' E 113°19'1629.9
2014-Aug-19 18:33N 22°55' E 113°33'649106234.3
2014-Aug-19 18:33N 31°57' E 120°17'463.2
2014-Aug-19 18:29N 31°56' E 120°12'647387955.3
2014-Aug-19 18:29N 23°02' E 113°21'6502949.1
2014-Aug-19 18:16N 31°57' E 120°19'648915.8
2014-Aug-19 17:33N 23°03' E 113°25'64292518.2
2014-Aug-19 17:33N 31°56' E 120°10'67717669.4
2014-Aug-19 17:31N 22°17' E 113°35'31709.7
2014-Aug-19 17:28N 22°48' E 113°37'655181295.2
2014-Aug-19 17:28N 31°57' E 120°19'64523682.8
2014-Aug-19 17:26N 23°04' E 113°30'64135495.6
2014-Aug-19 17:25N 31°56' E 120°12'79755.9
2014-Aug-19 17:19N 31°19' E 121°34'657866.7
2014-Aug-19 16:33N 23°04' E 113°29'2429162.5
2014-Aug-19 16:33N 22°43' E 113°40'654235410.8
2014-Aug-19 16:33N 31°56' E 120°12'67915869.3
2014-Aug-19 16:31N 22°17' E 113°35'69323772.6
2014-Aug-19 16:29N 31°27' E 121°28'65914725.6
2014-Aug-19 16:26N 23°04' E 113°30'6451793.6
2014-Aug-19 16:05N 31°57' E 120°19'134251.8
2014-Aug-19 15:33N 30°28' E 122°16'646155134.7
2014-Aug-19 15:32N 23°02' E 113°31'487466.2
2014-Aug-19 15:32N 22°15' E 113°41'67814967.2
2014-Aug-19 15:29N 31°56' E 120°12'271429.7
2014-Aug-19 15:28N 32°02' E 120°43'21391.2
2014-Aug-19 15:25N 31°57' E 120°19'64523209.1
2014-Aug-19 15:23N 23°04' E 113°30'6562070.4
2014-Aug-19 15:04N 31°19' E 121°34'6881317.1
2014-Aug-19 14:33N 22°11' E 113°48'68831343.0
2014-Aug-19 14:32N 31°19' E 121°34'747025.2
2014-Aug-19 14:31N 31°57' E 120°19'6458230.2
2014-Aug-19 14:26N 23°04' E 113°30'64111893.0
2014-Aug-19 14:23N 31°56' E 120°12'6 6.8
2014-Aug-19 13:33N 31°57' E 120°19'6457276.3
2014-Aug-19 13:28N 23°04' E 113°30'64147090.5
2014-Aug-19 13:27N 31°56' E 120°12'791349.9
2014-Aug-19 13:24N 31°19' E 121°34'61493.7
2014-Aug-19 13:16N 32°02' E 120°43'662929.6
2014-Aug-19 12:33N 23°02' E 113°32'89801.1
2014-Aug-19 12:33N 22°54' E 113°28'6546208.8
2014-Aug-19 12:27N 31°57' E 120°19'61844.9
2014-Aug-19 12:27N 31°56' E 120°12'79383.1
2014-Aug-19 12:15N 31°19' E 121°34'65610597.2
2014-Aug-19 12:11N 23°04' E 113°29'6441029.2
2014-Aug-19 11:33N 31°57' E 120°16'2310.4
2014-Aug-19 11:33N 31°57' E 120°19'7413348.5
2014-Aug-19 11:33N 31°19' E 121°34'65654957.3
2014-Aug-19 11:32N 23°04' E 113°29'6414280.0
2014-Aug-19 11:23N 31°56' E 120°13'7894.6
2014-Aug-19 10:33N 31°19' E 121°34'7318890.2
2014-Aug-19 10:33N 31°60' E 120°22'650259800.3
2014-Aug-19 10:33N 23°02' E 113°31'3161.3
2014-Aug-19 10:32N 23°04' E 113°29'6457790.6
2014-Aug-19 10:27N 31°57' E 120°19'1615688.4
2014-Aug-19 10:25N 29°54' E 122°20'16631371.0
2014-Aug-19 10:25N 31°56' E 120°09'8194.0
2014-Aug-19 09:33N 31°19' E 121°34'9121732.2
2014-Aug-19 09:33N 29°57' E 122°16'15326263.2
2014-Aug-19 09:33N 32°01' E 120°32'20492.2
2014-Aug-19 09:30N 31°56' E 120°09'64144350.0
2014-Aug-19 09:30N 23°01' E 113°31'63913606.4
2014-Aug-19 09:27N 31°58' E 120°00'64210141.6
2014-Aug-19 09:23N 23°02' E 113°22'73224.2
2014-Aug-19 09:23N 23°04' E 113°29'98539419.9
2014-Aug-19 09:21N 39°05' E 117°44'4421668.3
2014-Aug-19 09:05N 31°58' E 120°03'2648.2
2014-Aug-19 08:33N 32°02' E 120°33'131026.5
2014-Aug-19 08:32N 31°57' E 120°19'894.3
2014-Aug-19 08:27N 31°56' E 120°09'301085.2
2014-Aug-19 08:25N 32°02' E 120°43'16225.2
2014-Aug-19 08:21N 32°00' E 120°24'1564914.9
2014-Aug-19 08:19N 29°57' E 122°15'6596192.5
2014-Aug-19 08:13N 22°13' E 113°35'103517994.6
2014-Aug-19 08:09N 39°05' E 117°44'4 6.8
2014-Aug-19 07:34N 39°04' E 117°49'444199911.4
2014-Aug-19 07:33N 31°57' E 120°19'444532839.7
2014-Aug-19 07:33N 39°04' E 117°50'989889666.2
2014-Aug-19 07:33N 23°01' E 113°31'659263747.8
2014-Aug-19 07:33N 32°00' E 120°39'172321.0
2014-Aug-19 07:33N 31°58' E 120°19'21170.7
2014-Aug-19 07:25N 32°02' E 120°43'3015307.4
2014-Aug-19 07:25N 31°57' E 120°09'64056154.5
2014-Aug-19 07:24N 23°04' E 113°30'63933333.6
2014-Aug-19 07:23N 31°56' E 120°09'6393764.4
2014-Aug-19 07:13N 23°04' E 113°29'9861495.5
2014-Aug-19 06:33N 39°04' E 117°51'44359126.1
2014-Aug-19 06:33N 31°56' E 120°12'6273.2
2014-Aug-19 06:32N 31°57' E 120°19'231553.2
2014-Aug-19 06:31N 32°01' E 120°46'66341903.0
2014-Aug-19 06:30N 23°01' E 113°31'64182431.3
2014-Aug-19 06:29N 31°55' E 120°10'6397597.2
2014-Aug-19 06:24N 23°04' E 113°30'131246.5
2014-Aug-19 06:24N 22°51' E 113°34'67025653.6
2014-Aug-19 06:22N 32°02' E 120°43'4474436.0
2014-Aug-19 06:16N 39°05' E 117°44'9859719.8
2014-Aug-19 06:10N 23°04' E 113°29'6451052.9
2014-Aug-19 05:33N 31°57' E 120°19'4461606486.2
2014-Aug-19 05:33N 39°05' E 117°44'446267425.5
2014-Aug-19 05:33N 31°56' E 120°11'444799277.3
2014-Aug-19 05:33N 39°04' E 117°47'98818329.2
2014-Aug-19 05:30N 23°01' E 113°31'340.7
2014-Aug-19 05:25N 23°04' E 113°29'032.7
2014-Aug-19 05:24N 23°04' E 113°29'10437.8
2014-Aug-19 05:23N 22°55' E 113°33'6459926.0
2014-Aug-19 05:19N 31°55' E 120°10'444583.5
2014-Aug-19 04:34N 39°04' E 117°48'1588.2
2014-Aug-19 04:33N 39°04' E 117°49'986887021.1
2014-Aug-19 04:33N 23°04' E 113°29'642210009.6
2014-Aug-19 04:33N 31°57' E 120°13'51189.0
2014-Aug-19 04:33N 31°57' E 120°19'645178751.8
2014-Aug-19 04:33N 23°03' E 113°30'98715717.1
2014-Aug-19 04:29N 39°05' E 117°44'98523810.2
2014-Aug-19 04:26N 23°04' E 113°29'9861116.5
2014-Aug-19 03:34N 39°04' E 117°51'986506987.2
2014-Aug-19 03:33N 23°05' E 113°27'986591439.0
2014-Aug-19 03:33N 39°04' E 117°50'44349823.1
2014-Aug-19 03:33N 31°58' E 120°18'64717909.6
2014-Aug-19 03:31N 23°01' E 113°31'98837443.1
2014-Aug-19 03:29N 39°05' E 117°44'5840.3
2014-Aug-19 03:29N 39°04' E 117°50'985104337.5
2014-Aug-19 03:28N 23°05' E 113°27'2122.3
2014-Aug-19 03:27N 23°04' E 113°30'9851103.8
2014-Aug-19 02:33N 39°05' E 117°45'3719.1
2014-Aug-19 02:33N 39°04' E 117°49'98630853.0
2014-Aug-19 02:31N 23°04' E 113°30'101413.3
2014-Aug-19 02:31N 23°03' E 113°19'111366.3
2014-Aug-19 02:30N 23°01' E 113°31'65135495.7
2014-Aug-19 02:29N 31°60' E 120°22'66018405.5
2014-Aug-19 02:27N 22°47' E 113°38'25119.9
2014-Aug-19 02:15N 23°03' E 113°18'659961.1
2014-Aug-19 01:33N 32°02' E 120°26'660215900.3
2014-Aug-19 01:33N 22°53' E 113°34'996512005.0
2014-Aug-19 01:33N 39°05' E 117°46'9865367.6
2014-Aug-19 01:22N 23°04' E 113°30'655803.2
2014-Aug-19 00:33N 32°02' E 120°31'65759125.5
2014-Aug-19 00:33N 23°01' E 113°31'3130.5
2014-Aug-19 00:31N 23°04' E 113°30'4669.8
2014-Aug-19 00:31N 23°01' E 113°32'0 0.2
2014-Aug-18 23:34N 23°01' E 113°32'65869710.5
2014-Aug-18 23:33N 32°01' E 120°36'658102996.4
2014-Aug-18 23:33N 23°02' E 113°31'297.7
2014-Aug-18 23:31N 23°04' E 113°30'229773.2
2014-Aug-18 23:13N 23°39' E 117°37'228343.9
2014-Aug-18 22:34N 23°01' E 113°32'415.6
2014-Aug-18 22:19N 23°04' E 113°30'4 4.9
2014-Aug-18 21:33N 23°01' E 113°32'420.2
2014-Aug-18 21:22N 23°04' E 113°30'4 4.6
2014-Aug-18 20:33N 23°01' E 113°32'420.3
2014-Aug-18 20:22N 23°04' E 113°30'6562715.9
2014-Aug-18 20:08N 31°60' E 120°36'3 6.1
2014-Aug-18 19:33N 32°01' E 120°32'65690868.3
2014-Aug-18 19:33N 23°01' E 113°32'4116.7
2014-Aug-18 19:31N 23°04' E 113°30'3 2.9
2014-Aug-18 18:33N 23°01' E 113°31'65241938.0
2014-Aug-18 18:32N 32°01' E 120°25'65130824.9
2014-Aug-18 18:31N 23°04' E 113°30'0 0.4
2014-Aug-18 17:33N 23°04' E 113°29'31288.7
2014-Aug-18 17:33N 23°01' E 113°31'640427.2
2014-Aug-18 16:03N 32°01' E 119°59'6401275.3
2014-Aug-18 15:33N 23°01' E 113°32'6488074.8
2014-Aug-18 15:28N 31°58' E 120°21'16144.9
2014-Aug-18 15:22N 31°58' E 120°02'87525.6
2014-Aug-18 15:12N 31°19' E 121°34'656107409.4
2014-Aug-18 15:11N 23°04' E 113°29'6631054.2
2014-Aug-18 14:34N 32°01' E 120°48'66499635.6
2014-Aug-18 14:33N 23°01' E 113°32'65845525.4
2014-Aug-18 14:32N 31°19' E 121°34'826901.1
2014-Aug-18 14:32N 31°57' E 120°08'6404549.9
2014-Aug-18 14:23N 23°04' E 113°29'124149.9
2014-Aug-18 14:23N 22°54' E 113°35'7 8.5
2014-Aug-18 13:34N 23°01' E 113°32'5195.1
2014-Aug-18 13:32N 23°04' E 113°29'643192762.1
2014-Aug-18 13:32N 31°57' E 120°15'7730709.7
2014-Aug-18 13:32N 31°19' E 121°34'664796799.7
2014-Aug-18 13:32N 22°53' E 113°31'3106308.1
2014-Aug-18 13:29N 24°47' E 118°46'307333.8
2014-Aug-18 12:34N 23°01' E 113°31'  
Track history (hours):
 
Tides and Currents Weather Stations Pressure Air Temp Water Temp Dewpoint Dewpoint Depression Visibility Wind Speed Wind Dir Waves Ship Positions

Callsign 000000 (name unknown)

Last reported at 2014-Aug-28 12:33 UTC. Time now 2014-Aug-28 13:23 UTC.
Position N 34°49' E 119°28'.

Type: Fishing. MMSI: 200007452.

Date/timePositionNaut miles runAvg speedWind from/ knotsBaromVisibWave heightAir tempDewpointWater temp
2014-Aug-28 12:33N 34°49' E 119°28'772555758.6
2014-Aug-28 12:33N 23°04' E 113°29'665798008.1
2014-Aug-28 12:33N 30°36' E 122°36'66518001.0
2014-Aug-28 12:31N 23°04' E 113°29'65445253.0
2014-Aug-28 12:30N 31°21' E 121°27'6228.5
2014-Aug-28 12:29N 31°25' E 121°32'7783.1
2014-Aug-28 11:33N 30°31' E 122°35'66140345.8
2014-Aug-28 11:32N 23°04' E 113°29'65410142.6
2014-Aug-28 11:28N 31°21' E 121°27'2337416.7
2014-Aug-28 11:26N 34°50' E 119°24'2318664.9
2014-Aug-28 11:25N 31°25' E 121°32'73274.6
2014-Aug-28 11:09N 31°57' E 120°15'6431059.1
2014-Aug-28 10:32N 23°04' E 113°29'368331532.8
2014-Aug-28 10:32N 25°58' E 119°26'31830903.8
2014-Aug-28 10:32N 30°28' E 122°35'856955.1
2014-Aug-28 10:31N 31°28' E 121°25'849.6
2014-Aug-28 10:22N 31°21' E 121°27'6236.1
2014-Aug-28 10:20N 31°25' E 121°32'711479.7
2014-Aug-28 10:17N 31°58' E 120°18'6463715.4
2014-Aug-28 10:07N 23°04' E 113°29'6491157.6
2014-Aug-28 09:33N 31°60' E 120°23'6491168541.6
2014-Aug-28 09:33N 23°04' E 113°29'659296728.6
2014-Aug-28 09:33N 30°28' E 122°35'31820792.3
2014-Aug-28 09:32N 25°58' E 119°26'340136070.6
2014-Aug-28 09:32N 31°21' E 121°27'8241.2
2014-Aug-28 09:30N 31°28' E 121°25'658689.6
2014-Aug-28 08:33N 23°04' E 113°29'6589669.0
2014-Aug-28 08:29N 31°28' E 121°25'6446161.0
2014-Aug-28 08:29N 31°58' E 120°18'3632540.1
2014-Aug-28 08:20N 25°58' E 119°26'3407117.5
2014-Aug-28 08:17N 31°21' E 121°27'62386.0
2014-Aug-28 08:08N 32°02' E 120°31'5798.8
2014-Aug-28 07:33N 31°28' E 121°25'658131608.5
2014-Aug-28 07:33N 23°04' E 113°29'131131.6
2014-Aug-28 07:32N 22°52' E 113°33'65949456.9
2014-Aug-28 07:32N 32°01' E 120°24'44439951.2
2014-Aug-28 07:31N 39°05' E 117°44'79215251.5
2014-Aug-28 07:28N 25°58' E 119°26'369406.8
2014-Aug-28 06:33N 32°02' E 120°31'655112348.2
2014-Aug-28 06:33N 23°04' E 113°29'65490502.1
2014-Aug-28 06:33N 31°21' E 121°27'49813911.4
2014-Aug-28 06:30N 39°05' E 117°44'4917720.0
2014-Aug-28 06:27N 31°28' E 121°25'65811786.0
2014-Aug-28 06:23N 23°04' E 113°29'9851187.1
2014-Aug-28 05:33N 39°05' E 117°46'4971790410.7
2014-Aug-28 05:33N 31°21' E 121°27'72998.8
2014-Aug-28 05:33N 31°28' E 121°25'5212477.5
2014-Aug-28 05:33N 32°01' E 120°37'6572365011.5
2014-Aug-28 05:33N 23°04' E 113°29'2811225.9
2014-Aug-28 05:33N 22°38' E 113°41'251389.7
2014-Aug-28 05:32N 22°13' E 113°36'51195.7
2014-Aug-28 05:16N 23°04' E 113°29'36863160.6
2014-Aug-28 05:16N 25°58' E 119°26'368521.5
2014-Aug-28 04:33N 23°04' E 113°29'986709599.3
2014-Aug-28 04:33N 39°04' E 117°51'44545756.4
2014-Aug-28 04:33N 32°00' E 120°39'67371300.5
2014-Aug-28 04:32N 22°38' E 113°41'66817186.5
2014-Aug-28 04:30N 31°22' E 121°28'3419980.5
2014-Aug-28 04:28N 25°58' E 119°26'3904634.2
2014-Aug-28 04:23N 22°14' E 113°36'51499.8
2014-Aug-28 04:17N 23°04' E 113°29'0 0.1
2014-Aug-28 03:33N 23°04' E 113°29'9851773693.8
2014-Aug-28 03:33N 39°05' E 117°45'985295617.6
2014-Aug-28 03:33N 23°04' E 113°29'65584174.9
2014-Aug-28 03:33N 31°22' E 121°28'7767.8
2014-Aug-28 03:32N 31°28' E 121°25'69827628.4
2014-Aug-28 03:30N 22°21' E 113°18'4008670.0
2014-Aug-28 03:28N 25°58' E 119°26'36869743.5
2014-Aug-28 03:27N 32°00' E 120°39'69716179.9
2014-Aug-28 03:25N 22°14' E 113°36'531821.4
2014-Aug-28 03:23N 23°03' E 113°16'34312.9
2014-Aug-28 03:17N 22°38' E 113°41'668932.2
2014-Aug-28 02:34N 31°22' E 121°28'655214261.9
2014-Aug-28 02:33N 23°04' E 113°29'507141.0
2014-Aug-28 02:33N 22°15' E 113°36'371180.7
2014-Aug-28 02:31N 22°52' E 113°33'666114086.9
2014-Aug-28 02:31N 31°28' E 121°25'65891117.0
2014-Aug-28 02:30N 23°04' E 113°29'512496.7
2014-Aug-28 02:29N 22°14' E 113°23'40017989.3
2014-Aug-28 02:28N 25°58' E 119°26'37395795.8
2014-Aug-28 02:27N 22°53' E 113°31'6676078.1
2014-Aug-28 02:21N 31°26' E 121°30'3 3.2
2014-Aug-28 01:33N 31°24' E 121°31'44666.5
2014-Aug-28 01:33N 31°22' E 121°28'655181312.0
2014-Aug-28 01:33N 23°04' E 113°29'0 6.1
2014-Aug-28 01:33N 23°04' E 113°29'11681.2
2014-Aug-28 01:32N 22°53' E 113°30'66619814.5
2014-Aug-28 01:30N 31°28' E 121°25'70312220.6
2014-Aug-28 01:26N 22°10' E 113°27'3995226.7
2014-Aug-28 01:22N 25°58' E 119°26'373463.4
2014-Aug-28 00:33N 22°53' E 113°30'6661198779.7
2014-Aug-28 00:33N 31°28' E 121°25'6582368999.3
2014-Aug-28 00:33N 23°04' E 113°29'040.7
2014-Aug-28 00:33N 23°04' E 113°29'655107135.6
2014-Aug-28 00:33N 31°22' E 121°28'3411818.7
2014-Aug-28 00:22N 25°58' E 119°26'341425.1
2014-Aug-27 23:33N 31°22' E 121°28'663298148.0
2014-Aug-27 23:33N 22°53' E 113°30'11939.2
2014-Aug-27 23:33N 23°04' E 113°29'0 1.4
2014-Aug-27 23:30N 23°04' E 113°29'65825202.9
2014-Aug-27 23:29N 31°28' E 121°25'3472943.5
2014-Aug-27 23:22N 25°58' E 119°26'373463.7
2014-Aug-27 22:33N 22°53' E 113°30'111792.1
2014-Aug-27 22:33N 23°04' E 113°29'65526482.1
2014-Aug-27 22:31N 31°22' E 121°28'790.3
2014-Aug-27 22:27N 31°28' E 121°25'3474065.2
2014-Aug-27 22:22N 25°58' E 119°26'3682526.3
2014-Aug-27 22:13N 23°04' E 113°29'5 8.4
2014-Aug-27 21:33N 23°02' E 113°24'111377.4
2014-Aug-27 21:33N 22°53' E 113°30'663183470.1
2014-Aug-27 21:33N 31°22' E 121°28'784.8
2014-Aug-27 21:28N 31°28' E 121°25'65814019.1
2014-Aug-27 21:25N 23°04' E 113°29'54334.3
2014-Aug-27 21:15N 22°11' E 113°32'5476.9
2014-Aug-27 20:33N 23°04' E 113°29'114923.0
2014-Aug-27 20:33N 22°53' E 113°30'666114166.1
2014-Aug-27 20:33N 31°28' E 121°25'7352.8
2014-Aug-27 20:32N 31°22' E 121°28'6559945.7
2014-Aug-27 20:28N 23°04' E 113°29'77017443.1
2014-Aug-27 20:25N 34°50' E 119°22'226261.8
2014-Aug-27 19:33N 31°28' E 121°25'66661474.1
2014-Aug-27 19:33N 22°53' E 113°30'66376938.6
2014-Aug-27 19:32N 31°22' E 121°28'23220408.1
2014-Aug-27 19:31N 34°50' E 119°25'7729614.4
2014-Aug-27 19:27N 23°04' E 113°29'0 3.9
2014-Aug-27 19:22N 23°04' E 113°29'656810.6
2014-Aug-27 18:33N 31°22' E 121°30'76561.8
2014-Aug-27 18:33N 31°28' E 121°25'22340068.0
2014-Aug-27 18:33N 34°49' E 119°29'7827071.7
2014-Aug-27 18:26N 22°53' E 113°30'9700.3
2014-Aug-27 18:26N 22°44' E 113°29'201815.6
2014-Aug-27 18:25N 23°04' E 113°29'0 1.8
2014-Aug-27 18:15N 23°04' E 113°29'7721119.1
2014-Aug-27 17:33N 34°49' E 119°30'78278184.0
2014-Aug-27 17:33N 22°53' E 113°30'666342685.7
2014-Aug-27 17:33N 31°24' E 121°31'6593721.9
2014-Aug-27 17:22N 23°04' E 113°29'191640.7
2014-Aug-27 17:21N 22°46' E 113°22'19314.9
2014-Aug-27 17:18N 23°04' E 113°29'7721049.3
2014-Aug-27 16:34N 34°49' E 119°28'229103075.1
2014-Aug-27 16:33N 31°24' E 121°31'536964683.2
2014-Aug-27 16:33N 22°33' E 120°16'53992440.8
2014-Aug-27 16:33N 31°28' E 121°25'666399581.5
2014-Aug-27 16:33N 22°53' E 113°30'12734.9
2014-Aug-27 16:32N 23°02' E 113°22'778.9
2014-Aug-27 16:27N 23°04' E 113°29'17700.4
2014-Aug-27 16:25N 22°50' E 113°18'173575.9
2014-Aug-27 16:25N 23°04' E 113°29'53951.9
2014-Aug-27 16:22N 22°11' E 113°33'4252.2
2014-Aug-27 15:33N 22°53' E 113°30'121076.4
2014-Aug-27 15:32N 23°05' E 113°27'168238.7
2014-Aug-27 15:32N 22°54' E 113°14'515231.1
2014-Aug-27 15:32N 22°07' E 113°36'70022920.8
2014-Aug-27 15:30N 31°24' E 121°31'6999.8
2014-Aug-27 15:29N 31°28' E 121°25'53928957.7
2014-Aug-27 15:28N 22°34' E 120°06'3675436.5
2014-Aug-27 15:24N 23°04' E 113°29'66053959.6
2014-Aug-27 15:23N 31°28' E 121°27'6602931.3
2014-Aug-27 15:10N 23°04' E 113°29'1117.7
2014-Aug-27 14:33N 22°53' E 113°30'6671200455.9
2014-Aug-27 14:33N 31°25' E 121°31'61228.0
2014-Aug-27 14:33N 31°28' E 121°25'6794.8
2014-Aug-27 14:33N 31°24' E 121°31'65931208.5
2014-Aug-27 14:31N 23°02' E 113°31'554906.7
2014-Aug-27 14:31N 22°07' E 113°33'3966484.9
2014-Aug-27 14:27N 25°58' E 119°26'3691881.7
2014-Aug-27 14:15N 23°04' E 113°29'183552.9
2014-Aug-27 14:15N 22°54' E 113°13'18599.7
2014-Aug-27 14:13N 23°04' E 113°29'77222060.5
2014-Aug-27 14:11N 34°48' E 119°31'530846.4
2014-Aug-27 13:33N 25°58' E 119°27'3881395100.1
2014-Aug-27 13:33N 22°54' E 113°13'78785871.9
2014-Aug-27 13:33N 34°49' E 119°28'78239083.0
2014-Aug-27 13:32N 22°53' E 113°30'11147.8
2014-Aug-27 13:27N 23°04' E 113°29'65846452.7
2014-Aug-27 13:26N 31°28' E 121°25'65828203.5
2014-Aug-27 13:25N 23°04' E 113°29'3091405.2
2014-Aug-27 13:12N 24°46' E 118°48'3303833.2
2014-Aug-27 13:07N 22°06' E 113°34'561690.1
2014-Aug-27 13:05N 23°02' E 113°31'7731493.2
2014-Aug-27 12:34N 34°50' E 119°27'782234482.7
2014-Aug-27 12:33N 22°53' E 113°30'66661473.7
2014-Aug-27 12:33N 31°28' E 121°25'6587135.8
2014-Aug-27 12:27N 23°04' E 113°29'3206.9
2014-Aug-27 12:26N 23°02' E 113°31'37712338.0
2014-Aug-27 12:24N 26°07' E 119°33'3775499.9
2014-Aug-27 12:20N 23°04' E 113°30'658789460.0
2014-Aug-27 12:20N 31°31' E 121°22'7023113.7
2014-Aug-27 12:07N 22°06' E 113°34'4784.8
2014-Aug-27 11:33N 22°53' E 113°30'11633.7
2014-Aug-27 11:32N 23°04' E 113°30'3217.5
2014-Aug-27 11:32N 23°02' E 113°32'56621.4
2014-Aug-27 11:26N 22°06' E 113°35'70226869.0
2014-Aug-27 11:25N 31°28' E 121°25'658772.1
2014-Aug-27 10:34N 23°04' E 113°29'114399.7
2014-Aug-27 10:33N 22°53' E 113°30'161351.8
2014-Aug-27 10:33N 22°54' E 113°13'481471.9
2014-Aug-27 10:31N 22°10' E 113°35'54436.4
2014-Aug-27 10:23N 23°04' E 113°30'315.0
2014-Aug-27 10:13N 23°02' E 113°31'3 4.6
2014-Aug-27 09:33N 23°04' E 113°29'658263320.0
2014-Aug-27 09:33N 31°24' E 121°31'65855090.1
2014-Aug-27 09:32N 23°04' E 113°30'32398.2
2014-Aug-27 09:32N 23°02' E 113°31'92114.5
2014-Aug-27 09:32N 22°53' E 113°30'1628288.0
2014-Aug-27 09:32N 22°54' E 113°13'2724366.4
2014-Aug-27 09:28N 23°45' E 118°04'4966976.0
2014-Aug-27 09:24N 31°28' E 121°25'659780.0
2014-Aug-27 08:33N 23°02' E 113°31'81909.5
2014-Aug-27 08:33N 22°53' E 113°30'111413.4
2014-Aug-27 08:33N 23°04' E 113°29'0132.9
2014-Aug-27 08:32N 23°04' E 113°30'25227530.2
2014-Aug-27 08:32N 23°45' E 118°01'50527117.1
2014-Aug-27 08:31N 31°58' E 120°03'75737.9
2014-Aug-27 08:25N 31°28' E 121°25'7016452.2
2014-Aug-27 08:18N 22°16' E 113°21'3850.7
2014-Aug-27 07:33N 22°53' E 113°30'1140533.2
2014-Aug-27 07:33N 23°04' E 113°29'64157697.9
2014-Aug-27 07:32N 31°57' E 120°11'6584891.1
2014-Aug-27 07:24N 22°54' E 113°13'99912977.8
2014-Aug-27 07:20N 39°05' E 117°44'446577.1
2014-Aug-27 06:33N 31°58' E 120°18'65032043.7
2014-Aug-27 06:32N 23°02' E 113°23'7553.6
2014-Aug-27 06:31N 23°02' E 113°31'65987880.8
2014-Aug-27 06:31N 31°28' E 121°25'666140964.6
2014-Aug-27 06:31N 22°51' E 113°33'99731213.9
2014-Aug-27 06:29N 39°05' E 117°44'98510849.1
2014-Aug-27 06:23N 23°04' E 113°30'9858738.1
2014-Aug-27 06:17N 39°05' E 117°44'603840.7
2014-Aug-27 05:33N 29°46' E 122°18'622186612.4
2014-Aug-27 05:33N 23°02' E 113°31'988222211.2
2014-Aug-27 05:33N 39°05' E 117°44'98582504.0
2014-Aug-27 05:32N 23°04' E 113°30'658338297.3
2014-Aug-27 05:32N 31°28' E 121°25'49165476.8
2014-Aug-27 05:32N 39°05' E 117°44'997239299.6
2014-Aug-27 05:31N 22°51' E 113°33'2023712.8
2014-Aug-27 05:31N 23°02' E 113°15'9902220.3
2014-Aug-27 05:05N 39°05' E 117°46'3 4.9
2014-Aug-27 04:33N 39°04' E 117°49'989444830.9
2014-Aug-27 04:33N 23°03' E 113°20'9569.0
2014-Aug-27 04:32N 23°04' E 113°30'376.6
2014-Aug-27 04:30N 23°02' E 113°31'6594485.3
2014-Aug-27 04:21N 31°28' E 121°25'49116522.4
2014-Aug-27 04:20N 39°05' E 117°44'60260158.2
2014-Aug-27 04:19N 29°47' E 122°16'6029799.4
2014-Aug-27 04:15N 39°05' E 117°44'5 7.2
2014-Aug-27 03:33N 39°03' E 117°50'11225.9
2014-Aug-27 03:33N 39°04' E 117°51'986591445.6
2014-Aug-27 03:33N 23°05' E 113°28'47221.3
2014-Aug-27 03:33N 23°02' E 113°31'659395454.9
2014-Aug-27 03:33N 31°28' E 121°25'48992651.5
2014-Aug-27 03:33N 39°04' E 117°48'6015694.3
2014-Aug-27 03:26N 29°46' E 122°18'62826278.8
2014-Aug-27 03:25N 23°02' E 113°22'8258.0
2014-Aug-27 03:23N 23°04' E 113°30'9851187.7
2014-Aug-27 02:34N 39°05' E 117°44'81859.4
2014-Aug-27 02:33N 38°60' E 117°52'981196208.4
2014-Aug-27 02:33N 23°05' E 113°29'1154.6
2014-Aug-27 02:33N 23°04' E 113°29'3605.1
2014-Aug-27 02:32N 23°02' E 113°31'9873554541.4
2014-Aug-27 02:32N 39°03' E 117°52'98910752.4
2014-Aug-27 02:27N 23°03' E 113°16'6636438.3
2014-Aug-27 02:21N 31°60' E 120°37'656181628.0
2014-Aug-27 02:20N 23°04' E 113°30'3071881.4
2014-Aug-27 02:11N 24°47' E 118°46'444718.8
2014-Aug-27 01:33N 32°01' E 120°31'65416014.4
2014-Aug-27 01:31N 23°05' E 113°29'62242274.6
2014-Aug-27 01:30N 29°45' E 122°22'60580644.2
2014-Aug-27 01:30N 39°05' E 117°45'9871184994.4
2014-Aug-27 01:30N 23°02' E 113°31'314.9
2014-Aug-27 01:19N 23°04' E 113°29'984221333.9
2014-Aug-27 01:18N 39°02' E 117°52'4937920.2
2014-Aug-27 01:15N 31°21' E 121°27'497723.0
2014-Aug-27 00:33N 39°05' E 117°46'98480531.4
2014-Aug-27 00:33N 23°05' E 113°29'655131042.4
2014-Aug-27 00:32N 31°22' E 121°29'6714220.8
2014-Aug-27 00:32N 32°01' E 120°24'1698452.3
2014-Aug-27 00:31N 29°45' E 122°22'1304810.5
2014-Aug-27 00:29N 31°40' E 121°13'2223.5
2014-Aug-26 23:33N 31°24' E 121°31'7028063.2
2014-Aug-26 23:32N 31°57' E 120°19'6441159959.8
2014-Aug-26 23:32N 23°05' E 113°29'1191.7
2014-Aug-26 23:32N 23°04' E 113°29'6585396.2
2014-Aug-26 23:25N 31°28' E 121°25'6582637.8
2014-Aug-26 23:10N 23°04' E 113°29'1 2.2
2014-Aug-26 22:32N 23°05' E 113°29'64016683.9
2014-Aug-26 22:30N 31°56' E 120°12'6491720.6
2014-Aug-26 22:07N 22°51' E 113°33'1425.5
2014-Aug-26 21:33N 23°05' E 113°29'1 7.3
2014-Aug-26 21:23N 23°04' E 113°29'6246239.4
2014-Aug-26 21:17N 29°44' E 122°23'623832.7
2014-Aug-26 20:32N 23°05' E 113°29'63784893.9
2014-Aug-26 20:32N 31°58' E 120°03'76390.4
2014-Aug-26 20:20N 31°28' E 121°25'0 0.0
2014-Aug-26 19:32N 31°28' E 121°25'6578103.6
2014-Aug-26 19:27N 23°05' E 113°29'124.3
2014-Aug-26 19:23N 23°04' E 113°30'13236.3
2014-Aug-26 19:20N 22°51' E 113°33'78223074.9
2014-Aug-26 19:18N 34°50' E 119°24'7726826.1
2014-Aug-26 19:11N 23°04' E 113°29'1 1.9
2014-Aug-26 18:33N 23°05' E 113°29'77119683.7
2014-Aug-26 18:31N 34°50' E 119°27'77418818.8
2014-Aug-26 18:29N 23°02' E 113°31'3 9.7
2014-Aug-26 18:11N 23°04' E 113°29'65819417.8
2014-Aug-26 18:09N 31°28' E 121°25'6571089.9
2014-Aug-26 17:33N 23°05' E 113°29'7719773.7
2014-Aug-26 17:28N 34°49' E 119°30'7725754.1
2014-Aug-26 17:20N 23°04' E 113°29'334.1
2014-Aug-26 17:15N 23°02' E 113°31'552065.0
2014-Aug-26 17:13N 22°18' E 114°07'8021192.2
2014-Aug-26 16:33N 34°49' E 119°29'77121024.8
2014-Aug-26 16:31N 23°05' E 113°29'41315.2
2014-Aug-26 16:31N 23°02' E 113°31'6597345.9
2014-Aug-26 16:25N 31°28' E 121°25'657747.2
2014-Aug-26 15:32N 23°05' E 113°29'77259111.1
2014-Aug-26 15:32N 34°49' E 119°31'77411520.1
2014-Aug-26 15:28N 23°02' E 113°31'3133897.0
2014-Aug-26 15:23N 19°43' E 109°11'9675067.6
2014-Aug-26 15:11N 31°28' E 121°25'657981.1
2014-Aug-26 14:31N 23°05' E 113°29'77189536.8
2014-Aug-26 14:31N 34°49' E 119°29'77434385.8
2014-Aug-26 14:29N 23°02' E 113°31'6591954.5
2014-Aug-26 14:09N 31°28' E 121°25'223376.7
2014-Aug-26 13:34N 34°49' E 119°28'771925102.3
2014-Aug-26 13:33N 23°05' E 113°29'62311626.9
2014-Aug-26 13:30N 29°45' E 122°23'62437467.8
2014-Aug-26 13:29N 23°02' E 113°31'3147.7
2014-Aug-26 13:28N 23°04' E 113°30'0 5.1
2014-Aug-26 13:23N 23°04' E 113°29'63817536.9
2014-Aug-26 13:21N 31°58' E 120°03'637803.0
2014-Aug-26 12:33N 23°05' E 113°29'62313199.3
2014-Aug-26 12:30N 29°45' E 122°23'3369768.9
2014-Aug-26 12:28N 34°48' E 119°31'77217258.2
2014-Aug-26 12:26N 23°04' E 113°29'0 4.9
2014-Aug-26 12:23N 23°04' E 113°29'2701539.2
2014-Aug-26 12:12N 24°14' E 118°14'639977.3
2014-Aug-26 11:33N 34°49' E 119°28'26846014.8
2014-Aug-26 11:33N 39°05' E 117°45'98486423.7
2014-Aug-26 11:32N 23°05' E 113°29'265317501.6
2014-Aug-26 11:32N 24°11' E 118°09'265190500.2
2014-Aug-26 11:32N 23°04' E 113°29'396.4
2014-Aug-26 11:30N 23°02' E 113°31'64257822.7
2014-Aug-26 11:30N 31°56' E 120°13'6415456.3
2014-Aug-26 11:23N 23°04' E 113°29'9851205.9
2014-Aug-26 10:34N 39°04' E 117°52'443159354.5
2014-Aug-26 10:33N 31°56' E 120°13'64085377.1
2014-Aug-26 10:33N 23°05' E 113°29'175.5
2014-Aug-26 10:32N 23°04' E 113°29'330.3
2014-Aug-26 10:26N 23°02' E 113°31'25651161.7
2014-Aug-26 10:26N 24°05' E 118°01'4791925.1
2014-Aug-26 10:11N 31°28' E 121°25'65881686.0
2014-Aug-26 10:11N 23°04' E 113°29'9861569.1
2014-Aug-26 09:33N 39°04' E 117°50'98663360.7
2014-Aug-26 09:32N 23°04' E 113°29'11493.8
2014-Aug-26 09:32N 23°05' E 113°29'62419188.7
2014-Aug-26 09:30N 29°45' E 122°23'6248544.5
2014-Aug-26 09:26N 23°04' E 113°29'2506760.9
2014-Aug-26 09:23N 23°60' E 117°55'249990.2
2014-Aug-26 09:08N 23°02' E 113°31'9881706.1
2014-Aug-26 08:34N 39°05' E 117°44'984208460.2
2014-Aug-26 08:33N 23°05' E 113°29'161.4
2014-Aug-26 08:32N 23°04' E 113°29'24413128.9
2014-Aug-26 08:31N 23°56' E 117°50'2462033.0
2014-Aug-26 08:24N 23°05' E 113°27'2115.4
2014-Aug-26 08:23N 23°04' E 113°29'43142.6
2014-Aug-26 08:04N 22°25' E 113°10'10281999.6
2014-Aug-26 07:34N 39°04' E 117°51'985208503.8
2014-Aug-26 07:33N 23°05' E 113°29'158.7
2014-Aug-26 07:32N 23°04' E 113°29'23813810.4
2014-Aug-26 07:31N 23°52' E 117°43'5014833.5
2014-Aug-26 07:25N 31°56' E 120°07'721019.0
2014-Aug-26 07:20N 31°28' E 121°25'66611921.7
2014-Aug-26 07:17N 22°51' E 113°33'13123.0
2014-Aug-26 07:11N 23°04' E 113°29'12176.9
2014-Aug-26 07:07N 23°03' E 113°16'9891795.7
2014-Aug-26 06:34N 39°05' E 117°46'98446016.9
2014-Aug-26 06:32N 23°05' E 113°29'65734797.7
2014-Aug-26 06:31N 31°28' E 121°25'502164438.7
2014-Aug-26 06:31N 23°47' E 117°39'50812979.2
2014-Aug-26 06:29N 32°01' E 119°58'63813117.2
2014-Aug-26 06:26N 23°04' E 113°29'012.7
2014-Aug-26 06:25N 23°04' E 113°29'44287.2
2014-Aug-26 06:16N 22°22' E 113°18'10291470.7
2014-Aug-26 05:34N 39°05' E 117°46'987222165.5
2014-Aug-26 05:33N 23°02' E 113°31'987710951.0
2014-Aug-26 05:33N 39°05' E 117°45'49173586.5
2014-Aug-26 05:33N 31°28' E 121°25'657262954.0
2014-Aug-26 05:33N 23°05' E 113°29'2307450.8
2014-Aug-26 05:31N 23°43' E 117°36'23016207.3
2014-Aug-26 05:30N 23°04' E 113°29'488233.3
2014-Aug-26 05:30N 22°17' E 113°20'48817.5
2014-Aug-26 05:26N 23°04' E 113°29'1339.1
2014-Aug-26 05:05N 22°51' E 113°33'1425.8
2014-Aug-26 04:33N 23°05' E 113°29'9861182645.4
2014-Aug-26 04:33N 39°04' E 117°51'12181.6
2014-Aug-26 04:33N 39°04' E 117°52'98821426.3
2014-Aug-26 04:31N 23°02' E 113°31'3264.6
2014-Aug-26 04:30N 23°04' E 113°29'47650.7
2014-Aug-26 04:26N 22°17' E 113°35'48171049.3
2014-Aug-26 04:26N 23°04' E 113°29'230632.2
2014-Aug-26 04:04N 23°46' E 117°35'9181821.5
2014-Aug-26 03:34N 39°04' E 117°49'14201.9
2014-Aug-26 03:34N 39°04' E 117°50'988222244.0
2014-Aug-26 03:33N 23°02' E 113°31'4376.7
2014-Aug-26 03:33N 23°05' E 113°29'3150.5
2014-Aug-26 03:31N 23°04' E 113°25'51391.5
2014-Aug-26 03:23N 22°14' E 113°35'69520343.5
2014-Aug-26 03:21N 31°28' E 121°25'6582368898.1
2014-Aug-26 03:21N 23°04' E 113°29'2302423.0
2014-Aug-26 03:16N 23°46' E 117°35'228320.1
2014-Aug-26 02:33N 23°02' E 113°31'4714.7
2014-Aug-26 02:33N 23°05' E 113°29'65784521.5
2014-Aug-26 02:32N 31°28' E 121°25'66438567.4
2014-Aug-26 02:31N 23°03' E 113°20'66516277.1
2014-Aug-26 02:29N 31°24' E 121°31'6589443.2
2014-Aug-26 02:24N 23°04' E 113°29'2304977.4
2014-Aug-26 02:22N 23°46' E 117°35'4363040.6
2014-Aug-26 02:13N 29°38' E 122°23'4 5.9
2014-Aug-26 01:34N 29°42' E 122°23'622149217.2
2014-Aug-26 01:33N 23°05' E 113°29'414332.6
2014-Aug-26 01:33N 23°02' E 113°31'6597107.5
2014-Aug-26 01:28N 31°24' E 121°31'503453040.5
2014-Aug-26 01:28N 23°46' E 117°35'2414215.6
2014-Aug-26 01:24N 23°04' E 113°16'41515905.8
2014-Aug-26 01:23N 26°45' E 119°43'40519980.9
2014-Aug-26 01:21N 23°04' E 113°29'64926852.4
2014-Aug-26 01:20N 31°60' E 120°22'6962484.2
2014-Aug-26 01:03N 22°10' E 113°27'52104.8
2014-Aug-26 00:33N 23°02' E 113°31'4247.1
2014-Aug-26 00:32N 23°05' E 113°29'6589666.1
2014-Aug-26 00:28N 31°24' E 121°31'65810396.9
2014-Aug-26 00:24N 23°04' E 113°29'65832002.6
2014-Aug-26 00:23N 32°07' E 120°29'584.8
2014-Aug-26 00:19N 32°02' E 120°26'70023995.6
2014-Aug-26 00:18N 22°10' E 113°27'6574295.5
2014-Aug-26 00:08N 29°37' E 122°23'6191055.9
2014-Aug-25 23:33N 23°05' E 113°29'1 6.3
2014-Aug-25 23:24N 23°04' E 113°29'54762.3
2014-Aug-25 23:20N 22°11' E 113°32'70232809.8
2014-Aug-25 23:19N 32°06' E 120°29'74454.6
2014-Aug-25 23:09N 31°15' E 121°32'6531100.3
2014-Aug-25 22:34N 23°04' E 113°29'1354.8
2014-Aug-25 22:33N 23°03' E 113°30'65622694.0
2014-Aug-25 22:32N 32°04' E 120°28'1804243.5
2014-Aug-25 22:29N 29°34' E 122°25'125481.1
2014-Aug-25 22:13N 31°28' E 121°25'666998.0
2014-Aug-25 21:33N 22°51' E 113°33'1214892.1
2014-Aug-25 21:33N 23°03' E 113°30'65865829.0
2014-Aug-25 21:33N 31°28' E 121°25'7006311.9
2014-Aug-25 21:26N 22°11' E 113°32'69365687.2
2014-Aug-25 21:25N 31°60' E 120°22'649747.5
2014-Aug-25 20:33N 23°04' E 113°29'13902.3
2014-Aug-25 20:33N 23°03' E 113°30'6587669.4
2014-Aug-25 20:28N 31°28' E 121°25'7005313.2
2014-Aug-25 20:20N 22°11' E 113°32'4110534.5
2014-Aug-25 20:20N 22°51' E 113°33'1317.2
2014-Aug-25 19:33N 23°04' E 113°29'1195.1
2014-Aug-25 19:33N 23°03' E 113°30'534231.5
2014-Aug-25 19:32N 22°11' E 113°32'700839473.3
2014-Aug-25 19:32N 31°28' E 121°25'22658044.6
2014-Aug-25 19:32N 34°50' E 119°24'78178144.1
2014-Aug-25 19:31N 22°51' E 113°33'782810.1
2014-Aug-25 18:33N 34°49' E 119°28'772555754.2
2014-Aug-25 18:33N 23°04' E 113°29'1108.2
2014-Aug-25 18:33N 23°03' E 113°30'536566.1
2014-Aug-25 18:32N 22°11' E 113°32'700109498.0
2014-Aug-25 18:32N 31°28' E 121°25'658674.7
2014-Aug-25 17:33N 23°04' E 113°29'1114.2
2014-Aug-25 17:33N 23°03' E 113°30'2299477.6
2014-Aug-25 17:31N 23°46' E 117°35'2441320.2
2014-Aug-25 17:20N 22°11' E 113°32'82168725.4
2014-Aug-25 17:20N 34°49' E 119°29'2233367.4
2014-Aug-25 17:16N 31°28' E 121°25'6662396140.9
2014-Aug-25 17:16N 22°51' E 113°33'1217.6
2014-Aug-25 16:33N 23°03' E 113°30'1822.1
2014-Aug-25 16:33N 23°04' E 113°29'772252561.7
2014-Aug-25 16:33N 34°50' E 119°27'78178143.9
2014-Aug-25 16:33N 22°55' E 113°27'449413.7
2014-Aug-25 16:32N 22°11' E 113°34'2412078.5
2014-Aug-25 16:25N 23°46' E 117°35'5053942.8
2014-Aug-25 16:18N 31°28' E 121°25'124635.7
2014-Aug-25 16:06N 29°36' E 122°24'6191142.8
2014-Aug-25 15:34N 23°03' E 113°30'5729389.0
2014-Aug-25 15:33N 22°06' E 113°33'46572.5
2014-Aug-25 15:29N 22°53' E 113°32'12173.6
2014-Aug-25 15:24N 23°04' E 113°29'2301248.4
2014-Aug-25 15:13N 23°46' E 117°35'229345.0
2014-Aug-25 14:34N 23°03' E 113°30'1513.8
2014-Aug-25 14:33N 23°04' E 113°29'230978.0
2014-Aug-25 14:19N 23°46' E 117°35'230300.0
2014-Aug-25 13:33N 23°04' E 113°29'5312.6
2014-Aug-25 13:32N 22°60' E 113°31'546218.9
2014-Aug-25 13:32N 22°06' E 113°34'5657.1
2014-Aug-25 12:33N 23°02' E 113°24'101166.2
2014-Aug-25 12:32N 22°53' E 113°30'7822643.4
2014-Aug-25 12:14N 34°51' E 119°24'82520478.6
2014-Aug-25 12:12N 22°06' E 113°34'4974.6
2014-Aug-25 11:32N 22°54' E 113°21'4947.2
2014-Aug-25 10:30N 22°06' E 113°34'68621853.2
2014-Aug-25 10:28N 31°60' E 120°00'51013694.3
2014-Aug-25 10:26N 23°46' E 117°35'2481498.5
2014-Aug-25 10:16N 22°54' E 113°11'657914.0
2014-Aug-25 09:33N 31°58' E 120°05'51032187.9
2014-Aug-25 09:32N 23°45' E 117°38'2467759.3
2014-Aug-25 09:30N 22°06' E 113°34'4381486.7
2014-Aug-25 09:12N 26°47' E 119°43'317476.0
2014-Aug-25 08:32N 32°01' E 120°33'2010253.2
2014-Aug-25 08:32N 31°56' E 120°10'221078.5
2014-Aug-25 08:31N 31°60' E 120°36'66428139.4
2014-Aug-25 08:29N 22°51' E 113°33'2375145.5
2014-Aug-25 08:27N 23°52' E 117°43'4968197.0
2014-Aug-25 08:23N 31°28' E 121°25'81356.9
2014-Aug-25 08:23N 31°20' E 121°25'66221.5
2014-Aug-25 08:05N 31°59' E 120°22'815.8
2014-Aug-25 07:33N 31°57' E 120°12'49674459.4
2014-Aug-25 07:33N 23°56' E 117°50'4857698.0
2014-Aug-25 07:29N 31°22' E 121°28'66311866.7
2014-Aug-25 07:26N 22°51' E 113°33'99711654.4
2014-Aug-25 07:20N 39°05' E 117°44'0 0.0
2014-Aug-25 07:08N 39°05' E 117°44'3 6.0
2014-Aug-25 06:33N 39°04' E 117°48'32481.8
2014-Aug-25 06:33N 39°05' E 117°44'44569674.7
2014-Aug-25 06:33N 31°57' E 120°12'563184280.1
2014-Aug-25 06:33N 22°34' E 120°04'147265426.2
2014-Aug-25 06:33N 24°03' E 117°56'901104615.3
2014-Aug-25 06:32N 39°04' E 117°47'99732329.8
2014-Aug-25 06:30N 22°51' E 113°33'62511840.2
2014-Aug-25 06:27N 29°41' E 122°20'118419.1
2014-Aug-25 06:10N 31°28' E 121°25'6647836.5
2014-Aug-25 06:05N 23°02' E 113°21'9891864.0
2014-Aug-25 05:33N 39°04' E 117°52'1460.3
2014-Aug-25 05:33N 39°03' E 117°52'987111051.1
2014-Aug-25 05:33N 23°03' E 113°25'376135414.9
2014-Aug-25 05:33N 22°36' E 120°12'996224034.1
2014-Aug-25 05:32N 39°04' E 117°48'4896852.3
2014-Aug-25 05:28N 31°28' E 121°25'683346.2
2014-Aug-25 05:27N 31°57' E 120°12'17557251.1
2014-Aug-25 05:27N 29°43' E 122°24'62919860.4
2014-Aug-25 05:25N 22°52' E 113°33'26114674.8
2014-Aug-25 05:24N 24°12' E 118°04'8931066.9
2014-Aug-25 04:33N 39°05' E 117°51'11257.6
2014-Aug-25 04:33N 39°04' E 117°50'14976.0
2014-Aug-25 04:33N 39°03' E 117°51'22152.8
2014-Aug-25 04:33N 39°05' E 117°51'987177586.2
2014-Aug-25 04:33N 23°04' E 113°29'6586616.7
2014-Aug-25 04:27N 31°28' E 121°25'683489.6
2014-Aug-25 04:26N 31°57' E 120°12'6614028.7
2014-Aug-25 04:16N 22°28' E 113°52'10171432.4
2014-Aug-25 03:33N 39°05' E 117°44'1767.9
2014-Aug-25 03:33N 39°05' E 117°45'43549.1
2014-Aug-25 03:33N 39°04' E 117°50'1017203437.3
2014-Aug-25 03:33N 22°28' E 113°54'10173661649.2
2014-Aug-25 03:33N 39°04' E 117°51'44211061.8
2014-Aug-25 03:31N 31°57' E 120°12'6414016.1
2014-Aug-25 03:21N 23°04' E 113°29'9851244.7
2014-Aug-25 02:33N 39°05' E 117°46'3946.1
2014-Aug-25 02:33N 39°04' E 117°50'416111.6
2014-Aug-25 02:33N 39°05' E 117°44'985221722.0
2014-Aug-25 02:33N 23°04' E 113°29'6414510.2
2014-Aug-25 02:24N 31°57' E 120°12'6489932.4
2014-Aug-25 02:21N 23°04' E 113°16'2675436.4
2014-Aug-25 02:18N 24°24' E 117°54'8801195.5
2014-Aug-25 01:33N 39°04' E 117°51'187.2
2014-Aug-25 01:33N 39°04' E 117°50'44313292.3
2014-Aug-25 01:31N 31°57' E 120°12'6413018.6
2014-Aug-25 01:18N 23°04' E 113°29'1093.7
2014-Aug-25 01:12N 23°03' E 113°19'5 7.1
2014-Aug-25 00:33N 23°02' E 113°23'9891779490.0
2014-Aug-25 00:33N 39°03' E 117°52'44110885.2
2014-Aug-25 00:31N 31°57' E 120°12'64110084.0
2014-Aug-25 00:27N 23°04' E 113°29'0 0.3
2014-Aug-24 23:33N 23°04' E 113°29'9851182127.8
2014-Aug-24 23:33N 39°04' E 117°47'102060182.0
2014-Aug-24 23:32N 22°24' E 113°54'66439842.0
2014-Aug-24 23:31N 31°57' E 120°12'6415564.4
2014-Aug-24 23:24N 23°04' E 113°29'6313779.9
2014-Aug-24 23:14N 29°47' E 122°32'631922.8
2014-Aug-24 22:33N 23°04' E 113°29'64141235.9
2014-Aug-24 22:32N 31°57' E 120°12'6417671.8
2014-Aug-24 22:27N 23°04' E 113°29'6226863.7
2014-Aug-24 22:22N 29°39' E 122°25'6616113.6
2014-Aug-24 22:15N 22°11' E 113°25'44283.2
2014-Aug-24 22:06N 22°54' E 113°13'1833.1
2014-Aug-24 21:33N 23°04' E 113°29'616722200123.6
2014-Aug-24 21:33N 49°20' W 123°23'5414140223.6
2014-Aug-24 21:31N 29°45' E 122°24'64212569.4
2014-Aug-24 21:28N 22°54' E 113°13'443255.5
2014-Aug-24 21:27N 22°11' E 113°25'69214084.3
2014-Aug-24 21:24N 31°58' E 120°18'645290366.1
2014-Aug-24 21:24N 23°04' E 113°29'1821.6
2014-Aug-24 20:33N 22°54' E 113°13'185028.1
2014-Aug-24 20:33N 23°04' E 113°29'64961443.2
2014-Aug-24 20:32N 31°60' E 120°22'1717984.8
2014-Aug-24 20:31N 29°45' E 122°24'6259291.2
2014-Aug-24 20:27N 23°04' E 113°29'615746083.7
2014-Aug-24 20:19N 49°20' W 123°34'61798156.7
2014-Aug-24 19:33N 22°54' E 113°13'181895.3
2014-Aug-24 19:33N 23°04' E 113°29'654784243.1
2014-Aug-24 19:33N 32°02' E 120°27'591288.5
2014-Aug-24 19:30N 31°28' E 121°25'6586419.3
2014-Aug-24 19:24N 23°04' E 113°29'531081.5
2014-Aug-24 19:21N 22°11' E 113°25'66419274.9
2014-Aug-24 19:19N 29°45' E 122°24'115152.0
2014-Aug-24 18:33N 31°28' E 121°25'658338404.7
2014-Aug-24 18:33N 23°04' E 113°29'65676151.7
2014-Aug-24 18:33N 32°01' E 120°34'672142406.2
2014-Aug-24 18:32N 22°54' E 113°13'64328207.9
2014-Aug-24 18:31N 29°45' E 122°24'6259030.8
2014-Aug-24 18:27N 23°04' E 113°29'1036.3
2014-Aug-24 18:11N 22°55' E 113°26'1219.1
2014-Aug-24 17:33N 22°54' E 113°13'181368.6
2014-Aug-24 17:33N 23°04' E 113°29'11423.3
2014-Aug-24 17:31N 22°54' E 113°30'10207.8
2014-Aug-24 17:28N 23°04' E 113°30'65819734.1
2014-Aug-24 17:26N 31°28' E 121°25'7034209.1
2014-Aug-24 17:16N 22°11' E 113°25'5374.1
2014-Aug-24 16:33N 23°04' E 113°29'65878961.8
2014-Aug-24 16:32N 31°28' E 121°25'1155004.6
2014-Aug-24 16:31N 29°45' E 122°24'64211609.6
2014-Aug-24 16:28N 22°54' E 113°14'1718.7
2014-Aug-24 15:33N 23°04' E 113°29'13868.8
2014-Aug-24 15:32N 22°54' E 113°20'67189507.7
2014-Aug-24 15:32N 31°28' E 121°25'6586103.3
2014-Aug-24 15:25N 23°04' E 113°30'624562022.4
2014-Aug-24 15:25N 29°45' E 122°24'625723.7
2014-Aug-24 14:33N 23°04' E 113°29'102710.5
2014-Aug-24 14:33N 22°55' E 113°28'63217922.4
2014-Aug-24 14:31N 29°45' E 122°24'1742604.7
2014-Aug-24 14:27N 31°57' E 120°12'64121180.5
2014-Aug-24 14:25N 23°04' E 113°30'53212.1
2014-Aug-24 14:10N 22°11' E 113°25'4573.7
2014-Aug-24 13:33N 22°56' E 113°30'648145835.6
2014-Aug-24 13:33N 31°57' E 120°12'64139139.1
2014-Aug-24 13:32N 23°04' E 113°29'6252262.6
2014-Aug-24 13:16N 29°45' E 122°24'1621418.4
2014-Aug-24 13:09N 31°60' E 120°40'6588645.3
2014-Aug-24 13:04N 23°04' E 113°30'6561263.0
2014-Aug-24 12:33N 32°00' E 120°37'657236375.8
2014-Aug-24 12:33N 23°04' E 113°29'624249798.1
2014-Aug-24 12:33N 29°45' E 122°24'11325405.9
2014-Aug-24 12:32N 31°27' E 121°29'660118837.6
2014-Aug-24 12:32N 23°02' E 113°31'235.0
2014-Aug-24 12:28N 23°04' E 113°30'64137236.6
2014-Aug-24 12:27N 31°57' E 120°12'444496.3
2014-Aug-24 11:33N 39°04' E 117°47'986236735.2
2014-Aug-24 11:33N 23°03' E 113°31'657262959.1
2014-Aug-24 11:33N 32°04' E 120°32'657394234.8
2014-Aug-24 11:33N 23°04' E 113°29'641577347.5
2014-Aug-24 11:33N 31°57' E 120°12'7512847.8
2014-Aug-24 11:32N 31°25' E 121°32'6595357.5
2014-Aug-24 11:25N 23°04' E 113°30'2 2.1
2014-Aug-24 10:33N 23°03' E 113°31'986887817.9
2014-Aug-24 10:33N 39°04' E 117°47'9893558634.1
2014-Aug-24 10:33N 23°03' E 113°21'82823.0
2014-Aug-24 10:33N 23°04' E 113°29'654138445.5
2014-Aug-24 10:33N 32°02' E 120°28'698885.8
2014-Aug-24 10:32N 31°20' E 121°33'782575.8
2014-Aug-24 10:31N 31°57' E 120°12'6411448.4
2014-Aug-24 10:04N 23°04' E 113°30'2 3.6
2014-Aug-24 09:33N 23°03' E 113°31'986710252.8
2014-Aug-24 09:33N 39°03' E 117°52'919367560.8
2014-Aug-24 09:33N 23°45' E 117°31'22937544.6
2014-Aug-24 09:33N 23°04' E 113°25'651781586.6
2014-Aug-24 09:33N 32°00' E 120°22'64929971.6
2014-Aug-24 09:32N 23°04' E 113°29'65260229.0
2014-Aug-24 09:31N 32°02' E 120°26'652156552.0
2014-Aug-24 09:31N 23°04' E 113°30'65137180.6
2014-Aug-24 09:30N 31°15' E 121°30'78330.6
2014-Aug-24 09:15N 31°57' E 120°12'25140.5
2014-Aug-24 09:05N 31°60' E 120°41'446853.3
2014-Aug-24 08:33N 39°04' E 117°51'9873552641.3
2014-Aug-24 08:33N 23°03' E 113°30'9863551056.2
2014-Aug-24 08:33N 39°04' E 117°49'444228120.7
2014-Aug-24 08:33N 31°57' E 120°18'6451160889.9
2014-Aug-24 08:33N 23°04' E 113°30'2285.7
2014-Aug-24 08:33N 23°03' E 113°31'648101411.4
2014-Aug-24 08:32N 31°59' E 120°21'142674.9
2014-Aug-24 08:32N 31°60' E 120°38'22759.2
2014-Aug-24 08:30N 31°57' E 120°12'64117104.9
2014-Aug-24 08:28N 23°04' E 113°29'531745.1
2014-Aug-24 08:26N 22°11' E 113°25'66811624.9
2014-Aug-24 08:23N 29°49' E 122°27'277032.4
2014-Aug-24 08:23N 30°16' E 122°32'58012137.8
2014-Aug-24 08:20N 39°05' E 117°44'57714314.7
2014-Aug-24 08:17N 30°18' E 122°29'143194.7
2014-Aug-24 07:33N 32°01' E 120°33'446803117.1
2014-Aug-24 07:33N 39°05' E 117°44'610356.6
2014-Aug-24 07:33N 39°05' E 117°51'574295072.4
2014-Aug-24 07:33N 30°18' E 122°30'575258648.7
2014-Aug-24 07:33N 39°04' E 117°48'9921190593.5
2014-Aug-24 07:33N 22°57' E 113°30'66698.2
2014-Aug-24 07:33N 23°03' E 113°31'643289530.7
2014-Aug-24 07:33N 31°56' E 120°16'446100395.5
2014-Aug-24 07:33N 39°05' E 117°44'44650146.0
2014-Aug-24 07:32N 31°56' E 120°12'64182462.4
2014-Aug-24 07:32N 23°03' E 113°31'247.4
2014-Aug-24 07:29N 23°04' E 113°29'65077949.6
2014-Aug-24 07:29N 30°19' E 122°29'1512497.5
2014-Aug-24 07:25N 31°57' E 120°14'110.7
2014-Aug-24 07:20N 31°56' E 120°13'642822.8
2014-Aug-24 06:33N 23°03' E 113°31'9863550680.5
2014-Aug-24 06:33N 39°04' E 117°47'1462.1
2014-Aug-24 06:33N 39°04' E 117°48'15049.7
2014-Aug-24 06:33N 39°05' E 117°46'44338934.4
2014-Aug-24 06:33N 31°59' E 120°20'6501169630.2
2014-Aug-24 06:33N 23°03' E 113°25'4340.6
2014-Aug-24 06:32N 23°04' E 113°30'13570.4
2014-Aug-24 06:31N 22°52' E 113°33'65644545.4
2014-Aug-24 06:30N 30°21' E 122°28'1508465.1
2014-Aug-24 06:29N 31°54' E 120°10'31309.0
2014-Aug-24 06:28N 31°57' E 120°08'21337.1
2014-Aug-24 06:28N 31°56' E 120°10'1535233.9
2014-Aug-24 06:27N 30°19' E 122°28'1494784.7
2014-Aug-24 06:25N 31°59' E 120°19'6131.7
2014-Aug-24 06:22N 31°56' E 120°12'444550.1
2014-Aug-24 05:33N 39°04' E 117°50'1922.9
2014-Aug-24 05:33N 39°04' E 117°51'14018.0
2014-Aug-24 05:33N 39°03' E 117°51'986136545.2
2014-Aug-24 05:33N 23°03' E 113°31'652335201.4
2014-Aug-24 05:33N 32°01' E 120°25'1282.0
2014-Aug-24 05:33N 32°02' E 120°26'111118.0
2014-Aug-24 05:32N 31°57' E 120°14'1486902.6
2014-Aug-24 05:31N 30°21' E 122°26'1542934.1
2014-Aug-24 05:28N 31°57' E 120°05'644128723.1
2014-Aug-24 05:27N 23°03' E 113°20'394.6
2014-Aug-24 05:25N 23°03' E 113°16'66624969.5
2014-Aug-24 05:24N 31°28' E 121°25'682317.6
2014-Aug-24 05:22N 31°56' E 120°12'149714.3
2014-Aug-24 05:09N 30°20' E 122°26'147245.4
2014-Aug-24 04:34N 31°59' E 120°19'443265731.2
2014-Aug-24 04:33N 39°04' E 117°48'31556.5
2014-Aug-24 04:33N 39°05' E 117°44'445534112.2
2014-Aug-24 04:33N 32°02' E 120°33'655786583.2
2014-Aug-24 04:33N 23°04' E 113°30'21612.1
2014-Aug-24 04:33N 23°03' E 113°31'638208712.2
2014-Aug-24 04:33N 31°59' E 119°60'43892807.8
2014-Aug-24 04:33N 39°04' E 117°49'569120540.7
2014-Aug-24 04:32N 30°22' E 122°26'847765.4
2014-Aug-24 04:32N 31°28' E 121°25'8375033.2
2014-Aug-24 04:32N 30°27' E 122°30'1488327.2
2014-Aug-24 04:31N 31°56' E 120°12'28427.9
2014-Aug-24 04:27N 32°02' E 120°45'447504.9
2014-Aug-24 03:34N 39°05' E 117°46'43219.6
2014-Aug-24 03:33N 39°04' E 117°50'4881758384.1
2014-Aug-24 03:33N 31°28' E 121°25'489880971.2
2014-Aug-24 03:33N 39°04' E 117°47'9851182257.5
2014-Aug-24 03:33N 23°04' E 113°30'657591323.4
2014-Aug-24 03:33N 32°00' E 120°38'52216.2
2014-Aug-24 03:33N 32°02' E 120°43'1712109.2
2014-Aug-24 03:33N 32°00' E 120°23'10115.5
2014-Aug-24 03:28N 31°56' E 120°12'1481044.3
2014-Aug-24 03:19N 30°22' E 122°25'994.0
2014-Aug-24 03:13N 30°30' E 122°29'6975072.2
2014-Aug-24 03:05N 22°12' E 113°24'10381970.9
2014-Aug-24 02:33N 39°05' E 117°52'9861183754.3
2014-Aug-24 02:33N 23°04' E 113°30'9863549899.9
2014-Aug-24 02:33N 39°04' E 117°51'441396957.3
2014-Aug-24 02:33N 32°02' E 120°27'441198287.8
2014-Aug-24 02:33N 39°04' E 117°50'9873552293.7
2014-Aug-24 02:33N 23°03' E 113°31'649122925.4
2014-Aug-24 02:33N 31°60' E 120°21'14421543.3
2014-Aug-24 02:32N 30°29' E 122°31'8273703.3
2014-Aug-24 02:32N 31°28' E 121°25'8530456.7
2014-Aug-24 02:32N 30°22' E 122°26'148133205.7
2014-Aug-24 02:32N 31°56' E 120°12'68637977.0
2014-Aug-24 02:31N 22°16' E 113°21'10347170.6
2014-Aug-24 02:22N 39°04' E 117°51'5693872.0
2014-Aug-24 02:14N 30°22' E 122°28'572854.0
2014-Aug-24 01:33N 39°05' E 117°46'573171992.7
2014-Aug-24 01:33N 30°21' E 122°28'6512343944.6
2014-Aug-24 01:33N 23°01' E 113°31'988508103.8
2014-Aug-24 01:33N 39°04' E 117°49'985506772.1
2014-Aug-24 01:33N 23°04' E 113°29'656262246.8
2014-Aug-24 01:33N 32°02' E 120°32'14023955.1
2014-Aug-24 01:33N 30°25' E 122°30'852437.8
2014-Aug-24 01:30N 31°28' E 121°25'6734163.4
2014-Aug-24 01:21N 22°28' E 113°54'67567452.1
2014-Aug-24 01:20N 31°28' E 121°28'70628.8
2014-Aug-24 01:13N 31°56' E 120°12'27377.3
2014-Aug-24 01:09N 32°02' E 120°43'137230.8
2014-Aug-24 00:34N 30°22' E 122°32'14083786.9
2014-Aug-24 00:33N 32°01' E 120°37'657788382.1
2014-Aug-24 00:33N 23°04' E 113°29'1113266.8
2014-Aug-24 00:33N 22°53' E 113°31'64916943.1
2014-Aug-24 00:31N 31°56' E 120°12'66114007.3
2014-Aug-24 00:28N 22°27' E 113°53'6767414.3
2014-Aug-24 00:23N 31°26' E 121°30'210.2
2014-Aug-24 00:09N 31°24' E 121°32'6581096.9
2014-Aug-23 23:33N 23°04' E 113°29'62480.2
2014-Aug-23 23:33N 22°59' E 113°30'64522321.6
2014-Aug-23 23:31N 31°56' E 120°12'6539438.8
2014-Aug-23 23:27N 22°54' E 113°22'6708801.3
2014-Aug-23 23:22N 32°00' E 120°39'658804.6
2014-Aug-23 22:33N 23°04' E 113°29'662198451.2
2014-Aug-23 22:33N 32°02' E 120°43'67846034.5
2014-Aug-23 22:32N 22°54' E 113°14'173867.6
2014-Aug-23 22:32N 23°04' E 113°29'63210532.6
2014-Aug-23 22:28N 29°51' E 122°30'1723578.2
2014-Aug-23 22:26N 31°56' E 120°12'5612588.1
2014-Aug-23 22:13N 23°08' E 116°40'176269.4
2014-Aug-23 21:33N 23°04' E 113°29'174125490.5
2014-Aug-23 21:33N 23°09' E 116°39'1749230.0
2014-Aug-23 21:32N 23°04' E 113°29'66120352.9
2014-Aug-23 21:30N 32°02' E 120°43'16116130.7
2014-Aug-23 21:30N 29°47' E 122°26'1622335.5
2014-Aug-23 21:25N 32°00' E 120°39'658758.0
2014-Aug-23 20:33N 23°04' E 113°29'662264601.6
2014-Aug-23 20:33N 32°02' E 120°43'66133539.3
2014-Aug-23 20:32N 23°04' E 113°29'18595.1
2014-Aug-23 20:30N 22°54' E 113°13'64566393.3
2014-Aug-23 20:30N 29°47' E 122°26'1628078.5
2014-Aug-23 20:28N 32°00' E 120°39'8155.2
2014-Aug-23 20:26N 32°01' E 120°48'4 4.9
2014-Aug-23 19:33N 32°01' E 120°43'6601188784.9
2014-Aug-23 19:33N 23°04' E 113°29'6623545.1
2014-Aug-23 19:22N 31°57' E 120°52'67959581.9
2014-Aug-23 19:22N 22°54' E 113°13'18691.1
2014-Aug-23 19:20N 23°04' E 113°29'6698168.6
2014-Aug-23 19:15N 30°05' E 123°11'60338.4
2014-Aug-23 03:33N 39°05' E 117°45'52850.6
2014-Aug-23 03:33N 39°05' E 117°51'11097.0
2014-Aug-23 03:33N 39°05' E 117°51'49655788.1
2014-Aug-23 03:33N 31°21' E 121°27'7224.5
2014-Aug-23 03:31N 31°28' E 121°25'968205018.7
2014-Aug-23 03:31N 19°42' E 109°10'94517631.1
2014-Aug-23 03:27N 31°56' E 120°12'881.7
2014-Aug-23 03:21N 31°60' E 120°21'721761.7
2014-Aug-23 03:19N 31°21' E 121°32'59491.2
2014-Aug-23 03:12N 32°02' E 120°43'445696.3
2014-Aug-23 02:33N 39°05' E 117°51'1627.7
2014-Aug-23 02:33N 39°04' E 117°49'49674386.0
2014-Aug-23 02:33N 31°21' E 121°27'98176538.2
2014-Aug-23 02:33N 29°59' E 122°30'16473643.0
2014-Aug-23 02:33N 32°00' E 120°21'17425025.8
2014-Aug-23 02:32N 29°47' E 122°31'63676271.8
2014-Aug-23 02:32N 22°51' E 113°34'6505400.2
2014-Aug-23 02:25N 31°56' E 120°12'173775.4
2014-Aug-23 02:11N 29°46' E 122°25'1623933.1
2014-Aug-23 02:09N 32°02' E 120°43'445752.7
2014-Aug-23 01:33N 39°04' E 117°48'2677.7
2014-Aug-23 01:33N 39°03' E 117°51'602216760.3
2014-Aug-23 01:33N 29°47' E 122°31'10939262.9
2014-Aug-23 01:33N 31°21' E 121°27'49889709.3
2014-Aug-23 01:32N 39°05' E 117°44'444228253.9
2014-Aug-23 01:32N 32°00' E 120°21'65724147.8
2014-Aug-23 01:31N 22°55' E 113°28'6338731.9
2014-Aug-23 01:26N 29°42' E 122°28'31007.2
2014-Aug-23 01:26N 29°42' E 122°24'6271128967.3
2014-Aug-23 01:26N 23°03' E 113°25'6604491.1
2014-Aug-23 01:17N 31°21' E 121°31'494676.1
2014-Aug-23 00:33N 39°02' E 117°52'49332899.7
2014-Aug-23 00:33N 31°22' E 121°28'73774.4
2014-Aug-23 00:27N 31°56' E 120°12'2719320.5
2014-Aug-23 00:27N 32°02' E 120°43'6658002.3
2014-Aug-23 00:22N 23°03' E 113°25'96851.2
2014-Aug-23 00:15N 24°38' E 113°39'578138619.1
2014-Aug-23 00:15N 31°21' E 121°27'6889042.1
2014-Aug-23 00:10N 22°17' E 113°35'10301679.9
2014-Aug-22 23:33N 39°04' E 117°47'44439008.3
2014-Aug-22 23:33N 31°56' E 120°12'64134966.2
2014-Aug-22 23:32N 23°05' E 113°28'62026591.7
2014-Aug-22 23:30N 29°39' E 122°23'1131949.0
2014-Aug-22 23:27N 31°21' E 121°27'69111839.6
2014-Aug-22 23:23N 22°14' E 113°36'511467.0
2014-Aug-22 23:21N 23°04' E 113°29'65814714.6
2014-Aug-22 23:19N 31°28' E 121°25'63596.1
2014-Aug-22 23:12N 32°00' E 120°21'17311143.7
2014-Aug-22 23:11N 29°47' E 122°30'109169.7
2014-Aug-22 22:33N 31°21' E 121°27'10911542.4
2014-Aug-22 22:32N 29°44' E 122°25'1742296.2
2014-Aug-22 22:28N 31°56' E 120°12'64122188.2
2014-Aug-22 22:26N 23°04' E 113°29'6497861.0
2014-Aug-22 22:21N 32°00' E 120°21'175220.2
2014-Aug-22 21:33N 29°48' E 122°34'11010974.6
2014-Aug-22 21:33N 31°21' E 121°27'1109629.7
2014-Aug-22 21:32N 29°47' E 122°31'6157.0
2014-Aug-22 21:30N 29°42' E 122°26'1685096.4
2014-Aug-22 21:28N 32°00' E 120°33'19122.9
2014-Aug-22 21:19N 31°56' E 120°12'17711818.0
2014-Aug-22 21:18N 29°40' E 122°25'1762002.5
2014-Aug-22 21:13N 32°00' E 120°21'6599765.5
2014-Aug-22 21:08N 22°46' E 113°39'6641131.4
2014-Aug-22 20:33N 32°02' E 120°28'648005.4
2014-Aug-22 20:33N 31°21' E 121°27'732046.5
2014-Aug-22 20:31N 31°56' E 120°12'83327.2
2014-Aug-22 20:30N 32°00' E 120°21'707632.2
2014-Aug-22 20:30N 31°24' E 121°31'6872.1
2014-Aug-22 19:33N 31°60' E 120°23'676864.1
2014-Aug-22 19:33N 31°21' E 121°27'693685.9
2014-Aug-22 19:32N 32°00' E 120°21'17614723.0
2014-Aug-22 19:31N 29°47' E 122°35'1786098.0
2014-Aug-22 19:29N 31°56' E 120°12'5649180.8
2014-Aug-22 19:25N 22°40' E 118°26'2751426.3
2014-Aug-22 19:14N 23°04' E 113°29'14436.0
2014-Aug-22 19:12N 22°51' E 113°34'6541008.9
2014-Aug-22 18:33N 31°58' E 120°19'35228.5
2014-Aug-22 18:33N 32°00' E 120°21'69655.0
2014-Aug-22 18:27N 31°21' E 121°27'73447.8
2014-Aug-22 18:17N 31°56' E 120°12'0 0.0
2014-Aug-22 17:32N 31°56' E 120°12'8282.4
2014-Aug-22 17:30N 32°00' E 120°21'64814771.2
2014-Aug-22 17:28N 23°04' E 113°30'65450107.6
2014-Aug-22 17:27N 31°21' E 121°27'109785.5
2014-Aug-22 17:18N 29°45' E 122°28'6335876.1
2014-Aug-22 17:12N 22°51' E 113°34'6621013.8
2014-Aug-22 16:33N 31°21' E 121°27'692147.4
2014-Aug-22 16:31N 32°00' E 120°21'8245.5
2014-Aug-22 16:29N 31°56' E 120°12'6419010.7
2014-Aug-22 16:25N 23°04' E 113°30'6272258586.1
2014-Aug-22 16:25N 29°45' E 122°28'1731962.0
2014-Aug-22 16:19N 31°60' E 120°22'4 4.9
2014-Aug-22 15:33N 32°02' E 120°26'666104.9
2014-Aug-22 15:33N 31°21' E 121°27'1115455.7
2014-Aug-22 15:32N 29°47' E 122°35'1761444.1
2014-Aug-22 15:24N 32°00' E 120°21'858.0
2014-Aug-22 15:16N 31°56' E 120°12'65010537.0
2014-Aug-22 15:12N 22°51' E 113°34'6336887.8
2014-Aug-22 15:06N 29°45' E 122°28'109194.8
2014-Aug-22 14:33N 31°21' E 121°27'1092913.9
2014-Aug-22 14:30N 29°45' E 122°28'17339002.0
2014-Aug-22 14:30N 32°00' E 120°21'8193.2
2014-Aug-22 14:28N 31°56' E 120°12'271857.7
2014-Aug-22 14:27N 32°02' E 120°43'6994458.7
2014-Aug-22 14:17N 22°17' E 113°35'5 7.1
2014-Aug-22 13:33N 22°15' E 113°40'814172304.5
2014-Aug-22 13:33N 34°50' E 119°24'23333572.3
2014-Aug-22 13:33N 31°21' E 121°27'66119626.3
2014-Aug-22 13:33N 32°01' E 120°25'1679.7
2014-Aug-22 13:21N 32°02' E 120°43'27754.7
2014-Aug-22 13:19N 31°56' E 120°12'677897.8
2014-Aug-22 12:33N 22°11' E 113°49'5729433.6
2014-Aug-22 12:33N 23°02' E 113°22'66034916.1
2014-Aug-22 12:32N 32°02' E 120°28'658654.6
2014-Aug-22 12:32N 31°21' E 121°27'23393045.8
2014-Aug-22 12:32N 34°50' E 119°24'17811888.8
2014-Aug-22 12:31N 31°56' E 120°12'271894.3
2014-Aug-22 12:30N 32°02' E 120°43'6702707.3
2014-Aug-22 12:15N 22°51' E 113°34'9971443.0
2014-Aug-22 11:33N 39°04' E 117°46'985295509.4
2014-Aug-22 11:33N 23°05' E 113°28'63995890.3
2014-Aug-22 11:33N 32°03' E 119°57'312527.9
2014-Aug-22 11:32N 32°01' E 120°34'17837695.8
2014-Aug-22 11:32N 34°50' E 119°24'23283686.6
2014-Aug-22 11:32N 31°21' E 121°27'734157.8
2014-Aug-22 11:31N 31°56' E 120°12'271894.3
2014-Aug-22 11:30N 32°02' E 120°43'1644793.9
2014-Aug-22 11:28N 29°45' E 122°28'604667.8
2014-Aug-22 10:33N 39°05' E 117°51'26617428.9
2014-Aug-22 10:33N 34°50' E 119°27'772277817.4
2014-Aug-22 10:32N 23°04' E 113°29'64122400.1
2014-Aug-22 10:31N 31°56' E 120°12'46550736.4
2014-Aug-22 10:30N 24°25' E 118°04'4788610.3
2014-Aug-22 10:27N 32°02' E 120°43'56470.0
2014-Aug-22 10:20N 31°21' E 121°27'495643.3
2014-Aug-22 09:33N 39°04' E 117°51'88425659.7
2014-Aug-22 09:31N 24°20' E 118°10'47871743.7
2014-Aug-22 09:31N 32°02' E 120°33'65660519.7
2014-Aug-22 09:30N 23°04' E 113°30'77024984.2
2014-Aug-22 09:29N 34°50' E 119°23'17812833.0
2014-Aug-22 09:28N 31°56' E 120°12'27411.1
2014-Aug-22 09:24N 32°02' E 120°43'562988.4
2014-Aug-22 09:23N 31°21' E 121°27'6542271.8
2014-Aug-22 09:05N 23°04' E 113°29'6541078.7
2014-Aug-22 08:29N 31°21' E 121°27'65432271.9
2014-Aug-22 08:28N 23°04' E 113°29'641288398.9
2014-Aug-22 08:28N 31°56' E 120°12'27235.1
2014-Aug-22 08:21N 32°02' E 120°43'49110904.3
2014-Aug-22 08:18N 24°12' E 118°04'6 8.1
2014-Aug-22 07:33N 24°07' E 118°00'4716843.6
2014-Aug-22 07:29N 31°21' E 121°27'654130842.1
2014-Aug-22 07:29N 23°04' E 113°30'14118.8
2014-Aug-22 07:22N 22°51' E 113°34'6638380.3
2014-Aug-22 07:17N 32°01' E 120°31'17132.2
2014-Aug-22 07:09N 31°56' E 120°12'641177440.7
2014-Aug-22 07:09N 23°04' E 113°30'251417.4
2014-Aug-22 06:33N 24°00' E 117°57'4797157.9
2014-Aug-22 06:29N 31°21' E 121°27'654130842.1
2014-Aug-22 06:29N 23°04' E 113°30'65135531.4
2014-Aug-22 06:28N 32°01' E 120°25'4446742.2
2014-Aug-22 06:24N 39°05' E 117°44'44767095.3
2014-Aug-22 06:23N 32°02' E 120°43'67086155.2
2014-Aug-22 06:23N 22°51' E 113°34'9981215.0
2014-Aug-22 05:34N 39°04' E 117°50'4447715.6
2014-Aug-22 05:30N 31°56' E 120°12'734092.9
2014-Aug-22 05:29N 31°21' E 121°27'65412266.4
2014-Aug-22 05:26N 23°04' E 113°30'645331946.9
2014-Aug-22 05:26N 31°58' E 120°19'5026502.0
2014-Aug-22 05:21N 23°53' E 117°51'24522042.7
2014-Aug-22 05:20N 23°04' E 113°30'661340095.3
2014-Aug-22 05:20N 32°02' E 120°43'445568.8
2014-Aug-22 04:33N 39°05' E 117°51'98669621.1
2014-Aug-22 04:32N 23°04' E 113°30'65411268.4
2014-Aug-22 04:29N 31°21' E 121°27'654123955.6
2014-Aug-22 04:29N 23°04' E 113°30'9859190.9
2014-Aug-22 04:22N 39°04' E 117°49'91747826.9
2014-Aug-22 04:21N 23°48' E 117°46'4262293.7
2014-Aug-22 04:10N 29°36' E 122°21'6121001.7
2014-Aug-22 03:33N 39°05' E 117°45'92147385.9
2014-Aug-22 03:32N 23°43' E 117°42'2365437.4
2014-Aug-22 03:30N 23°04' E 113°29'65475999.5
2014-Aug-22 03:29N 31°21' E 121°27'73821.1
2014-Aug-22 03:24N 31°56' E 120°12'69342.7
2014-Aug-22 03:12N 31°28' E 121°27'5111391.7
2014-Aug-22 03:11N 32°02' E 120°43'10156.4
2014-Aug-22 03:08N 32°01' E 120°32'525915.5
2014-Aug-22 02:33N 23°39' E 117°36'51666316.6
2014-Aug-22 02:33N 31°56' E 120°12'010.8
2014-Aug-22 02:32N 31°56' E 120°12'171923.2
2014-Aug-22 02:32N 32°01' E 120°32'65519314.3
2014-Aug-22 02:30N 23°04' E 113°29'65478537.5
2014-Aug-22 02:29N 31°21' E 121°27'0 0.6
2014-Aug-22 02:24N 31°21' E 121°27'5222.0
2014-Aug-22 02:23N 31°25' E 121°31'6594344.1
2014-Aug-22 02:14N 23°04' E 113°30'657979.1
2014-Aug-22 01:33N 31°23' E 121°30'2135.7
2014-Aug-22 01:32N 31°21' E 121°27'0 0.8
2014-Aug-22 01:29N 31°21' E 121°27'65416592.4
2014-Aug-22 01:27N 23°04' E 113°29'63922553.5
2014-Aug-22 01:25N 31°56' E 120°08'301096.4
2014-Aug-22 01:23N 32°02' E 120°43'6612210.8
2014-Aug-22 01:05N 23°04' E 113°30'6611200.7
2014-Aug-22 00:32N 32°02' E 120°43'10810.9
2014-Aug-22 00:32N 32°01' E 120°32'625678.1
2014-Aug-22 00:31N 31°21' E 121°27'6628792.5
2014-Aug-22 00:26N 22°51' E 113°34'64618910.0
2014-Aug-22 00:24N 31°59' E 119°60'152.8
2014-Aug-22 00:23N 31°59' E 120°01'63810436.7
2014-Aug-22 00:19N 23°04' E 113°29'010.1
2014-Aug-22 00:18N 23°04' E 113°29'641121449.4
2014-Aug-22 00:17N 31°56' E 120°12'7323814.0
2014-Aug-22 00:17N 31°21' E 121°27'0 0.1
2014-Aug-21 23:32N 31°21' E 121°27'5615390.6
2014-Aug-21 23:32N 32°02' E 120°43'27503.1
2014-Aug-21 23:29N 31°56' E 120°12'64139785.7
2014-Aug-21 23:28N 23°04' E 113°29'65515301.0
2014-Aug-21 23:26N 32°01' E 120°32'621467.4
2014-Aug-21 23:23N 31°21' E 121°27'0 0.1
2014-Aug-21 22:33N 31°21' E 121°27'734364.3
2014-Aug-21 22:32N 31°56' E 120°12'64146151.4
2014-Aug-21 22:31N 23°04' E 113°29'65418848.1
2014-Aug-21 22:29N 31°21' E 121°27'627385.2
2014-Aug-21 22:29N 32°01' E 120°32'10258.3
2014-Aug-21 22:26N 32°02' E 120°43'6623378.1
2014-Aug-21 22:15N 23°04' E 113°29'640115280.1
2014-Aug-21 22:14N 31°57' E 120°10'2 3.2
2014-Aug-21 21:33N 31°56' E 120°12'733967.6
2014-Aug-21 21:32N 31°21' E 121°27'7216312.4
2014-Aug-21 21:31N 31°57' E 120°13'642231031.3
2014-Aug-21 21:31N 23°04' E 113°29'65418847.9
2014-Aug-21 21:29N 31°21' E 121°27'627147.8
2014-Aug-21 21:28N 32°01' E 120°32'10110.7
2014-Aug-21 21:23N 32°02' E 120°43'2226.8
2014-Aug-21 20:33N 31°58' E 120°17'708974.7
2014-Aug-21 20:33N 31°21' E 121°27'65422020.0
2014-Aug-21 20:31N 23°04' E 113°29'66221455.2
2014-Aug-21 20:29N 32°02' E 120°43'5615401.6
2014-Aug-21 20:29N 31°21' E 121°27'54911758.5
2014-Aug-21 20:26N 23°11' E 116°51'56544206.3
2014-Aug-21 20:25N 32°01' E 120°32'17212.7
2014-Aug-21 20:21N 31°56' E 120°12'1418.4
2014-Aug-21 19:33N 32°02' E 120°28'6513749.7
2014-Aug-21 19:33N 31°21' E 121°27'685182.7
2014-Aug-21 19:32N 31°60' E 120°22'186528.1
2014-Aug-21 19:32N 32°02' E 120°43'27623.2
2014-Aug-21 19:30N 31°56' E 120°12'64124548.6
2014-Aug-21 19:28N 23°04' E 113°29'0 9.9
2014-Aug-21 19:26N 23°04' E 113°29'141422.4
2014-Aug-21 19:26N 22°51' E 113°34'6624480.5
2014-Aug-21 19:17N 31°21' E 121°27'4642064.5
2014-Aug-21 19:04N 24°11' E 118°13'486969.6
2014-Aug-21 18:33N 32°02' E 120°27'665493.8
2014-Aug-21 18:33N 31°21' E 121°27'672868.4
2014-Aug-21 18:31N 31°60' E 120°23'671734.2
2014-Aug-21 18:29N 31°21' E 121°27'65440620.2
2014-Aug-21 18:28N 23°04' E 113°29'66221455.1
2014-Aug-21 18:26N 32°02' E 120°43'670120628.2
2014-Aug-21 18:26N 22°51' E 113°34'1472.6
2014-Aug-21 18:14N 23°04' E 113°29'6414337.6
2014-Aug-21 18:06N 31°56' E 120°12'510.1
2014-Aug-21 17:33N 31°57' E 120°18'132525.1
2014-Aug-21 17:33N 32°02' E 120°33'6227689.3
2014-Aug-21 17:33N 31°21' E 121°27'7314548.4
2014-Aug-21 17:33N 31°56' E 120°12'27473.5
2014-Aug-21 17:29N 32°02' E 120°43'5618201.8
2014-Aug-21 17:29N 31°21' E 121°27'65439931.5
2014-Aug-21 17:28N 23°04' E 113°29'14377.3
2014-Aug-21 17:26N 22°51' E 113°34'1498.5
2014-Aug-21 17:17N 23°04' E 113°29'2702936.6
2014-Aug-21 17:12N 24°12' E 118°14'46214996.0
2014-Aug-21 17:10N 31°19' E 121°34'235383.6
2014-Aug-21 16:33N 34°50' E 119°27'23148952.8
2014-Aug-21 16:33N 31°21' E 121°27'505302920.1
2014-Aug-21 16:33N 23°41' E 117°33'514462829.3
2014-Aug-21 16:33N 31°56' E 120°14'226096.6
2014-Aug-21 16:33N 32°00' E 120°39'624361.7
2014-Aug-21 16:32N 31°19' E 121°34'65654955.5
2014-Aug-21 16:31N 23°04' E 113°29'65419469.9
2014-Aug-21 16:29N 31°21' E 121°27'6543394.7
2014-Aug-21 16:17N 23°04' E 113°29'3131736.9
2014-Aug-21 16:07N 19°44' E 109°11'5721018.9
2014-Aug-21 15:33N 24°21' E 118°11'6321137615.7
2014-Aug-21 15:33N 34°50' E 119°25'18014712.6
2014-Aug-21 15:32N 32°02' E 120°43'6131239.6
2014-Aug-21 15:32N 31°19' E 121°34'65094.3
2014-Aug-21 15:32N 31°21' E 121°27'65454794.4
2014-Aug-21 15:31N 23°04' E 113°29'64153664.4
2014-Aug-21 15:31N 31°56' E 120°12'946109871.5
2014-Aug-21 15:30N 19°43' E 109°08'943178766.3
2014-Aug-21 15:30N 31°56' E 120°07'776410.9
2014-Aug-21 15:29N 31°21' E 121°27'65415199.7
2014-Aug-21 15:26N 23°04' E 113°29'6424350.5
2014-Aug-21 15:18N 31°57' E 120°13'6509959.8
2014-Aug-21 15:14N 22°53' E 113°31'7811154.6
2014-Aug-21 14:33N 34°50' E 119°24'237284064.8
2014-Aug-21 14:33N 31°19' E 121°34'6251.5
2014-Aug-21 14:32N 31°21' E 121°27'65417324.2
2014-Aug-21 14:29N 23°04' E 113°29'661158756.8
2014-Aug-21 14:29N 32°02' E 120°43'5620017.3
2014-Aug-21 14:29N 31°21' E 121°27'701705.3
2014-Aug-21 14:27N 31°57' E 120°17'4128.0
2014-Aug-21 14:25N 31°56' E 120°12'6416806.9
2014-Aug-21 14:19N 23°04' E 113°29'63746818.9
2014-Aug-21 14:18N 31°59' E 119°59'311.7
2014-Aug-21 14:05N 31°58' E 120°02'173326.6
2014-Aug-21 13:33N 34°49' E 119°28'235845408.4
2014-Aug-21 13:33N 31°19' E 121°34'63392.1
2014-Aug-21 13:33N 31°21' E 121°27'65417198.1
2014-Aug-21 13:31N 23°04' E 113°29'010.3
2014-Aug-21 13:30N 23°04' E 113°29'65484146.2
2014-Aug-21 13:29N 31°21' E 121°27'73984.9
2014-Aug-21 13:25N 31°56' E 120°12'6143.6
2014-Aug-21 13:22N 31°58' E 120°05'32139.1
2014-Aug-21 13:08N 32°02' E 120°43'5695.4
2014-Aug-21 12:33N 31°21' E 121°27'56819.9
2014-Aug-21 12:29N 32°02' E 120°43'271006.1
2014-Aug-21 12:28N 31°56' E 120°12'240.7
2014-Aug-21 12:24N 31°56' E 120°09'64561133.0
2014-Aug-21 12:23N 23°03' E 113°20'661108097.8
2014-Aug-21 12:23N 31°21' E 121°27'6547033.1
2014-Aug-21 12:17N 23°04' E 113°29'0 1.2
2014-Aug-21 12:04N 23°04' E 113°29'4 7.1
2014-Aug-21 11:33N 23°04' E 113°25'643178070.6
2014-Aug-21 11:33N 31°56' E 120°12'56753733.0
2014-Aug-21 11:33N 22°29' E 120°07'537107483.8
2014-Aug-21 11:32N 31°21' E 121°27'0 1.1
2014-Aug-21 11:29N 31°21' E 121°27'65439267.2
2014-Aug-21 11:28N 23°04' E 113°29'66221455.4
2014-Aug-21 11:26N 32°02' E 120°43'6623382.7
2014-Aug-21 11:14N 23°04' E 113°29'0 0.2
2014-Aug-21 10:33N 23°04' E 113°29'641104888.0
2014-Aug-21 10:33N 31°56' E 120°12'565203293.2
2014-Aug-21 10:33N 22°31' E 120°14'57150179.5
2014-Aug-21 10:32N 32°02' E 120°43'5666692.4
2014-Aug-21 10:32N 31°21' E 121°27'65435698.2
2014-Aug-21 10:31N 23°04' E 113°29'65419633.0
2014-Aug-21 10:29N 31°21' E 121°27'65415200.5
2014-Aug-21 10:26N 23°04' E 113°29'0 0.1
2014-Aug-21 09:33N 23°04' E 113°29'65573633.1
2014-Aug-21 09:33N 31°21' E 121°27'65422875.1
2014-Aug-21 09:31N 23°04' E 113°29'64192302.8
2014-Aug-21 09:31N 31°56' E 120°12'732786.6
2014-Aug-21 09:29N 31°21' E 121°27'65415103.3
2014-Aug-21 09:26N 23°04' E 113°29'662140092.0
2014-Aug-21 09:26N 32°02' E 120°43'2098.6
2014-Aug-21 09:14N 31°59' E 120°20'647952.3
2014-Aug-21 08:33N 23°04' E 113°30'65530229.6
2014-Aug-21 08:32N 31°22' E 121°28'65540667.7
2014-Aug-21 08:31N 23°04' E 113°29'64188753.4
2014-Aug-21 08:31N 31°56' E 120°12'73578.2
2014-Aug-21 08:23N 31°21' E 121°27'561157.2
2014-Aug-21 08:20N 32°02' E 120°43'612804.3
2014-Aug-21 08:19N 31°19' E 121°34'6565457.7
2014-Aug-21 08:12N 23°04' E 113°29'63920549.4
2014-Aug-21 08:10N 31°55' E 120°10'6391041.1
2014-Aug-21 07:33N 23°04' E 113°30'65729213.7
2014-Aug-21 07:32N 31°23' E 121°30'65869621.3
2014-Aug-21 07:31N 23°04' E 113°29'64185466.2
2014-Aug-21 07:31N 31°56' E 120°12'732878.4
2014-Aug-21 07:29N 31°21' E 121°27'49810807.9
2014-Aug-21 07:26N 39°05' E 117°44'10086926.4
2014-Aug-21 07:18N 22°39' E 113°41'100833297.4
2014-Aug-21 07:16N 39°05' E 117°44'5023667.2
2014-Aug-21 07:08N 31°19' E 121°34'499879.2
2014-Aug-21 06:33N 39°04' E 117°51'59422.9
2014-Aug-21 06:33N 39°05' E 117°44'985272902.7
2014-Aug-21 06:33N 23°04' E 113°30'65843097.7
2014-Aug-21 06:32N 31°27' E 121°28'95153.9
2014-Aug-21 06:32N 31°19' E 121°34'502150660.3
2014-Aug-21 06:32N 39°05' E 117°44'49810251.9
2014-Aug-21 06:29N 31°21' E 121°27'65438000.6
2014-Aug-21 06:28N 23°04' E 113°29'27238.3
2014-Aug-21 06:21N 22°39' E 113°41'29761.9
2014-Aug-21 06:19N 23°02' E 113°22'10530.5
2014-Aug-21 06:18N 22°54' E 113°28'1926.3
2014-Aug-21 05:33N 22°39' E 113°41'1008362963.9
2014-Aug-21 05:33N 39°05' E 117°47'1722.2
2014-Aug-21 05:33N 39°04' E 117°49'98695890.7
2014-Aug-21 05:33N 23°04' E 113°30'985110866.1
2014-Aug-21 05:32N 39°05' E 117°44'50262341.5
2014-Aug-21 05:32N 31°19' E 121°34'66218912.1
2014-Aug-21 05:29N 23°02' E 113°22'660118792.7
2014-Aug-21 05:29N 31°21' E 121°28'6553907.5
2014-Aug-21 05:19N 23°04' E 113°29'9861294.0
2014-Aug-21 04:33N 39°04' E 117°50'986131448.3
2014-Aug-21 04:33N 23°04' E 113°30'986394214.6
2014-Aug-21 04:33N 39°04' E 117°50'1432.0
2014-Aug-21 04:33N 39°04' E 117°51'445800107.0
2014-Aug-21 04:33N 32°01' E 120°36'66528520.6
2014-Aug-21 04:31N 22°54' E 113°28'513523.1
2014-Aug-21 04:30N 22°09' E 113°53'68633354.3
2014-Aug-21 04:29N 31°22' E 121°28'7337487.8
2014-Aug-21 04:29N 31°56' E 120°12'9583.9
2014-Aug-21 04:28N 31°59' E 120°02'6383202.8
2014-Aug-21 04:16N 23°04' E 113°29'9871391.2
2014-Aug-21 03:34N 39°05' E 117°52'23161.7
2014-Aug-21 03:33N 39°04' E 117°50'986154301.6
2014-Aug-21 03:33N 23°04' E 113°30'6561181190.4
2014-Aug-21 03:33N 31°19' E 121°34'7810851.1
2014-Aug-21 03:33N 31°56' E 120°12'44466551.5
2014-Aug-21 03:32N 39°04' E 117°50'103421266.0
2014-Aug-21 03:29N 22°12' E 113°46'6876886.3
2014-Aug-21 03:23N 31°22' E 121°28'6559698.7
2014-Aug-21 03:19N 23°04' E 113°29'9861288.2
2014-Aug-21 02:33N 39°04' E 117°51'986710026.2
2014-Aug-21 02:33N 23°04' E 113°29'64120066.9
2014-Aug-21 02:31N 31°56' E 120°12'7811755.8
2014-Aug-21 02:31N 31°19' E 121°34'7823491.8
2014-Aug-21 02:31N 31°57' E 120°13'445160317.1
2014-Aug-21 02:31N 39°05' E 117°44'103145270.1
2014-Aug-21 02:29N 22°16' E 113°39'688412673.9
2014-Aug-21 02:29N 31°22' E 121°28'65514639.6
2014-Aug-21 02:26N 23°04' E 113°29'9861117.5
2014-Aug-21 01:34N 39°05' E 117°44'986295654.1
2014-Aug-21 01:33N 23°04' E 113°29'986253517.9
2014-Aug-21 01:33N 39°04' E 117°51'987394993.8
2014-Aug-21 01:33N 23°02' E 113°31'65740093.3
2014-Aug-21 01:32N 31°19' E 121°34'611367.0
2014-Aug-21 01:29N 32°02' E 120°43'5622267.0
2014-Aug-21 01:29N 31°22' E 121°28'73597.7
2014-Aug-21 01:22N 31°56' E 120°12'911.2
2014-Aug-21 00:33N 31°60' E 120°22'649212328.3
2014-Aug-21 00:33N 23°04' E 113°29'986354824.8
2014-Aug-21 00:33N 39°05' E 117°48'995210782.4
2014-Aug-21 00:33N 22°54' E 113°31'66210780.2
2014-Aug-21 00:29N 31°22' E 121°28'73328.4
2014-Aug-21 00:16N 31°56' E 120°12'79398.6
2014-Aug-21 00:04N 31°15' E 121°31'73142.4
2014-Aug-20 23:33N 32°02' E 120°26'652587134.0
2014-Aug-20 23:33N 23°04' E 113°29'64115698.1
2014-Aug-20 23:31N 31°56' E 120°12'786269.8
2014-Aug-20 23:30N 31°19' E 121°34'668171841.8
2014-Aug-20 23:30N 22°54' E 113°22'66758522.9
2014-Aug-20 23:29N 31°22' E 121°28'722.7
2014-Aug-20 23:12N 31°17' E 121°34'6551016.2
2014-Aug-20 22:33N 23°04' E 113°29'655471821.1
2014-Aug-20 22:33N 32°02' E 120°31'691943.7
2014-Aug-20 22:31N 31°19' E 121°34'7818807.2
2014-Aug-20 22:31N 31°56' E 120°12'732650.4
2014-Aug-20 22:29N 31°22' E 121°28'6722916.8
2014-Aug-20 22:15N 22°48' E 113°20'674968.6
2014-Aug-20 21:34N 32°01' E 120°35'656147712.2
2014-Aug-20 21:33N 23°04' E 113°29'65669510.2
2014-Aug-20 21:33N 31°19' E 121°34'782474.7
2014-Aug-20 21:31N 31°56' E 120°12'753962.1
2014-Aug-20 21:30N 31°21' E 121°30'2250.2
2014-Aug-20 21:29N 31°22' E 121°28'74289.9
2014-Aug-20 21:14N 31°55' E 120°10'639943.3
2014-Aug-20 20:33N 23°04' E 113°29'65651377.9
2014-Aug-20 20:32N 31°19' E 121°34'782969.8
2014-Aug-20 20:31N 31°56' E 120°12'2271.8
2014-Aug-20 20:30N 31°55' E 120°10'743704.7
2014-Aug-20 20:29N 31°22' E 121°28'564485.1
2014-Aug-20 20:28N 32°00' E 120°40'658719.6
2014-Aug-20 19:34N 23°04' E 113°29'656295422.8
2014-Aug-20 19:33N 31°19' E 121°34'577.9
2014-Aug-20 19:29N 31°22' E 121°28'562432.2
2014-Aug-20 19:28N 31°60' E 120°39'23472.6
2014-Aug-20 19:25N 31°56' E 120°12'6543258.5
2014-Aug-20 19:13N 22°42' E 113°41'6671016.7
2014-Aug-20 18:33N 31°19' E 121°34'656181798.6
2014-Aug-20 18:33N 23°04' E 113°29'64128490.0
2014-Aug-20 18:32N 31°56' E 120°12'2108.7
2014-Aug-20 18:31N 31°55' E 120°10'201081.7
2014-Aug-20 18:30N 32°01' E 120°33'617811.2
2014-Aug-20 18:29N 31°22' E 121°28'49394.9
2014-Aug-20 18:22N 31°59' E 120°51'6774778.1
2014-Aug-20 18:13N 22°44' E 113°34'2030.3
2014-Aug-20 17:34N 23°04' E 113°29'65398002.5
2014-Aug-20 17:33N 32°02' E 120°27'65987.8
2014-Aug-20 17:29N 31°22' E 121°28'671109875.8
2014-Aug-20 17:29N 22°44' E 113°27'65715069.1
2014-Aug-20 17:26N 31°55' E 120°10'801077.1
2014-Aug-20 17:22N 31°19' E 121°34'781259.5
2014-Aug-20 17:18N 31°56' E 120°12'6506877.6
2014-Aug-20 17:12N 22°54' E 113°30'2112221.2
2014-Aug-20 17:07N 22°57' E 117°19'211382.8
2014-Aug-20 16:33N 23°04' E 113°29'64925111.1
2014-Aug-20 16:32N 31°59' E 120°22'9481.3
2014-Aug-20 16:31N 31°56' E 120°12'56024569.4
2014-Aug-20 16:29N 22°58' E 117°18'55812641.7
2014-Aug-20 16:27N 31°55' E 120°10'741218.0
2014-Aug-20 16:23N 31°22' E 121°28'68913482.1
2014-Aug-20 16:20N 22°17' E 113°35'37256.7
2014-Aug-20 16:12N 22°50' E 113°18'1726.8
2014-Aug-20 15:34N 23°04' E 113°29'64442932.3
2014-Aug-20 15:33N 31°57' E 120°17'64233.3
2014-Aug-20 15:33N 31°55' E 120°10'67627356.7
2014-Aug-20 15:31N 22°16' E 113°37'68821921.4
2014-Aug-20 15:29N 31°22' E 121°28'671104987.0
2014-Aug-20 15:29N 22°54' E 113°15'6576440.2
2014-Aug-20 15:23N 31°56' E 120°12'179614.6
2014-Aug-20 15:05N 34°50' E 119°23'8141509.8
2014-Aug-20 14:33N 22°13' E 113°45'4615070.6
2014-Aug-20 14:33N 22°57' E 113°30'77854917.9
2014-Aug-20 14:32N 34°50' E 119°26'232166796.9
2014-Aug-20 14:32N 31°22' E 121°29'121.9
2014-Aug-20 14:29N 31°22' E 121°28'739048.4
2014-Aug-20 14:29N 31°56' E 120°12'782411.3
2014-Aug-20 14:27N 31°19' E 121°34'82767.3
2014-Aug-20 14:20N 31°57' E 120°09'112.5
2014-Aug-20 14:15N 31°56' E 120°09'2 2.3
2014-Aug-20 13:32N 31°55' E 120°10'8017906.2
2014-Aug-20 13:32N 31°19' E 121°34'6368.5
2014-Aug-20 13:31N 31°24' E 121°31'4145.9
2014-Aug-20 13:29N 31°22' E 121°28'73986.4
2014-Aug-20 13:25N 31°57' E 120°12'111.3
2014-Aug-20 13:22N 31°56' E 120°12'7897.3
2014-Aug-20 12:33N 31°19' E 121°34'768600.4
2014-Aug-20 12:33N 31°57' E 120°15'711935.9
2014-Aug-20 12:31N 31°22' E 121°28'731465.9
2014-Aug-20 12:28N 31°56' E 120°12'69310.4
2014-Aug-20 12:14N 31°28' E 121°26'6593.8
2014-Aug-20 11:33N 31°59' E 120°19'7514953.4
2014-Aug-20 11:33N 31°19' E 121°34'782432.1
2014-Aug-20 11:31N 31°56' E 120°12'27351.2
2014-Aug-20 11:26N 32°02' E 120°43'562178.0
2014-Aug-20 11:25N 31°22' E 121°28'5 6.4
2014-Aug-20 10:33N 31°19' E 121°34'735471.6
2014-Aug-20 10:32N 31°60' E 120°22'682481.4
2014-Aug-20 10:31N 31°22' E 121°28'746.2
2014-Aug-20 10:21N 31°15' E 121°33'802016.0
2014-Aug-20 10:19N 31°56' E 120°12'1331876.1
2014-Aug-20 10:14N 30°44' E 122°24'1351884.1
2014-Aug-20 10:10N 31°55' E 120°10'1423.8
2014-Aug-20 09:34N 32°01' E 120°26'669964.6
2014-Aug-20 09:33N 31°22' E 121°28'53741.4
2014-Aug-20 09:33N 31°19' E 121°34'2416.0
2014-Aug-20 09:33N 31°17' E 121°34'62819.9
2014-Aug-20 09:28N 32°02' E 120°43'2791.6
2014-Aug-20 09:11N 31°56' E 120°12'1625.3
2014-Aug-20 08:33N 32°02' E 120°29'698874.4
2014-Aug-20 08:33N 31°20' E 121°33'1146.5
2014-Aug-20 08:32N 31°19' E 121°34'51614.9
2014-Aug-20 08:32N 31°24' E 121°31'65838212.2
2014-Aug-20 08:31N 23°03' E 113°30'64112612.0
2014-Aug-20 08:28N 31°56' E 120°12'65616874.7
2014-Aug-20 08:26N 22°54' E 113°15'67711338.7
2014-Aug-20 08:22N 32°02' E 120°43'446548.7
2014-Aug-20 07:33N 39°04' E 117°47'5011802785.6
2014-Aug-20 07:33N 31°19' E 121°34'103873.1
2014-Aug-20 07:33N 31°27' E 121°27'5720538.3
2014-Aug-20 07:33N 32°01' E 120°33'638405.7
2014-Aug-20 07:33N 31°21' E 121°31'808951.8
2014-Aug-20 07:32N 31°56' E 120°07'63917959.6
2014-Aug-20 07:30N 23°04' E 113°29'1235.9
2014-Aug-20 07:09N 23°03' E 113°15'9891645.6
2014-Aug-20 06:33N 39°04' E 117°50'445400637.6
2014-Aug-20 06:33N 32°00' E 120°37'632291.1
2014-Aug-20 06:32N 31°19' E 121°34'8852800.9
2014-Aug-20 06:32N 31°58' E 120°01'841772.5
2014-Aug-20 06:29N 31°23' E 121°30'66712001.8
2014-Aug-20 06:25N 23°02' E 113°15'4266.9
2014-Aug-20 06:24N 23°03' E 113°20'3304084.1
2014-Aug-20 06:20N 24°43' E 119°04'8641122.8
2014-Aug-20 05:33N 39°05' E 117°46'501601488.9
2014-Aug-20 05:33N 31°19' E 121°34'6031037.9
2014-Aug-20 05:33N 32°01' E 120°42'271147.3
2014-Aug-20 05:32N 31°55' E 120°10'52018174.6
2014-Aug-20 05:30N 23°38' E 117°17'51817428.5
2014-Aug-20 05:28N 31°25' E 121°31'4255129.5
2014-Aug-20 05:23N 24°41' E 119°01'4473837.8
2014-Aug-20 05:16N 31°60' E 120°39'449626.8
2014-Aug-20 04:33N 39°05' E 117°44'449404452.8
2014-Aug-20 04:33N 32°01' E 120°46'581226.2
2014-Aug-20 04:31N 31°19' E 121°34'652095.3
2014-Aug-20 04:29N 32°00' E 120°34'6909978.7
2014-Aug-20 04:24N 22°09' E 113°55'6899926.1
2014-Aug-20 04:20N 31°29' E 121°25'691103.2
2014-Aug-20 04:17N 31°55' E 120°10'6484138.9
2014-Aug-20 04:07N 22°55' E 113°27'9951758.9
2014-Aug-20 03:33N 39°05' E 117°44'44436319.8
2014-Aug-20 03:33N 32°02' E 120°29'199672.0
2014-Aug-20 03:32N 31°59' E 120°51'67137752.3
2014-Aug-20 03:31N 22°53' E 113°30'453473.6
2014-Aug-20 03:31N 22°11' E 113°48'688225152.6
2014-Aug-20 03:30N 31°19' E 121°34'50814987.5
2014-Aug-20 03:28N 23°39' E 117°31'23816475.7
2014-Aug-20 03:27N 23°03' E 113°15'9827929.0
2014-Aug-20 03:20N 37°26' E 122°16'3577941.6
2014-Aug-20 03:17N 31°32' E 121°20'486662.0
2014-Aug-20 02:33N 39°05' E 117°44'44626326.9
2014-Aug-20 02:32N 31°55' E 120°10'67757987.5
2014-Aug-20 02:32N 22°14' E 113°41'54799.0
2014-Aug-20 02:27N 23°03' E 113°15'6665387.0
2014-Aug-20 02:20N 31°19' E 121°34'6583551.8
2014-Aug-20 02:09N 23°01' E 113°31'6471096.4
2014-Aug-20 01:34N 31°57' E 120°18'44393903.7
2014-Aug-20 01:33N 39°04' E 117°50'49956173.3
2014-Aug-20 01:33N 31°19' E 121°34'631964.3
2014-Aug-20 01:31N 31°60' E 120°37'23158.2
2014-Aug-20 01:22N 31°55' E 120°10'6392140.6
2014-Aug-20 01:04N 23°04' E 113°29'9871928.7
2014-Aug-20 00:33N 39°05' E 117°52'44363827.6
2014-Aug-20 00:33N 32°01' E 120°31'66311314.6
2014-Aug-20 00:29N 23°03' E 113°15'6669744.8
2014-Aug-20 00:25N 31°19' E 121°34'656147693.6
2014-Aug-20 00:25N 23°04' E 113°29'6398017.6
2014-Aug-20 00:20N 31°56' E 120°09'323.9
2014-Aug-20 00:14N 31°56' E 120°12'1217.6
2014-Aug-19 23:33N 32°01' E 120°25'44372507.9
2014-Aug-19 23:33N 39°05' E 117°46'44121187.0
2014-Aug-19 23:32N 31°58' E 120°03'8611.1
2014-Aug-19 23:31N 31°56' E 120°12'64113819.3
2014-Aug-19 23:28N 23°04' E 113°29'65636923.7
2014-Aug-19 23:27N 31°19' E 121°34'7481.2
2014-Aug-19 22:32N 31°58' E 120°19'742635.4
2014-Aug-19 22:31N 31°19' E 121°34'601186.0
2014-Aug-19 22:28N 32°00' E 120°42'65915308.2
2014-Aug-19 22:25N 23°04' E 113°29'6418775.0
2014-Aug-19 22:21N 31°56' E 120°12'6 7.1
2014-Aug-19 21:33N 31°57' E 120°19'14997.0
2014-Aug-19 21:32N 32°00' E 120°35'1481.0
2014-Aug-19 21:32N 31°60' E 120°36'213411.1
2014-Aug-19 21:32N 31°56' E 120°12'64110490.2
2014-Aug-19 21:28N 23°04' E 113°29'111088.4
2014-Aug-19 21:28N 23°03' E 113°18'6644704.4
2014-Aug-19 21:19N 31°19' E 121°34'660870.1
2014-Aug-19 20:34N 23°03' E 113°25'657215117.4
2014-Aug-19 20:33N 32°02' E 120°29'6545511.5
2014-Aug-19 20:26N 23°04' E 113°30'64123305.2
2014-Aug-19 20:25N 31°56' E 120°12'79250.0
2014-Aug-19 20:06N 31°19' E 121°34'72134.6
2014-Aug-19 19:33N 31°60' E 120°23'10903.2
2014-Aug-19 19:33N 31°56' E 120°12'642330204.5
2014-Aug-19 19:33N 23°02' E 113°31'215.3
2014-Aug-19 19:23N 23°04' E 113°30'6452155.0
2014-Aug-19 19:05N 31°57' E 120°19'65161655.9
2014-Aug-19 19:05N 23°03' E 113°19'1629.9
2014-Aug-19 18:33N 22°55' E 113°33'649106234.3
2014-Aug-19 18:33N 31°57' E 120°17'463.2
2014-Aug-19 18:29N 31°56' E 120°12'647387955.3
2014-Aug-19 18:29N 23°02' E 113°21'6502949.1
2014-Aug-19 18:16N 31°57' E 120°19'648915.8
2014-Aug-19 17:33N 23°03' E 113°25'64292518.2
2014-Aug-19 17:33N 31°56' E 120°10'67717669.4
2014-Aug-19 17:31N 22°17' E 113°35'31709.7
2014-Aug-19 17:28N 22°48' E 113°37'655181295.2
2014-Aug-19 17:28N 31°57' E 120°19'64523682.8
2014-Aug-19 17:26N 23°04' E 113°30'64135495.6
2014-Aug-19 17:25N 31°56' E 120°12'79755.9
2014-Aug-19 17:19N 31°19' E 121°34'657866.7
2014-Aug-19 16:33N 23°04' E 113°29'2429162.5
2014-Aug-19 16:33N 22°43' E 113°40'654235410.8
2014-Aug-19 16:33N 31°56' E 120°12'67915869.3
2014-Aug-19 16:31N 22°17' E 113°35'69323772.6
2014-Aug-19 16:29N 31°27' E 121°28'65914725.6
2014-Aug-19 16:26N 23°04' E 113°30'6451793.6
2014-Aug-19 16:05N 31°57' E 120°19'134251.8
2014-Aug-19 15:33N 30°28' E 122°16'646155134.7
2014-Aug-19 15:32N 23°02' E 113°31'487466.2
2014-Aug-19 15:32N 22°15' E 113°41'67814967.2
2014-Aug-19 15:29N 31°56' E 120°12'271429.7
2014-Aug-19 15:28N 32°02' E 120°43'21391.2
2014-Aug-19 15:25N 31°57' E 120°19'64523209.1
2014-Aug-19 15:23N 23°04' E 113°30'6562070.4
2014-Aug-19 15:04N 31°19' E 121°34'6881317.1
2014-Aug-19 14:33N 22°11' E 113°48'68831343.0
2014-Aug-19 14:32N 31°19' E 121°34'747025.2
2014-Aug-19 14:31N 31°57' E 120°19'6458230.2
2014-Aug-19 14:26N 23°04' E 113°30'64111893.0
2014-Aug-19 14:23N 31°56' E 120°12'6 6.8
2014-Aug-19 13:33N 31°57' E 120°19'6457276.3
2014-Aug-19 13:28N 23°04' E 113°30'64147090.5
2014-Aug-19 13:27N 31°56' E 120°12'791349.9
2014-Aug-19 13:24N 31°19' E 121°34'61493.7
2014-Aug-19 13:16N 32°02' E 120°43'662929.6
2014-Aug-19 12:33N 23°02' E 113°32'89801.1
2014-Aug-19 12:33N 22°54' E 113°28'6546208.8
2014-Aug-19 12:27N 31°57' E 120°19'61844.9
2014-Aug-19 12:27N 31°56' E 120°12'79383.1
2014-Aug-19 12:15N 31°19' E 121°34'65610597.2
2014-Aug-19 12:11N 23°04' E 113°29'6441029.2
2014-Aug-19 11:33N 31°57' E 120°16'2310.4
2014-Aug-19 11:33N 31°57' E 120°19'7413348.5
2014-Aug-19 11:33N 31°19' E 121°34'65654957.3
2014-Aug-19 11:32N 23°04' E 113°29'6414280.0
2014-Aug-19 11:23N 31°56' E 120°13'7894.6
2014-Aug-19 10:33N 31°19' E 121°34'7318890.2
2014-Aug-19 10:33N 31°60' E 120°22'650259800.3
2014-Aug-19 10:33N 23°02' E 113°31'3161.3
2014-Aug-19 10:32N 23°04' E 113°29'6457790.6
2014-Aug-19 10:27N 31°57' E 120°19'1615688.4
2014-Aug-19 10:25N 29°54' E 122°20'16631371.0
2014-Aug-19 10:25N 31°56' E 120°09'8194.0
2014-Aug-19 09:33N 31°19' E 121°34'9121732.2
2014-Aug-19 09:33N 29°57' E 122°16'15326263.2
2014-Aug-19 09:33N 32°01' E 120°32'20492.2
2014-Aug-19 09:30N 31°56' E 120°09'64144350.0
2014-Aug-19 09:30N 23°01' E 113°31'63913606.4
2014-Aug-19 09:27N 31°58' E 120°00'64210141.6
2014-Aug-19 09:23N 23°02' E 113°22'73224.2
2014-Aug-19 09:23N 23°04' E 113°29'98539419.9
2014-Aug-19 09:21N 39°05' E 117°44'4421668.3
2014-Aug-19 09:05N 31°58' E 120°03'2648.2
2014-Aug-19 08:33N 32°02' E 120°33'131026.5
2014-Aug-19 08:32N 31°57' E 120°19'894.3
2014-Aug-19 08:27N 31°56' E 120°09'301085.2
2014-Aug-19 08:25N 32°02' E 120°43'16225.2
2014-Aug-19 08:21N 32°00' E 120°24'1564914.9
2014-Aug-19 08:19N 29°57' E 122°15'6596192.5
2014-Aug-19 08:13N 22°13' E 113°35'103517994.6
2014-Aug-19 08:09N 39°05' E 117°44'4 6.8
2014-Aug-19 07:34N 39°04' E 117°49'444199911.4
2014-Aug-19 07:33N 31°57' E 120°19'444532839.7
2014-Aug-19 07:33N 39°04' E 117°50'989889666.2
2014-Aug-19 07:33N 23°01' E 113°31'659263747.8
2014-Aug-19 07:33N 32°00' E 120°39'172321.0
2014-Aug-19 07:33N 31°58' E 120°19'21170.7
2014-Aug-19 07:25N 32°02' E 120°43'3015307.4
2014-Aug-19 07:25N 31°57' E 120°09'64056154.5
2014-Aug-19 07:24N 23°04' E 113°30'63933333.6
2014-Aug-19 07:23N 31°56' E 120°09'6393764.4
2014-Aug-19 07:13N 23°04' E 113°29'9861495.5
2014-Aug-19 06:33N 39°04' E 117°51'44359126.1
2014-Aug-19 06:33N 31°56' E 120°12'6273.2
2014-Aug-19 06:32N 31°57' E 120°19'231553.2
2014-Aug-19 06:31N 32°01' E 120°46'66341903.0
2014-Aug-19 06:30N 23°01' E 113°31'64182431.3
2014-Aug-19 06:29N 31°55' E 120°10'6397597.2
2014-Aug-19 06:24N 23°04' E 113°30'131246.5
2014-Aug-19 06:24N 22°51' E 113°34'67025653.6
2014-Aug-19 06:22N 32°02' E 120°43'4474436.0
2014-Aug-19 06:16N 39°05' E 117°44'9859719.8
2014-Aug-19 06:10N 23°04' E 113°29'6451052.9
2014-Aug-19 05:33N 31°57' E 120°19'4461606486.2
2014-Aug-19 05:33N 39°05' E 117°44'446267425.5
2014-Aug-19 05:33N 31°56' E 120°11'444799277.3
2014-Aug-19 05:33N 39°04' E 117°47'98818329.2
2014-Aug-19 05:30N 23°01' E 113°31'340.7
2014-Aug-19 05:25N 23°04' E 113°29'032.7
2014-Aug-19 05:24N 23°04' E 113°29'10437.8
2014-Aug-19 05:23N 22°55' E 113°33'6459926.0
2014-Aug-19 05:19N 31°55' E 120°10'444583.5
2014-Aug-19 04:34N 39°04' E 117°48'1588.2
2014-Aug-19 04:33N 39°04' E 117°49'986887021.1
2014-Aug-19 04:33N 23°04' E 113°29'642210009.6
2014-Aug-19 04:33N 31°57' E 120°13'51189.0
2014-Aug-19 04:33N 31°57' E 120°19'645178751.8
2014-Aug-19 04:33N 23°03' E 113°30'98715717.1
2014-Aug-19 04:29N 39°05' E 117°44'98523810.2
2014-Aug-19 04:26N 23°04' E 113°29'9861116.5
2014-Aug-19 03:34N 39°04' E 117°51'986506987.2
2014-Aug-19 03:33N 23°05' E 113°27'986591439.0
2014-Aug-19 03:33N 39°04' E 117°50'44349823.1
2014-Aug-19 03:33N 31°58' E 120°18'64717909.6
2014-Aug-19 03:31N 23°01' E 113°31'98837443.1
2014-Aug-19 03:29N 39°05' E 117°44'5840.3
2014-Aug-19 03:29N 39°04' E 117°50'985104337.5
2014-Aug-19 03:28N 23°05' E 113°27'2122.3
2014-Aug-19 03:27N 23°04' E 113°30'9851103.8
2014-Aug-19 02:33N 39°05' E 117°45'3719.1
2014-Aug-19 02:33N 39°04' E 117°49'98630853.0
2014-Aug-19 02:31N 23°04' E 113°30'101413.3
2014-Aug-19 02:31N 23°03' E 113°19'111366.3
2014-Aug-19 02:30N 23°01' E 113°31'65135495.7
2014-Aug-19 02:29N 31°60' E 120°22'66018405.5
2014-Aug-19 02:27N 22°47' E 113°38'25119.9
2014-Aug-19 02:15N 23°03' E 113°18'659961.1
2014-Aug-19 01:33N 32°02' E 120°26'660215900.3
2014-Aug-19 01:33N 22°53' E 113°34'996512005.0
2014-Aug-19 01:33N 39°05' E 117°46'9865367.6
2014-Aug-19 01:22N 23°04' E 113°30'655803.2
2014-Aug-19 00:33N 32°02' E 120°31'65759125.5
2014-Aug-19 00:33N 23°01' E 113°31'3130.5
2014-Aug-19 00:31N 23°04' E 113°30'4669.8
2014-Aug-19 00:31N 23°01' E 113°32'0 0.2
2014-Aug-18 23:34N 23°01' E 113°32'65869710.5
2014-Aug-18 23:33N 32°01' E 120°36'658102996.4
2014-Aug-18 23:33N 23°02' E 113°31'297.7
2014-Aug-18 23:31N 23°04' E 113°30'229773.2
2014-Aug-18 23:13N 23°39' E 117°37'228343.9
2014-Aug-18 22:34N 23°01' E 113°32'415.6
2014-Aug-18 22:19N 23°04' E 113°30'4 4.9
2014-Aug-18 21:33N 23°01' E 113°32'420.2
2014-Aug-18 21:22N 23°04' E 113°30'4 4.6
2014-Aug-18 20:33N 23°01' E 113°32'420.3
2014-Aug-18 20:22N 23°04' E 113°30'6562715.9
2014-Aug-18 20:08N 31°60' E 120°36'3 6.1
2014-Aug-18 19:33N 32°01' E 120°32'65690868.3
2014-Aug-18 19:33N 23°01' E 113°32'4116.7
2014-Aug-18 19:31N 23°04' E 113°30'3 2.9
2014-Aug-18 18:33N 23°01' E 113°31'65241938.0
2014-Aug-18 18:32N 32°01' E 120°25'65130824.9
2014-Aug-18 18:31N 23°04' E 113°30'0 0.4
2014-Aug-18 17:33N 23°04' E 113°29'31288.7
2014-Aug-18 17:33N 23°01' E 113°31'640427.2
2014-Aug-18 16:03N 32°01' E 119°59'6401275.3
2014-Aug-18 15:33N 23°01' E 113°32'6488074.8
2014-Aug-18 15:28N 31°58' E 120°21'16144.9
2014-Aug-18 15:22N 31°58' E 120°02'87525.6
2014-Aug-18 15:12N 31°19' E 121°34'656107409.4
2014-Aug-18 15:11N 23°04' E 113°29'6631054.2
2014-Aug-18 14:34N 32°01' E 120°48'66499635.6
2014-Aug-18 14:33N 23°01' E 113°32'65845525.4
2014-Aug-18 14:32N 31°19' E 121°34'826901.1
2014-Aug-18 14:32N 31°57' E 120°08'6404549.9
2014-Aug-18 14:23N 23°04' E 113°29'124149.9
2014-Aug-18 14:23N 22°54' E 113°35'7 8.5
2014-Aug-18 13:34N 23°01' E 113°32'5195.1
2014-Aug-18 13:32N 23°04' E 113°29'643192762.1
2014-Aug-18 13:32N 31°57' E 120°15'7730709.7
2014-Aug-18 13:32N 31°19' E 121°34'664796799.7
2014-Aug-18 13:32N 22°53' E 113°31'3106308.1
2014-Aug-18 13:29N 24°47' E 118°46'307333.8
2014-Aug-18 12:34N 23°01' E 113°31'  

Dump ship's entire track history